Seleccionar fecha


Semana del 05-10-2018 al 12-10-2018

Fecha Temperaturas Humedad relativa Presión atmosférica Precipitaciones Dirección viento Velocidad del viento Velocidad de racha Iluminancia
Fri 05, 12:32 PM27,2 ºC27,8 %960 hPa0,00 l/m2 0º N 0,8 km/h6,4 km/h3178.1 Lux
Fri 05, 12:37 PM27,2 ºC28,5 %960 hPa0,00 l/m2 337,5º NNO 4,2 km/h11,3 km/h3178.1 Lux
Fri 05, 12:42 PM27,1 ºC29,7 %960 hPa0,00 l/m2 45º NE 4,5 km/h12,1 km/h3003.2 Lux
Fri 05, 12:47 PM27,2 ºC29,8 %960 hPa0,00 l/m2 337,5º NNO 5,0 km/h10,1 km/h3368.1 Lux
Fri 05, 12:52 PM27,5 ºC30,0 %960 hPa0,00 l/m2 67,5º ENE 3,8 km/h9,5 km/h3178.1 Lux
Fri 05, 12:57 PM27,3 ºC31,3 %960 hPa0,00 l/m2 225º SO 3,5 km/h9,5 km/h3368.1 Lux
Fri 05, 01:02 PM26,9 ºC31,1 %960 hPa0,00 l/m2 45º NE 5,2 km/h14,1 km/h3368.1 Lux
Fri 05, 01:07 PM27,9 ºC30,4 %960 hPa0,00 l/m2 90º E 2,1 km/h8,1 km/h3178.1 Lux
Fri 05, 01:12 PM28,4 ºC30,1 %959 hPa0,00 l/m2 337,5º NNO 2,6 km/h11,6 km/h3368.1 Lux
Fri 05, 01:17 PM27,2 ºC32,4 %960 hPa0,17 l/m2 0º N 1,8 km/h8,4 km/h2692.9 Lux
Fri 05, 01:22 PM28,3 ºC32,2 %959 hPa0,00 l/m2 67,5º ENE 5,2 km/h9,8 km/h3003.2 Lux
Fri 05, 01:27 PM28,2 ºC31,4 %959 hPa0,00 l/m2 90º E 2,4 km/h7,8 km/h3003.2 Lux
Fri 05, 01:32 PM28,2 ºC30,9 %959 hPa0,00 l/m2 337,5º NNO 4,4 km/h8,4 km/h3368.1 Lux
Fri 05, 01:37 PM28,2 ºC30,6 %959 hPa0,00 l/m2 337,5º NNO 2,7 km/h10,1 km/h3368.1 Lux
Fri 05, 01:42 PM28,7 ºC30,3 %959 hPa0,00 l/m2 45º NE 2,4 km/h10,1 km/h3178.1 Lux
Fri 05, 01:47 PM28,2 ºC31,3 %959 hPa0,00 l/m2 67,5º ENE 2,1 km/h9,3 km/h3178.1 Lux
Fri 05, 01:52 PM28,3 ºC31,4 %959 hPa0,00 l/m2 225º SO 3,0 km/h9,8 km/h3178.1 Lux
Fri 05, 01:57 PM27,5 ºC33,4 %959 hPa0,00 l/m2 247,5º OSO 2,4 km/h9,5 km/h3003.2 Lux
Fri 05, 02:02 PM27,5 ºC32,8 %959 hPa0,00 l/m2 225º SO 2,0 km/h6,9 km/h3368.1 Lux
Fri 05, 02:07 PM27,9 ºC32,3 %959 hPa0,00 l/m2 0º N 3,7 km/h8,4 km/h3178.1 Lux
Fri 05, 02:12 PM27,7 ºC32,8 %959 hPa0,00 l/m2 67,5º ENE 2,8 km/h8,7 km/h3178.1 Lux
Fri 05, 02:17 PM27,7 ºC33,4 %959 hPa0,00 l/m2 315º NO 1,3 km/h5,8 km/h3368.1 Lux
Fri 05, 02:22 PM29,5 ºC30,1 %959 hPa0,00 l/m2 157,5º SSE 1,2 km/h5,2 km/h3178.1 Lux
Fri 05, 02:27 PM28,7 ºC32,8 %959 hPa0,00 l/m2 45º NE 2,7 km/h5,5 km/h3178.1 Lux
Fri 05, 02:32 PM29,0 ºC32,6 %959 hPa0,00 l/m2 225º SO 2,9 km/h8,1 km/h3003.2 Lux
Fri 05, 02:37 PM28,3 ºC33,7 %959 hPa0,00 l/m2 67,5º ENE 6,2 km/h13,9 km/h3003.2 Lux
Fri 05, 02:42 PM28,0 ºC34,6 %959 hPa0,00 l/m2 337,5º NNO 3,7 km/h9,3 km/h3368.1 Lux
Fri 05, 02:47 PM28,8 ºC33,4 %959 hPa0,00 l/m2 225º SO 6,0 km/h11,6 km/h3003.2 Lux
Fri 05, 02:52 PM28,0 ºC34,4 %959 hPa0,00 l/m2 0º N 2,8 km/h8,1 km/h3178.1 Lux
Fri 05, 02:57 PM28,7 ºC33,2 %958 hPa0,00 l/m2 45º NE 4,6 km/h9,3 km/h3178.1 Lux
Fri 05, 03:02 PM28,4 ºC35,0 %959 hPa0,00 l/m2 337,5º NNO 2,9 km/h8,1 km/h3178.1 Lux
Fri 05, 03:07 PM29,0 ºC35,1 %958 hPa0,00 l/m2 337,5º NNO 5,6 km/h10,7 km/h3003.2 Lux
Fri 05, 03:12 PM28,2 ºC34,8 %958 hPa0,00 l/m2 315º NO 4,0 km/h7,8 km/h3368.1 Lux
Fri 05, 03:17 PM29,2 ºC32,7 %958 hPa0,00 l/m2 0º N 3,5 km/h9,0 km/h2841.9 Lux
Fri 05, 03:22 PM28,8 ºC32,6 %958 hPa0,00 l/m2 247,5º OSO 4,7 km/h11,0 km/h2692.9 Lux
Fri 05, 03:27 PM28,9 ºC34,1 %958 hPa0,00 l/m2 225º SO 5,7 km/h13,9 km/h2841.9 Lux
Fri 05, 03:32 PM28,6 ºC36,6 %958 hPa0,00 l/m2 202,5º SSO 11,5 km/h24,8 km/h2554.9 Lux
Fri 05, 03:37 PM26,9 ºC40,8 %958 hPa0,00 l/m2 202,5º SSO 12,4 km/h20,2 km/h2554.9 Lux
Fri 05, 03:42 PM26,4 ºC42,0 %958 hPa0,00 l/m2 337,5º NNO 9,9 km/h18,5 km/h2426.9 Lux
Fri 05, 03:47 PM26,7 ºC42,9 %958 hPa0,00 l/m2 337,5º NNO 10,5 km/h19,1 km/h2426.9 Lux
Fri 05, 03:52 PM27,4 ºC40,4 %958 hPa0,00 l/m2 225º SO 8,6 km/h17,9 km/h2094.2 Lux
Fri 05, 03:57 PM27,5 ºC40,6 %958 hPa0,00 l/m2 202,5º SSO 7,3 km/h15,3 km/h2308 Lux
Fri 05, 04:02 PM27,6 ºC40,2 %958 hPa0,00 l/m2 225º SO 9,3 km/h18,5 km/h2308 Lux
Fri 05, 04:07 PM27,0 ºC39,6 %958 hPa0,00 l/m2 202,5º SSO 9,7 km/h19,7 km/h2197.4 Lux
Fri 05, 04:12 PM27,2 ºC41,9 %958 hPa0,00 l/m2 202,5º SSO 5,8 km/h14,4 km/h2094.2 Lux
Fri 05, 04:17 PM27,7 ºC40,8 %958 hPa0,00 l/m2 202,5º SSO 10,2 km/h20,8 km/h1908 Lux
Fri 05, 04:22 PM27,1 ºC41,8 %958 hPa0,00 l/m2 337,5º NNO 8,1 km/h21,7 km/h1998 Lux
Fri 05, 04:27 PM27,7 ºC41,4 %958 hPa0,00 l/m2 225º SO 9,8 km/h14,7 km/h1823.7 Lux
Fri 05, 04:32 PM26,6 ºC42,3 %958 hPa0,00 l/m2 337,5º NNO 10,2 km/h16,2 km/h1823.7 Lux
Fri 05, 04:37 PM26,8 ºC43,0 %958 hPa0,00 l/m2 247,5º OSO 9,9 km/h18,5 km/h1670.6 Lux
Fri 05, 04:42 PM26,2 ºC45,0 %958 hPa0,00 l/m2 315º NO 8,1 km/h13,3 km/h1601 Lux
Fri 05, 04:47 PM27,1 ºC41,1 %958 hPa0,00 l/m2 157,5º SSE 5,4 km/h10,1 km/h1473.8 Lux
Fri 05, 04:52 PM27,8 ºC39,4 %958 hPa0,00 l/m2 225º SO 2,1 km/h5,8 km/h1473.8 Lux
Fri 05, 04:57 PM28,3 ºC38,3 %958 hPa0,00 l/m2 315º NO 2,5 km/h6,4 km/h1415.6 Lux
Fri 05, 05:02 PM28,3 ºC37,2 %958 hPa0,00 l/m2 225º SO 6,2 km/h15,9 km/h1308.8 Lux
Fri 05, 05:07 PM26,9 ºC39,6 %958 hPa0,00 l/m2 67,5º ENE 8,4 km/h21,7 km/h948 Lux
Fri 05, 05:12 PM26,4 ºC42,3 %958 hPa0,00 l/m2 225º SO 12,5 km/h25,5 km/h980.4 Lux
Fri 05, 05:17 PM25,8 ºC42,3 %958 hPa0,00 l/m2 157,5º SSE 12,1 km/h24,0 km/h859.6 Lux
Fri 05, 05:22 PM25,5 ºC42,2 %958 hPa0,00 l/m2 202,5º SSO 9,2 km/h17,9 km/h980.4 Lux
Fri 05, 05:27 PM25,9 ºC40,5 %958 hPa0,00 l/m2 225º SO 11,2 km/h22,0 km/h1127.5 Lux
Fri 05, 05:32 PM26,0 ºC41,4 %958 hPa0,00 l/m2 202,5º SSO 11,4 km/h17,9 km/h917.2 Lux
Fri 05, 05:37 PM26,0 ºC42,3 %958 hPa0,00 l/m2 225º SO 6,6 km/h17,4 km/h980.4 Lux
Fri 05, 05:42 PM26,3 ºC40,4 %958 hPa0,00 l/m2 202,5º SSO 13,9 km/h32,9 km/h917.2 Lux
Fri 05, 05:47 PM25,2 ºC42,1 %958 hPa0,00 l/m2 202,5º SSO 8,2 km/h19,1 km/h980.4 Lux
Fri 05, 05:52 PM26,0 ºC40,5 %958 hPa0,00 l/m2 202,5º SSO 10,9 km/h24,0 km/h887.7 Lux
Fri 05, 05:57 PM26,1 ºC41,4 %958 hPa0,00 l/m2 157,5º SSE 5,2 km/h15,0 km/h859.6 Lux
Fri 05, 06:02 PM26,6 ºC39,4 %958 hPa0,00 l/m2 202,5º SSO 6,2 km/h19,1 km/h887.7 Lux
Fri 05, 06:07 PM26,1 ºC40,3 %958 hPa0,00 l/m2 247,5º OSO 9,3 km/h19,1 km/h917.2 Lux
Fri 05, 06:12 PM25,9 ºC42,5 %958 hPa0,00 l/m2 225º SO 9,1 km/h17,9 km/h832.8 Lux
Fri 05, 06:17 PM26,0 ºC43,3 %958 hPa0,00 l/m2 225º SO 9,4 km/h16,5 km/h832.8 Lux
Fri 05, 06:22 PM25,6 ºC44,2 %958 hPa0,00 l/m2 225º SO 10,5 km/h21,7 km/h782.6 Lux
Fri 05, 06:27 PM24,9 ºC47,5 %958 hPa0,00 l/m2 337,5º NNO 7,7 km/h14,4 km/h674.9 Lux
Fri 05, 06:32 PM25,6 ºC45,5 %958 hPa0,00 l/m2 0º N 7,8 km/h40,5 km/h370.5 Lux
Fri 05, 06:37 PM25,4 ºC45,7 %958 hPa0,00 l/m2 225º SO 8,7 km/h15,0 km/h362.5 Lux
Fri 05, 06:42 PM24,0 ºC50,0 %958 hPa0,00 l/m2 337,5º NNO 9,9 km/h15,9 km/h319.4 Lux
Fri 05, 06:47 PM24,1 ºC50,2 %958 hPa0,00 l/m2 225º SO 10,9 km/h19,1 km/h231 Lux
Fri 05, 06:52 PM23,8 ºC51,0 %958 hPa0,00 l/m2 225º SO 8,2 km/h13,3 km/h248.3 Lux
Fri 05, 06:57 PM23,8 ºC51,2 %958 hPa0,00 l/m2 135º SE 4,7 km/h8,7 km/h208.2 Lux
Fri 05, 07:02 PM23,9 ºC50,8 %958 hPa0,00 l/m2 157,5º SSE 5,8 km/h11,6 km/h179.7 Lux
Fri 05, 07:07 PM23,8 ºC50,7 %958 hPa0,00 l/m2 0º N 5,2 km/h11,6 km/h156.5 Lux
Fri 05, 07:12 PM23,6 ºC50,5 %958 hPa0,00 l/m2 225º SO 5,0 km/h11,8 km/h121.4 Lux
Fri 05, 07:17 PM23,5 ºC52,0 %958 hPa0,00 l/m2 225º SO 6,4 km/h11,8 km/h99.1 Lux
Fri 05, 07:22 PM23,1 ºC51,8 %958 hPa0,00 l/m2 337,5º NNO 4,4 km/h9,0 km/h65.8 Lux
Fri 05, 07:27 PM22,9 ºC52,9 %958 hPa0,00 l/m2 315º NO 2,8 km/h9,8 km/h55.7 Lux
Fri 05, 07:32 PM22,9 ºC51,4 %958 hPa0,00 l/m2 135º SE 1,4 km/h6,7 km/h43.8 Lux
Fri 05, 07:37 PM23,0 ºC51,4 %958 hPa0,00 l/m2 45º NE 1,8 km/h6,1 km/h35.3 Lux
Fri 05, 07:42 PM23,1 ºC49,2 %958 hPa0,00 l/m2 67,5º ENE 1,0 km/h5,8 km/h25 Lux
Fri 05, 07:47 PM22,9 ºC49,8 %958 hPa0,00 l/m2 45º NE 2,8 km/h11,3 km/h18.6 Lux
Fri 05, 07:52 PM22,7 ºC50,7 %958 hPa0,00 l/m2 0º N 1,9 km/h9,5 km/h13.9 Lux
Fri 05, 07:57 PM22,6 ºC50,1 %958 hPa0,00 l/m2 45º NE 0,5 km/h3,5 km/h7.9 Lux
Fri 05, 08:02 PM22,5 ºC50,2 %958 hPa0,00 l/m2 0º N 1,6 km/h5,5 km/h5.2 Lux
Fri 05, 08:07 PM22,2 ºC52,8 %958 hPa0,00 l/m2 112.5º ESE 1,8 km/h6,9 km/h3.2 Lux
Fri 05, 08:12 PM22,4 ºC49,8 %958 hPa0,00 l/m2 45º NE 3,6 km/h10,1 km/h2.7 Lux
Fri 05, 08:17 PM22,6 ºC49,2 %958 hPa0,00 l/m2 337,5º NNO 4,6 km/h14,7 km/h2.4 Lux
Fri 05, 08:22 PM22,3 ºC51,1 %958 hPa0,00 l/m2 225º SO 3,9 km/h14,1 km/h2.4 Lux
Fri 05, 08:27 PM22,2 ºC52,1 %958 hPa0,00 l/m2 315º NO 1,2 km/h8,1 km/h2.3 Lux
Fri 05, 08:32 PM22,1 ºC49,9 %958 hPa0,00 l/m2 337,5º NNO 2,5 km/h7,2 km/h2.2 Lux
Fri 05, 08:37 PM22,2 ºC49,2 %958 hPa0,00 l/m2 0º N 2,9 km/h9,8 km/h2.3 Lux
Fri 05, 08:42 PM22,1 ºC47,8 %958 hPa0,00 l/m2 67,5º ENE 2,5 km/h7,5 km/h2.4 Lux
Fri 05, 08:47 PM22,1 ºC47,4 %958 hPa0,00 l/m2 157,5º SSE 0,7 km/h3,7 km/h2.2 Lux
Fri 05, 08:52 PM22,0 ºC47,8 %958 hPa0,00 l/m2 337,5º NNO 0,6 km/h4,6 km/h2.3 Lux
Fri 05, 08:57 PM22,0 ºC47,7 %958 hPa0,00 l/m2 45º NE 1,0 km/h6,1 km/h2.3 Lux
Fri 05, 09:02 PM21,9 ºC48,0 %958 hPa0,00 l/m2 225º SO 0,2 km/h2,3 km/h2.2 Lux
Fri 05, 09:07 PM21,8 ºC46,8 %958 hPa0,00 l/m2 337,5º NNO 0,8 km/h3,2 km/h2.2 Lux
Fri 05, 09:12 PM21,9 ºC46,4 %958 hPa0,00 l/m2 67,5º ENE 3,1 km/h6,4 km/h2.2 Lux
Fri 05, 09:17 PM22,0 ºC44,6 %958 hPa0,00 l/m2 247,5º OSO 3,5 km/h9,0 km/h2.3 Lux
Fri 05, 09:22 PM22,3 ºC43,1 %958 hPa0,00 l/m2 315º NO 3,7 km/h11,6 km/h2.3 Lux
Fri 05, 09:27 PM22,2 ºC43,0 %958 hPa0,00 l/m2 225º SO 1,8 km/h7,5 km/h2.2 Lux
Fri 05, 09:32 PM22,1 ºC42,6 %958 hPa0,00 l/m2 315º NO 1,7 km/h6,9 km/h2.1 Lux
Fri 05, 09:37 PM22,1 ºC42,3 %958 hPa0,00 l/m2 225º SO 2,0 km/h7,8 km/h2.3 Lux
Fri 05, 09:42 PM22,1 ºC43,2 %959 hPa0,00 l/m2 135º SE 2,6 km/h8,1 km/h2.2 Lux
Fri 05, 09:47 PM22,1 ºC40,6 %959 hPa0,00 l/m2 225º SO 5,7 km/h11,6 km/h2.4 Lux
Fri 05, 09:52 PM22,3 ºC39,7 %959 hPa0,00 l/m2 315º NO 2,0 km/h8,4 km/h2.1 Lux
Fri 05, 09:57 PM21,5 ºC45,4 %959 hPa0,00 l/m2 337,5º NNO 7,0 km/h17,1 km/h2.2 Lux
Fri 05, 10:02 PM21,7 ºC43,0 %959 hPa0,00 l/m2 225º SO 5,1 km/h10,4 km/h2.2 Lux
Fri 05, 10:07 PM22,1 ºC41,9 %959 hPa0,00 l/m2 225º SO 4,2 km/h9,3 km/h2.3 Lux
Fri 05, 10:12 PM22,0 ºC43,2 %959 hPa0,00 l/m2 225º SO 0,9 km/h7,5 km/h2.3 Lux
Fri 05, 10:17 PM21,6 ºC44,5 %959 hPa0,00 l/m2 337,5º NNO 4,6 km/h10,7 km/h2.3 Lux
Fri 05, 10:22 PM22,0 ºC41,1 %959 hPa0,00 l/m2 225º SO 7,9 km/h15,3 km/h2.3 Lux
Fri 05, 10:27 PM22,0 ºC39,9 %959 hPa0,00 l/m2 337,5º NNO 5,4 km/h12,7 km/h2.3 Lux
Fri 05, 10:32 PM21,9 ºC39,3 %959 hPa0,00 l/m2 157,5º SSE 3,9 km/h10,1 km/h2.3 Lux
Fri 05, 10:37 PM21,8 ºC40,1 %959 hPa0,00 l/m2 225º SO 2,8 km/h9,3 km/h2.2 Lux
Fri 05, 10:42 PM21,8 ºC40,1 %959 hPa0,00 l/m2 315º NO 1,0 km/h4,6 km/h2.2 Lux
Fri 05, 10:47 PM21,5 ºC44,4 %959 hPa0,00 l/m2 67,5º ENE 0,4 km/h3,5 km/h2.3 Lux
Fri 05, 10:52 PM21,3 ºC42,9 %959 hPa0,00 l/m2 67,5º ENE 0,2 km/h1,4 km/h2.1 Lux
Fri 05, 10:57 PM21,1 ºC44,2 %959 hPa0,00 l/m2 45º NE 1,8 km/h8,7 km/h2.2 Lux
Fri 05, 11:02 PM21,5 ºC39,9 %959 hPa0,00 l/m2 67,5º ENE 0,3 km/h1,7 km/h2.3 Lux
Fri 05, 11:07 PM21,3 ºC41,4 %959 hPa0,00 l/m2 45º NE 0,1 km/h0,6 km/h2.2 Lux
Fri 05, 11:12 PM21,3 ºC40,8 %959 hPa0,00 l/m2 67,5º ENE 0,0 km/h0,0 km/h2.2 Lux
Fri 05, 11:17 PM21,0 ºC42,1 %959 hPa0,00 l/m2 67,5º ENE 0,1 km/h0,6 km/h2.2 Lux
Fri 05, 11:22 PM20,9 ºC42,5 %959 hPa0,00 l/m2 157,5º SSE 0,1 km/h1,7 km/h2.2 Lux
Fri 05, 11:27 PM20,8 ºC42,9 %959 hPa0,00 l/m2 67,5º ENE 0,5 km/h3,2 km/h2.3 Lux
Fri 05, 11:32 PM20,8 ºC43,1 %959 hPa0,00 l/m2 0º N 0,4 km/h2,9 km/h2.3 Lux
Fri 05, 11:37 PM20,8 ºC44,1 %959 hPa0,00 l/m2 202,5º SSO 0,2 km/h1,4 km/h2.2 Lux
Fri 05, 11:42 PM20,8 ºC46,2 %959 hPa0,00 l/m2 225º SO 1,7 km/h6,4 km/h2.1 Lux
Fri 05, 11:47 PM20,7 ºC46,9 %959 hPa0,00 l/m2 225º SO 1,1 km/h3,7 km/h2.1 Lux
Fri 05, 11:52 PM20,5 ºC48,3 %959 hPa0,00 l/m2 247,5º OSO 1,1 km/h4,6 km/h2.1 Lux
Fri 05, 11:57 PM20,5 ºC48,8 %959 hPa0,00 l/m2 202,5º SSO 0,7 km/h2,3 km/h2.3 Lux
Sat 06, 12:02 AM20,3 ºC49,7 %959 hPa0,00 l/m2 225º SO 0,4 km/h2,6 km/h2.2 Lux
Sat 06, 12:07 AM20,3 ºC50,1 %959 hPa0,00 l/m2 247,5º OSO 0,2 km/h1,7 km/h2.2 Lux
Sat 06, 12:12 AM20,4 ºC48,7 %959 hPa0,00 l/m2 337,5º NNO 0,0 km/h0,0 km/h2.3 Lux
Sat 06, 12:17 AM20,1 ºC49,7 %959 hPa0,00 l/m2 157,5º SSE 0,0 km/h0,3 km/h2.3 Lux
Sat 06, 12:22 AM20,0 ºC49,9 %959 hPa0,00 l/m2 67,5º ENE 0,0 km/h0,0 km/h2.3 Lux
Sat 06, 12:27 AM19,6 ºC51,2 %959 hPa0,00 l/m2 67,5º ENE 0,0 km/h0,0 km/h2.3 Lux
Sat 06, 12:32 AM19,0 ºC55,3 %960 hPa0,00 l/m2 45º NE 0,0 km/h0,0 km/h2.2 Lux
Sat 06, 12:37 AM18,7 ºC57,1 %960 hPa0,00 l/m2 67,5º ENE 0,0 km/h0,0 km/h2.2 Lux
Sat 06, 12:42 AM18,7 ºC57,6 %959 hPa0,00 l/m2 67,5º ENE 0,0 km/h0,0 km/h2.2 Lux
Sat 06, 12:47 AM18,6 ºC58,4 %960 hPa0,00 l/m2 45º NE 0,0 km/h0,3 km/h2.2 Lux
Sat 06, 12:52 AM18,6 ºC58,7 %959 hPa0,00 l/m2 67,5º ENE 0,0 km/h0,0 km/h2.3 Lux
Sat 06, 12:57 AM18,7 ºC58,0 %959 hPa0,00 l/m2 67,5º ENE 0,1 km/h1,7 km/h2.2 Lux
Sat 06, 01:02 AM18,7 ºC56,5 %959 hPa0,00 l/m2 0º N 0,0 km/h0,0 km/h2.2 Lux
Sat 06, 01:07 AM19,6 ºC52,2 %959 hPa0,00 l/m2 0º N 0,0 km/h0,0 km/h2.2 Lux
Sat 06, 01:12 AM19,0 ºC55,4 %959 hPa0,00 l/m2 45º NE 0,0 km/h0,0 km/h2.2 Lux
Sat 06, 01:17 AM18,5 ºC57,9 %959 hPa0,00 l/m2 67,5º ENE 0,0 km/h0,0 km/h2.1 Lux
Sat 06, 01:22 AM18,9 ºC56,5 %959 hPa0,00 l/m2 67,5º ENE 0,0 km/h0,0 km/h2.3 Lux
Sat 06, 01:27 AM18,6 ºC56,8 %959 hPa0,00 l/m2 67,5º ENE 0,0 km/h0,0 km/h2.3 Lux
Sat 06, 01:32 AM18,6 ºC56,6 %959 hPa0,00 l/m2 157,5º SSE 0,0 km/h0,0 km/h2.3 Lux
Sat 06, 01:37 AM19,0 ºC55,0 %959 hPa0,00 l/m2 67,5º ENE 0,0 km/h0,0 km/h2.3 Lux
Sat 06, 01:42 AM19,4 ºC54,0 %959 hPa0,00 l/m2 67,5º ENE 0,0 km/h0,0 km/h2.3 Lux
Sat 06, 01:47 AM19,1 ºC54,4 %959 hPa0,00 l/m2 67,5º ENE 0,0 km/h0,0 km/h2.3 Lux
Sat 06, 01:52 AM18,8 ºC55,8 %959 hPa0,00 l/m2 45º NE 0,0 km/h0,0 km/h2.2 Lux
Sat 06, 01:57 AM18,5 ºC56,8 %959 hPa0,00 l/m2 90º E 0,0 km/h0,0 km/h2.2 Lux
Sat 06, 02:02 AM18,4 ºC57,2 %959 hPa0,00 l/m2 247,5º OSO 0,0 km/h0,0 km/h2.2 Lux
Sat 06, 02:07 AM18,5 ºC57,3 %959 hPa0,00 l/m2 135º SE 0,0 km/h0,0 km/h2.3 Lux
Sat 06, 02:12 AM18,8 ºC55,7 %959 hPa0,00 l/m2 67,5º ENE 0,0 km/h0,0 km/h2.3 Lux
Sat 06, 02:17 AM19,0 ºC55,3 %959 hPa0,00 l/m2 0º N 0,0 km/h0,0 km/h2.2 Lux
Sat 06, 02:22 AM18,8 ºC55,9 %959 hPa0,00 l/m2 157,5º SSE 0,0 km/h0,0 km/h2.4 Lux
Sat 06, 02:27 AM18,5 ºC57,5 %959 hPa0,00 l/m2 67,5º ENE 0,0 km/h0,0 km/h2.2 Lux
Sat 06, 02:32 AM18,4 ºC58,3 %959 hPa0,00 l/m2 202,5º SSO 0,0 km/h0,0 km/h2.3 Lux
Sat 06, 02:37 AM18,7 ºC58,3 %959 hPa0,00 l/m2 67,5º ENE 0,0 km/h0,0 km/h2.2 Lux
Sat 06, 02:42 AM18,7 ºC58,5 %959 hPa0,00 l/m2 67,5º ENE 0,0 km/h0,0 km/h2.3 Lux
Sat 06, 02:47 AM18,3 ºC59,2 %959 hPa0,00 l/m2 67,5º ENE 0,0 km/h0,0 km/h2.3 Lux
Sat 06, 02:52 AM18,2 ºC59,2 %959 hPa0,00 l/m2 247,5º OSO 0,0 km/h0,0 km/h2.1 Lux
Sat 06, 02:57 AM18,3 ºC57,8 %959 hPa0,00 l/m2 45º NE 0,0 km/h0,0 km/h2.2 Lux
Sat 06, 03:02 AM18,5 ºC58,2 %959 hPa0,00 l/m2 0º N 0,0 km/h0,0 km/h2.3 Lux
Sat 06, 03:07 AM18,1 ºC60,2 %959 hPa0,00 l/m2 45º NE 0,0 km/h0,0 km/h2.1 Lux
Sat 06, 03:12 AM18,5 ºC59,4 %959 hPa0,00 l/m2 67,5º ENE 0,3 km/h3,2 km/h2.3 Lux
Sat 06, 03:17 AM18,3 ºC60,3 %959 hPa0,00 l/m2 67,5º ENE 0,0 km/h0,0 km/h2.2 Lux
Sat 06, 03:22 AM18,2 ºC59,8 %959 hPa0,00 l/m2 67,5º ENE 0,0 km/h0,0 km/h2.3 Lux
Sat 06, 03:27 AM18,3 ºC59,4 %959 hPa0,00 l/m2 45º NE 0,0 km/h0,3 km/h2.2 Lux
Sat 06, 03:32 AM18,2 ºC60,3 %959 hPa0,00 l/m2 157,5º SSE 0,0 km/h0,0 km/h2.1 Lux
Sat 06, 03:37 AM18,0 ºC61,0 %959 hPa0,00 l/m2 0º N 0,0 km/h0,0 km/h2.3 Lux
Sat 06, 03:42 AM18,2 ºC60,4 %959 hPa0,00 l/m2 202,5º SSO 0,0 km/h0,0 km/h2.3 Lux
Sat 06, 03:47 AM18,2 ºC60,4 %959 hPa0,00 l/m2 67,5º ENE 0,0 km/h0,0 km/h2.3 Lux
Sat 06, 03:52 AM18,0 ºC61,5 %959 hPa0,00 l/m2 45º NE 0,0 km/h0,0 km/h2.2 Lux
Sat 06, 03:57 AM18,1 ºC61,0 %959 hPa0,00 l/m2 67,5º ENE 0,1 km/h2,3 km/h2.3 Lux
Sat 06, 04:02 AM18,2 ºC61,2 %959 hPa0,00 l/m2 67,5º ENE 0,0 km/h0,0 km/h2.1 Lux
Sat 06, 04:07 AM18,5 ºC60,1 %959 hPa0,00 l/m2 67,5º ENE 0,0 km/h0,0 km/h2.3 Lux
Sat 06, 04:12 AM18,1 ºC61,3 %959 hPa0,00 l/m2 45º NE 0,0 km/h0,0 km/h2.3 Lux
Sat 06, 04:17 AM18,7 ºC59,6 %959 hPa0,00 l/m2 247,5º OSO 0,0 km/h0,0 km/h2.2 Lux
Sat 06, 04:22 AM18,1 ºC61,7 %959 hPa0,00 l/m2 45º NE 0,0 km/h0,0 km/h2.1 Lux
Sat 06, 04:27 AM17,8 ºC62,7 %958 hPa0,00 l/m2 67,5º ENE 0,0 km/h0,3 km/h2.2 Lux
Sat 06, 04:32 AM17,7 ºC63,3 %958 hPa0,00 l/m2 247,5º OSO 0,0 km/h0,0 km/h2.2 Lux
Sat 06, 04:37 AM18,0 ºC63,3 %958 hPa0,00 l/m2 337,5º NNO 0,0 km/h0,3 km/h2.3 Lux
Sat 06, 04:42 AM18,0 ºC63,4 %958 hPa0,00 l/m2 67,5º ENE 1,0 km/h4,3 km/h2.3 Lux
Sat 06, 04:47 AM18,0 ºC64,6 %959 hPa0,00 l/m2 157,5º SSE 0,1 km/h1,4 km/h2.3 Lux
Sat 06, 04:52 AM17,8 ºC65,7 %959 hPa0,00 l/m2 247,5º OSO 0,0 km/h0,0 km/h2.1 Lux
Sat 06, 04:57 AM18,0 ºC65,4 %958 hPa0,00 l/m2 247,5º OSO 0,0 km/h0,0 km/h2.1 Lux
Sat 06, 05:02 AM17,7 ºC66,8 %958 hPa0,00 l/m2 247,5º OSO 0,0 km/h0,3 km/h2.1 Lux
Sat 06, 05:07 AM17,7 ºC67,2 %958 hPa0,00 l/m2 67,5º ENE 0,0 km/h0,0 km/h2.2 Lux
Sat 06, 05:12 AM17,5 ºC68,3 %958 hPa0,00 l/m2 0º N 0,0 km/h0,6 km/h2.3 Lux
Sat 06, 05:17 AM17,4 ºC69,3 %958 hPa0,00 l/m2 67,5º ENE 0,9 km/h6,9 km/h2.4 Lux
Sat 06, 05:22 AM17,8 ºC69,0 %958 hPa0,00 l/m2 0º N 0,0 km/h0,0 km/h2.4 Lux
Sat 06, 05:27 AM17,8 ºC69,5 %958 hPa0,00 l/m2 67,5º ENE 0,0 km/h0,0 km/h2.3 Lux
Sat 06, 05:32 AM17,6 ºC70,6 %958 hPa0,00 l/m2 0º N 0,0 km/h0,0 km/h2.3 Lux
Sat 06, 05:37 AM17,6 ºC71,3 %958 hPa0,00 l/m2 0º N 0,0 km/h0,3 km/h2.1 Lux
Sat 06, 05:42 AM17,8 ºC73,7 %958 hPa0,00 l/m2 315º NO 1,0 km/h8,7 km/h2.1 Lux
Sat 06, 05:47 AM18,3 ºC74,1 %958 hPa0,00 l/m2 45º NE 0,9 km/h9,8 km/h2.1 Lux
Sat 06, 05:52 AM18,4 ºC74,5 %958 hPa0,00 l/m2 45º NE 1,4 km/h9,5 km/h2.1 Lux
Sat 06, 05:57 AM18,3 ºC73,7 %958 hPa0,00 l/m2 337,5º NNO 0,1 km/h0,9 km/h2.2 Lux
Sat 06, 06:02 AM18,4 ºC71,2 %958 hPa0,00 l/m2 337,5º NNO 0,8 km/h9,0 km/h2.1 Lux
Sat 06, 06:07 AM18,3 ºC71,7 %958 hPa0,00 l/m2 337,5º NNO 1,1 km/h6,9 km/h2.1 Lux
Sat 06, 06:12 AM18,5 ºC70,1 %958 hPa0,00 l/m2 0º N 2,4 km/h8,4 km/h2.2 Lux
Sat 06, 06:17 AM17,9 ºC71,9 %958 hPa0,00 l/m2 45º NE 0,0 km/h0,3 km/h2.3 Lux
Sat 06, 06:22 AM17,1 ºC76,9 %958 hPa0,00 l/m2 67,5º ENE 1,7 km/h5,8 km/h2.2 Lux
Sat 06, 06:27 AM17,0 ºC79,4 %958 hPa0,00 l/m2 0º N 0,0 km/h0,0 km/h2.3 Lux
Sat 06, 06:32 AM17,1 ºC79,4 %958 hPa0,00 l/m2 67,5º ENE 0,0 km/h0,3 km/h2.2 Lux
Sat 06, 06:37 AM16,5 ºC83,1 %958 hPa0,00 l/m2 247,5º OSO 0,0 km/h0,0 km/h2.1 Lux
Sat 06, 06:42 AM16,8 ºC82,2 %958 hPa0,00 l/m2 67,5º ENE 0,0 km/h0,3 km/h2.3 Lux
Sat 06, 06:47 AM16,8 ºC82,5 %958 hPa0,00 l/m2 45º NE 0,0 km/h0,0 km/h2.2 Lux
Sat 06, 06:52 AM16,9 ºC81,4 %958 hPa0,00 l/m2 67,5º ENE 0,0 km/h0,3 km/h2.2 Lux
Sat 06, 06:57 AM16,8 ºC82,5 %958 hPa0,00 l/m2 67,5º ENE 0,0 km/h0,3 km/h2.2 Lux
Sat 06, 07:02 AM17,0 ºC81,1 %959 hPa0,00 l/m2 45º NE 0,0 km/h0,0 km/h2.1 Lux
Sat 06, 07:07 AM16,3 ºC84,2 %959 hPa0,00 l/m2 247,5º OSO 0,4 km/h4,0 km/h2.1 Lux
Sat 06, 07:12 AM16,5 ºC84,1 %959 hPa0,00 l/m2 0º N 0,1 km/h0,9 km/h2.2 Lux
Sat 06, 07:17 AM17,2 ºC80,6 %959 hPa0,00 l/m2 157,5º SSE 0,0 km/h0,3 km/h2.2 Lux
Sat 06, 07:22 AM16,8 ºC82,4 %959 hPa0,00 l/m2 247,5º OSO 0,0 km/h0,3 km/h2.2 Lux
Sat 06, 07:27 AM16,9 ºC82,2 %959 hPa0,00 l/m2 67,5º ENE 0,0 km/h0,0 km/h2.2 Lux
Sat 06, 07:32 AM17,0 ºC82,4 %959 hPa0,00 l/m2 0º N 0,0 km/h0,0 km/h2.3 Lux
Sat 06, 07:37 AM16,4 ºC84,1 %959 hPa0,00 l/m2 0º N 0,0 km/h0,0 km/h2.1 Lux
Sat 06, 07:42 AM16,3 ºC84,6 %959 hPa0,00 l/m2 67,5º ENE 0,0 km/h0,0 km/h2.2 Lux
Sat 06, 07:47 AM16,5 ºC84,4 %959 hPa0,00 l/m2 337,5º NNO 0,1 km/h2,0 km/h2.3 Lux
Sat 06, 07:52 AM16,7 ºC84,2 %959 hPa0,00 l/m2 337,5º NNO 0,0 km/h0,3 km/h2.3 Lux
Sat 06, 07:57 AM16,8 ºC83,6 %959 hPa0,00 l/m2 67,5º ENE 0,0 km/h0,3 km/h2.5 Lux
Sat 06, 08:02 AM16,6 ºC85,2 %959 hPa0,00 l/m2 67,5º ENE 0,0 km/h0,3 km/h2.8 Lux
Sat 06, 08:07 AM16,5 ºC85,8 %959 hPa0,00 l/m2 0º N 0,0 km/h0,0 km/h4.1 Lux
Sat 06, 08:12 AM16,3 ºC86,2 %959 hPa0,00 l/m2 247,5º OSO 0,0 km/h0,0 km/h6.3 Lux
Sat 06, 08:17 AM16,0 ºC88,6 %959 hPa0,00 l/m2 0º N 0,0 km/h0,0 km/h10.1 Lux
Sat 06, 08:22 AM15,8 ºC89,5 %959 hPa0,00 l/m2 202,5º SSO 0,0 km/h0,3 km/h14.7 Lux
Sat 06, 08:27 AM15,7 ºC91,0 %959 hPa0,00 l/m2 67,5º ENE 0,0 km/h0,0 km/h20.2 Lux
Sat 06, 08:32 AM16,2 ºC88,4 %959 hPa0,00 l/m2 67,5º ENE 0,0 km/h0,0 km/h26.9 Lux
Sat 06, 08:37 AM16,6 ºC85,4 %959 hPa0,00 l/m2 67,5º ENE 0,0 km/h0,0 km/h34.2 Lux
Sat 06, 08:42 AM16,7 ºC85,3 %959 hPa0,00 l/m2 67,5º ENE 0,0 km/h0,0 km/h42.8 Lux
Sat 06, 08:47 AM16,4 ºC86,3 %959 hPa0,00 l/m2 67,5º ENE 0,0 km/h0,3 km/h49.5 Lux
Sat 06, 08:52 AM16,0 ºC88,7 %960 hPa0,00 l/m2 67,5º ENE 0,0 km/h0,0 km/h60.8 Lux
Sat 06, 08:57 AM15,2 ºC94,9 %960 hPa0,00 l/m2 45º NE 0,0 km/h0,3 km/h72.2 Lux
Sat 06, 09:02 AM15,8 ºC92,2 %960 hPa0,00 l/m2 67,5º ENE 0,0 km/h0,3 km/h80.4 Lux
Sat 06, 09:07 AM15,9 ºC91,8 %960 hPa0,00 l/m2 67,5º ENE 0,0 km/h0,3 km/h91.2 Lux
Sat 06, 09:12 AM16,2 ºC89,4 %960 hPa0,00 l/m2 67,5º ENE 0,0 km/h0,0 km/h106.7 Lux
Sat 06, 09:17 AM16,6 ºC85,9 %960 hPa0,00 l/m2 315º NO 0,0 km/h0,3 km/h115.2 Lux
Sat 06, 09:22 AM16,7 ºC85,2 %960 hPa0,00 l/m2 67,5º ENE 0,0 km/h0,0 km/h118.3 Lux
Sat 06, 09:27 AM16,9 ºC83,1 %960 hPa0,00 l/m2 45º NE 0,0 km/h0,3 km/h131.7 Lux
Sat 06, 09:32 AM16,9 ºC84,2 %960 hPa0,00 l/m2 67,5º ENE 0,0 km/h0,3 km/h143.3 Lux
Sat 06, 09:37 AM17,0 ºC85,1 %960 hPa0,00 l/m2 337,5º NNO 0,1 km/h1,2 km/h151.9 Lux
Sat 06, 09:42 AM16,8 ºC87,3 %960 hPa0,00 l/m2 0º N 0,7 km/h5,8 km/h154.2 Lux
Sat 06, 09:47 AM16,9 ºC87,6 %960 hPa0,00 l/m2 0º N 0,0 km/h0,0 km/h176.9 Lux
Sat 06, 09:52 AM17,0 ºC87,5 %960 hPa0,00 l/m2 45º NE 0,0 km/h0,0 km/h194.8 Lux
Sat 06, 09:57 AM17,2 ºC86,3 %960 hPa0,00 l/m2 45º NE 0,0 km/h0,0 km/h219.2 Lux
Sat 06, 10:02 AM17,3 ºC86,6 %960 hPa0,00 l/m2 337,5º NNO 1,3 km/h6,9 km/h252.9 Lux
Sat 06, 10:07 AM17,5 ºC86,3 %960 hPa0,00 l/m2 337,5º NNO 0,7 km/h5,2 km/h313 Lux
Sat 06, 10:12 AM17,7 ºC84,4 %960 hPa0,00 l/m2 45º NE 1,2 km/h5,5 km/h396.1 Lux
Sat 06, 10:17 AM18,0 ºC82,5 %960 hPa0,00 l/m2 0º N 0,0 km/h0,0 km/h656 Lux
Sat 06, 10:22 AM18,7 ºC77,9 %960 hPa0,00 l/m2 45º NE 0,0 km/h0,0 km/h1087.9 Lux
Sat 06, 10:27 AM21,8 ºC63,5 %960 hPa0,00 l/m2 67,5º ENE 0,0 km/h0,0 km/h1473.8 Lux
Sat 06, 10:32 AM22,6 ºC58,9 %960 hPa0,00 l/m2 45º NE 0,0 km/h0,0 km/h1670.6 Lux
Sat 06, 10:37 AM24,1 ºC51,7 %960 hPa0,00 l/m2 0º N 0,0 km/h0,0 km/h1670.6 Lux
Sat 06, 10:42 AM22,9 ºC55,3 %960 hPa0,00 l/m2 67,5º ENE 0,0 km/h0,0 km/h1744.7 Lux
Sat 06, 10:47 AM23,3 ºC53,5 %960 hPa0,00 l/m2 67,5º ENE 2,3 km/h8,4 km/h1823.7 Lux
Sat 06, 10:52 AM21,6 ºC59,9 %960 hPa0,00 l/m2 45º NE 0,0 km/h0,3 km/h1908 Lux
Sat 06, 10:57 AM22,0 ºC57,7 %960 hPa0,00 l/m2 90º E 0,0 km/h0,0 km/h1744.7 Lux
Sat 06, 11:02 AM23,8 ºC51,0 %960 hPa0,00 l/m2 67,5º ENE 0,0 km/h0,3 km/h1998 Lux
Sat 06, 11:07 AM23,7 ºC50,6 %960 hPa0,00 l/m2 45º NE 0,1 km/h0,9 km/h1998 Lux
Sat 06, 11:12 AM23,4 ºC51,4 %960 hPa0,00 l/m2 67,5º ENE 0,0 km/h0,0 km/h1998 Lux
Sat 06, 11:17 AM24,4 ºC48,8 %960 hPa0,00 l/m2 67,5º ENE 0,0 km/h0,0 km/h2197.4 Lux
Sat 06, 11:22 AM25,5 ºC45,6 %960 hPa0,00 l/m2 67,5º ENE 0,0 km/h0,0 km/h2197.4 Lux
Sat 06, 11:27 AM26,0 ºC45,1 %960 hPa0,00 l/m2 135º SE 0,0 km/h0,0 km/h2426.9 Lux
Sat 06, 11:32 AM23,9 ºC49,2 %960 hPa0,00 l/m2 67,5º ENE 0,0 km/h0,0 km/h2308 Lux
Sat 06, 11:37 AM26,4 ºC43,3 %960 hPa0,00 l/m2 45º NE 0,0 km/h0,6 km/h2426.9 Lux
Sat 06, 11:42 AM26,0 ºC42,9 %960 hPa0,00 l/m2 337,5º NNO 2,1 km/h8,1 km/h2692.9 Lux
Sat 06, 11:47 AM23,8 ºC47,9 %960 hPa0,00 l/m2 337,5º NNO 2,6 km/h11,8 km/h2841.9 Lux
Sat 06, 11:52 AM24,2 ºC48,0 %960 hPa0,00 l/m2 45º NE 0,8 km/h6,9 km/h2692.9 Lux
Sat 06, 11:57 AM24,9 ºC45,8 %960 hPa0,00 l/m2 247,5º OSO 0,0 km/h0,3 km/h2841.9 Lux
Sat 06, 12:02 PM25,9 ºC42,7 %960 hPa0,00 l/m2 67,5º ENE 0,0 km/h0,0 km/h2841.9 Lux
Sat 06, 12:07 PM26,6 ºC40,0 %960 hPa0,00 l/m2 67,5º ENE 1,0 km/h11,6 km/h3003.2 Lux
Sat 06, 12:12 PM27,1 ºC39,0 %960 hPa0,00 l/m2 67,5º ENE 0,0 km/h0,0 km/h2841.9 Lux
Sat 06, 12:17 PM27,9 ºC36,6 %960 hPa0,00 l/m2 90º E 0,1 km/h0,6 km/h2692.9 Lux
Sat 06, 12:22 PM28,3 ºC33,6 %960 hPa0,00 l/m2 337,5º NNO 4,7 km/h12,4 km/h3003.2 Lux
Sat 06, 12:27 PM26,8 ºC35,5 %960 hPa0,00 l/m2 337,5º NNO 6,2 km/h10,7 km/h3178.1 Lux
Sat 06, 12:32 PM26,9 ºC35,1 %960 hPa0,00 l/m2 315º NO 1,1 km/h3,7 km/h3368.1 Lux
Sat 06, 12:37 PM28,0 ºC35,0 %960 hPa0,00 l/m2 45º NE 6,8 km/h18,5 km/h3003.2 Lux
Sat 06, 12:42 PM27,3 ºC35,0 %960 hPa0,00 l/m2 67,5º ENE 2,8 km/h9,8 km/h3003.2 Lux
Sat 06, 12:47 PM28,0 ºC31,6 %960 hPa0,00 l/m2 45º NE 0,0 km/h0,3 km/h3178.1 Lux
Sat 06, 12:52 PM29,8 ºC27,6 %960 hPa0,00 l/m2 67,5º ENE 0,1 km/h0,6 km/h3003.2 Lux
Sat 06, 12:57 PM29,2 ºC27,9 %960 hPa0,00 l/m2 135º SE 0,4 km/h2,3 km/h3178.1 Lux
Sat 06, 01:02 PM29,0 ºC28,4 %960 hPa0,00 l/m2 45º NE 4,5 km/h16,8 km/h3178.1 Lux
Sat 06, 01:07 PM27,9 ºC31,0 %960 hPa0,00 l/m2 337,5º NNO 4,6 km/h12,7 km/h3368.1 Lux
Sat 06, 01:12 PM27,7 ºC29,5 %960 hPa0,00 l/m2 337,5º NNO 4,2 km/h17,4 km/h3368.1 Lux
Sat 06, 01:17 PM28,3 ºC29,7 %960 hPa0,00 l/m2 337,5º NNO 5,4 km/h13,0 km/h3368.1 Lux
Sat 06, 01:22 PM27,9 ºC28,9 %960 hPa0,00 l/m2 0º N 2,4 km/h13,9 km/h3178.1 Lux
Sat 06, 01:27 PM28,0 ºC28,1 %959 hPa0,00 l/m2 337,5º NNO 7,3 km/h13,3 km/h3368.1 Lux
Sat 06, 01:32 PM28,0 ºC27,8 %959 hPa0,00 l/m2 0º N 1,5 km/h11,6 km/h3178.1 Lux
Sat 06, 01:37 PM29,2 ºC26,3 %959 hPa0,00 l/m2 0º N 0,8 km/h7,2 km/h3368.1 Lux
Sat 06, 01:42 PM29,7 ºC25,2 %959 hPa0,00 l/m2 337,5º NNO 3,3 km/h13,9 km/h3368.1 Lux
Sat 06, 01:47 PM29,8 ºC25,7 %959 hPa0,00 l/m2 202,5º SSO 4,3 km/h10,4 km/h3178.1 Lux
Sat 06, 01:52 PM29,1 ºC26,2 %959 hPa0,00 l/m2 202,5º SSO 3,6 km/h6,7 km/h3368.1 Lux
Sat 06, 01:57 PM29,2 ºC25,9 %959 hPa0,00 l/m2 225º SO 2,6 km/h9,8 km/h3368.1 Lux
Sat 06, 02:22 PM29,4 ºC27,4 %959 hPa0,00 l/m2 337,5º NNO 2,3 km/h10,7 km/h3368.1 Lux
Sat 06, 02:32 PM30,1 ºC27,5 %959 hPa0,00 l/m2 337,5º NNO 3,2 km/h6,7 km/h3178.1 Lux
Sat 06, 03:02 PM30,3 ºC23,8 %959 hPa0,00 l/m2 67,5º ENE 8,9 km/h17,4 km/h2841.9 Lux
Sat 06, 03:32 PM29,6 ºC24,9 %958 hPa0,00 l/m2 315º NO 7,1 km/h16,5 km/h2554.9 Lux
Sat 06, 03:37 PM29,7 ºC25,9 %958 hPa0,00 l/m2 337,5º NNO 9,9 km/h28,3 km/h2426.9 Lux
Sat 06, 03:42 PM29,5 ºC25,3 %958 hPa0,00 l/m2 337,5º NNO 1,8 km/h12,4 km/h2554.9 Lux
Sat 06, 03:47 PM30,5 ºC25,1 %958 hPa0,00 l/m2 315º NO 7,3 km/h12,7 km/h2426.9 Lux
Sat 06, 03:52 PM29,6 ºC25,9 %958 hPa0,00 l/m2 337,5º NNO 13,2 km/h24,3 km/h2308 Lux
Sat 06, 03:57 PM28,9 ºC25,5 %958 hPa0,00 l/m2 112.5º ESE 11,8 km/h20,8 km/h2094.2 Lux
Sat 06, 04:07 PM29,8 ºC27,0 %958 hPa0,00 l/m2 157,5º SSE 2,6 km/h6,4 km/h2197.4 Lux
Sat 06, 04:12 PM30,7 ºC26,1 %958 hPa0,00 l/m2 337,5º NNO 6,2 km/h18,5 km/h2197.4 Lux
Sat 06, 04:17 PM29,4 ºC28,1 %958 hPa0,00 l/m2 135º SE 3,0 km/h13,0 km/h2094.2 Lux
Sat 06, 04:32 PM30,4 ºC27,2 %958 hPa0,00 l/m2 337,5º NNO 7,3 km/h17,9 km/h1744.7 Lux
Sat 06, 04:47 PM29,7 ºC27,0 %958 hPa0,00 l/m2 315º NO 4,5 km/h11,3 km/h1473.8 Lux
Sat 06, 05:17 PM29,5 ºC27,8 %958 hPa0,00 l/m2 225º SO 3,4 km/h9,8 km/h1014.5 Lux
Sat 06, 05:22 PM29,5 ºC26,5 %958 hPa0,00 l/m2 337,5º NNO 5,8 km/h29,2 km/h1087.9 Lux
Sat 06, 05:37 PM29,8 ºC26,2 %958 hPa0,00 l/m2 225º SO 4,8 km/h16,5 km/h948 Lux
Sat 06, 05:42 PM29,5 ºC27,6 %958 hPa0,00 l/m2 337,5º NNO 2,6 km/h9,3 km/h1127.5 Lux
Sat 06, 05:47 PM30,0 ºC27,1 %958 hPa0,00 l/m2 337,5º NNO 8,7 km/h16,5 km/h1014.5 Lux
Sat 06, 05:57 PM29,5 ºC27,5 %958 hPa0,00 l/m2 225º SO 5,2 km/h12,1 km/h832.8 Lux
Sat 06, 06:02 PM29,6 ºC26,9 %958 hPa0,00 l/m2 45º NE 4,6 km/h18,8 km/h948 Lux
Sat 06, 06:07 PM29,5 ºC27,2 %958 hPa0,00 l/m2 225º SO 3,3 km/h7,2 km/h782.6 Lux
Sat 06, 06:47 PM28,6 ºC28,8 %958 hPa0,00 l/m2 45º NE 2,7 km/h10,4 km/h201.3 Lux
Sat 06, 06:52 PM28,0 ºC29,9 %958 hPa0,00 l/m2 135º SE 4,6 km/h11,3 km/h141.3 Lux
Sat 06, 06:57 PM27,8 ºC30,3 %958 hPa0,00 l/m2 337,5º NNO 0,6 km/h4,0 km/h188.5 Lux
Sat 06, 07:02 PM27,8 ºC30,4 %958 hPa0,00 l/m2 315º NO 6,0 km/h13,9 km/h194.8 Lux
Sat 06, 07:07 PM27,7 ºC30,5 %958 hPa0,00 l/m2 315º NO 5,8 km/h12,1 km/h158.8 Lux
Sat 06, 07:12 PM27,5 ºC31,7 %958 hPa0,00 l/m2 225º SO 3,3 km/h13,0 km/h119.8 Lux
Sat 06, 07:17 PM27,2 ºC32,4 %958 hPa0,00 l/m2 225º SO 0,8 km/h5,5 km/h83.2 Lux
Sat 06, 07:22 PM27,1 ºC32,6 %958 hPa0,00 l/m2 202,5º SSO 1,6 km/h5,8 km/h73.7 Lux
Sat 06, 07:27 PM26,8 ºC32,9 %958 hPa0,00 l/m2 337,5º NNO 1,0 km/h8,1 km/h55.2 Lux
Sat 06, 07:32 PM26,7 ºC33,4 %958 hPa0,00 l/m2 157,5º SSE 2,8 km/h11,8 km/h40.7 Lux
Sat 06, 07:37 PM26,5 ºC33,9 %958 hPa0,00 l/m2 67,5º ENE 1,3 km/h6,9 km/h27.8 Lux
Sat 06, 07:42 PM26,3 ºC34,3 %958 hPa0,00 l/m2 157,5º SSE 0,7 km/h4,0 km/h17.6 Lux
Sat 06, 07:47 PM26,0 ºC34,8 %958 hPa0,00 l/m2 135º SE 2,6 km/h9,8 km/h11.7 Lux
Sat 06, 07:52 PM25,8 ºC35,3 %958 hPa0,00 l/m2 157,5º SSE 2,8 km/h8,4 km/h7.5 Lux
Sat 06, 07:57 PM25,7 ºC35,5 %958 hPa0,00 l/m2 45º NE 1,7 km/h6,7 km/h5.1 Lux
Sat 06, 08:02 PM25,5 ºC36,0 %958 hPa0,00 l/m2 225º SO 2,0 km/h6,4 km/h3.8 Lux
Sat 06, 08:07 PM25,5 ºC36,0 %958 hPa0,00 l/m2 337,5º NNO 1,3 km/h3,5 km/h2.9 Lux
Sat 06, 08:12 PM25,3 ºC36,2 %958 hPa0,00 l/m2 202,5º SSO 2,6 km/h8,1 km/h2.5 Lux
Sat 06, 08:17 PM25,3 ºC36,4 %958 hPa0,00 l/m2 202,5º SSO 2,9 km/h7,8 km/h2.3 Lux
Sat 06, 08:22 PM25,3 ºC36,5 %958 hPa0,00 l/m2 45º NE 2,9 km/h8,7 km/h2.3 Lux
Sat 06, 08:27 PM25,3 ºC36,3 %958 hPa0,00 l/m2 157,5º SSE 3,8 km/h9,5 km/h2.1 Lux
Sat 06, 08:32 PM25,1 ºC36,6 %958 hPa0,00 l/m2 157,5º SSE 4,9 km/h11,3 km/h2.1 Lux
Sat 06, 08:37 PM25,0 ºC36,8 %958 hPa0,00 l/m2 202,5º SSO 4,1 km/h10,7 km/h2.2 Lux
Sat 06, 08:42 PM25,0 ºC36,8 %958 hPa0,00 l/m2 202,5º SSO 2,2 km/h6,9 km/h2.4 Lux
Sat 06, 08:47 PM24,9 ºC36,7 %959 hPa0,00 l/m2 135º SE 1,9 km/h7,2 km/h2.2 Lux
Sat 06, 08:52 PM24,9 ºC36,7 %959 hPa0,00 l/m2 157,5º SSE 2,7 km/h7,5 km/h2.2 Lux
Sat 06, 08:57 PM25,0 ºC36,3 %959 hPa0,00 l/m2 202,5º SSO 1,3 km/h4,6 km/h2.1 Lux
Sat 06, 09:02 PM24,9 ºC36,4 %959 hPa0,00 l/m2 157,5º SSE 0,8 km/h4,3 km/h2.3 Lux
Sat 06, 09:07 PM24,9 ºC36,2 %959 hPa0,00 l/m2 202,5º SSO 0,8 km/h3,2 km/h2.3 Lux
Sat 06, 09:12 PM25,0 ºC36,5 %959 hPa0,00 l/m2 157,5º SSE 0,0 km/h0,0 km/h2.1 Lux
Sat 06, 09:17 PM24,9 ºC36,4 %959 hPa0,00 l/m2 202,5º SSO 0,0 km/h0,0 km/h2.2 Lux
Sat 06, 09:22 PM24,8 ºC36,3 %959 hPa0,00 l/m2 202,5º SSO 3,2 km/h8,4 km/h2.2 Lux
Sat 06, 09:27 PM24,9 ºC36,3 %959 hPa0,00 l/m2 157,5º SSE 2,8 km/h9,3 km/h2.2 Lux
Sat 06, 09:32 PM24,8 ºC36,4 %959 hPa0,00 l/m2 202,5º SSO 3,6 km/h9,3 km/h2.4 Lux
Sat 06, 09:37 PM24,8 ºC36,2 %959 hPa0,00 l/m2 225º SO 0,5 km/h2,9 km/h2.3 Lux
Sat 06, 09:42 PM24,4 ºC37,4 %959 hPa0,00 l/m2 135º SE 0,0 km/h0,3 km/h2.3 Lux
Sat 06, 09:47 PM24,1 ºC38,0 %959 hPa0,00 l/m2 67,5º ENE 0,0 km/h0,0 km/h2.3 Lux
Sat 06, 09:52 PM23,8 ºC38,6 %959 hPa0,00 l/m2 67,5º ENE 0,0 km/h0,0 km/h2.3 Lux
Sat 06, 09:57 PM23,5 ºC39,2 %959 hPa0,00 l/m2 67,5º ENE 0,0 km/h0,0 km/h2.2 Lux
Sat 06, 10:02 PM23,3 ºC40,2 %959 hPa0,00 l/m2 67,5º ENE 0,0 km/h0,0 km/h2.3 Lux
Sat 06, 10:07 PM23,4 ºC39,9 %959 hPa0,00 l/m2 67,5º ENE 0,0 km/h0,0 km/h2.1 Lux
Sat 06, 10:12 PM23,3 ºC40,3 %959 hPa0,00 l/m2 67,5º ENE 0,0 km/h0,0 km/h2.3 Lux
Sat 06, 10:17 PM22,9 ºC41,8 %959 hPa0,00 l/m2 67,5º ENE 0,0 km/h0,0 km/h2.3 Lux
Sat 06, 10:22 PM22,3 ºC43,3 %959 hPa0,00 l/m2 157,5º SSE 0,0 km/h0,3 km/h2.2 Lux
Sat 06, 10:27 PM23,1 ºC40,7 %959 hPa0,00 l/m2 90º E 0,0 km/h0,3 km/h2.3 Lux
Sat 06, 10:32 PM22,4 ºC43,0 %959 hPa0,00 l/m2 67,5º ENE 0,0 km/h0,0 km/h2.1 Lux
Sat 06, 10:37 PM22,3 ºC43,4 %959 hPa0,00 l/m2 67,5º ENE 0,0 km/h0,0 km/h2.2 Lux
Sat 06, 10:42 PM22,4 ºC43,6 %959 hPa0,00 l/m2 67,5º ENE 0,0 km/h0,0 km/h2.2 Lux
Sat 06, 10:47 PM22,2 ºC43,9 %959 hPa0,00 l/m2 45º NE 0,0 km/h0,0 km/h2.3 Lux
Sat 06, 10:52 PM21,5 ºC46,2 %960 hPa0,00 l/m2 112.5º ESE 0,0 km/h0,0 km/h2.2 Lux
Sat 06, 10:57 PM21,0 ºC48,2 %960 hPa0,00 l/m2 67,5º ENE 0,0 km/h0,0 km/h2.3 Lux
Sat 06, 11:02 PM21,1 ºC48,1 %960 hPa0,00 l/m2 112.5º ESE 0,0 km/h0,0 km/h2.1 Lux
Sat 06, 11:07 PM21,2 ºC46,8 %960 hPa0,00 l/m2 90º E 0,0 km/h0,0 km/h2.2 Lux
Sat 06, 11:12 PM21,0 ºC46,9 %960 hPa0,00 l/m2 315º NO 1,4 km/h6,7 km/h2.3 Lux
Sat 06, 11:17 PM21,7 ºC44,6 %960 hPa0,00 l/m2 157,5º SSE 0,1 km/h1,2 km/h2.1 Lux
Sat 06, 11:22 PM21,4 ºC46,3 %960 hPa0,00 l/m2 157,5º SSE 0,0 km/h0,0 km/h2.3 Lux
Sat 06, 11:27 PM21,2 ºC47,7 %960 hPa0,00 l/m2 157,5º SSE 0,0 km/h0,0 km/h2.2 Lux
Sat 06, 11:32 PM21,1 ºC47,8 %960 hPa0,00 l/m2 157,5º SSE 0,0 km/h0,0 km/h2.1 Lux
Sat 06, 11:37 PM21,3 ºC47,2 %960 hPa0,00 l/m2 67,5º ENE 0,0 km/h0,0 km/h2.2 Lux
Sat 06, 11:42 PM21,2 ºC47,5 %960 hPa0,00 l/m2 0º N 0,0 km/h0,0 km/h2.1 Lux
Sat 06, 11:47 PM21,2 ºC47,8 %960 hPa0,00 l/m2 157,5º SSE 0,0 km/h0,0 km/h2.2 Lux
Sat 06, 11:52 PM20,9 ºC47,8 %960 hPa0,00 l/m2 157,5º SSE 0,0 km/h0,0 km/h2.3 Lux
Sat 06, 11:57 PM20,8 ºC47,7 %960 hPa0,00 l/m2 67,5º ENE 0,0 km/h0,0 km/h2.3 Lux
Sun 07, 12:02 AM21,1 ºC47,0 %960 hPa0,00 l/m2 67,5º ENE 0,0 km/h0,0 km/h2.3 Lux
Sun 07, 12:07 AM20,8 ºC47,8 %960 hPa0,00 l/m2 67,5º ENE 0,0 km/h0,0 km/h2.1 Lux
Sun 07, 12:12 AM21,4 ºC46,0 %960 hPa0,00 l/m2 67,5º ENE 0,0 km/h0,0 km/h2.3 Lux
Sun 07, 12:17 AM21,1 ºC46,4 %960 hPa0,00 l/m2 67,5º ENE 0,0 km/h0,0 km/h2.2 Lux
Sun 07, 12:22 AM21,1 ºC47,0 %960 hPa0,00 l/m2 67,5º ENE 0,0 km/h0,0 km/h2.3 Lux
Sun 07, 12:27 AM21,2 ºC46,9 %960 hPa0,00 l/m2 67,5º ENE 0,0 km/h0,0 km/h2.2 Lux
Sun 07, 12:32 AM21,1 ºC47,4 %960 hPa0,00 l/m2 45º NE 0,0 km/h0,0 km/h2.2 Lux
Sun 07, 12:37 AM20,9 ºC48,2 %959 hPa0,00 l/m2 67,5º ENE 0,0 km/h0,0 km/h2.3 Lux
Sun 07, 12:42 AM20,5 ºC49,9 %959 hPa0,00 l/m2 135º SE 0,0 km/h0,0 km/h2.4 Lux
Sun 07, 12:47 AM20,3 ºC51,2 %959 hPa0,00 l/m2 135º SE 0,0 km/h0,0 km/h2.3 Lux
Sun 07, 12:52 AM20,5 ºC51,3 %959 hPa0,00 l/m2 157,5º SSE 0,0 km/h0,0 km/h2.2 Lux
Sun 07, 12:57 AM20,5 ºC51,4 %959 hPa0,00 l/m2 157,5º SSE 0,0 km/h0,0 km/h2.2 Lux
Sun 07, 01:02 AM20,3 ºC52,1 %959 hPa0,00 l/m2 67,5º ENE 0,0 km/h0,0 km/h2.3 Lux
Sun 07, 01:07 AM20,4 ºC52,1 %960 hPa0,00 l/m2 67,5º ENE 0,0 km/h0,0 km/h2.3 Lux
Sun 07, 01:12 AM19,8 ºC53,0 %960 hPa0,00 l/m2 0º N 0,0 km/h0,0 km/h2.2 Lux
Sun 07, 01:17 AM18,8 ºC57,0 %960 hPa0,00 l/m2 67,5º ENE 0,0 km/h0,0 km/h2.2 Lux
Sun 07, 01:22 AM18,5 ºC58,4 %960 hPa0,00 l/m2 157,5º SSE 0,0 km/h0,3 km/h2.3 Lux
Sun 07, 01:27 AM18,7 ºC58,4 %960 hPa0,00 l/m2 157,5º SSE 0,9 km/h4,6 km/h2.4 Lux
Sun 07, 01:32 AM19,0 ºC57,7 %960 hPa0,00 l/m2 157,5º SSE 0,0 km/h0,0 km/h2.2 Lux
Sun 07, 01:37 AM19,0 ºC57,6 %960 hPa0,00 l/m2 202,5º SSO 0,0 km/h0,6 km/h2.3 Lux
Sun 07, 01:42 AM19,3 ºC56,5 %960 hPa0,00 l/m2 157,5º SSE 0,6 km/h3,5 km/h2.1 Lux
Sun 07, 01:47 AM19,5 ºC55,8 %960 hPa0,00 l/m2 45º NE 0,0 km/h0,3 km/h2.3 Lux
Sun 07, 01:52 AM19,1 ºC57,4 %960 hPa0,00 l/m2 67,5º ENE 0,0 km/h0,3 km/h2.3 Lux
Sun 07, 01:57 AM19,4 ºC55,7 %960 hPa0,00 l/m2 247,5º OSO 0,0 km/h0,0 km/h2.2 Lux
Sun 07, 02:02 AM19,4 ºC55,3 %959 hPa0,00 l/m2 45º NE 0,0 km/h0,0 km/h2.2 Lux
Sun 07, 02:07 AM19,5 ºC54,6 %959 hPa0,00 l/m2 67,5º ENE 0,2 km/h2,3 km/h2.3 Lux
Sun 07, 02:12 AM19,6 ºC54,0 %959 hPa0,00 l/m2 67,5º ENE 0,3 km/h1,7 km/h2.3 Lux
Sun 07, 02:17 AM19,6 ºC54,4 %959 hPa0,00 l/m2 112.5º ESE 0,5 km/h1,7 km/h2.3 Lux
Sun 07, 02:22 AM19,6 ºC53,8 %959 hPa0,00 l/m2 157,5º SSE 0,1 km/h0,3 km/h2.1 Lux
Sun 07, 02:27 AM19,6 ºC53,9 %959 hPa0,00 l/m2 157,5º SSE 0,0 km/h0,0 km/h2.1 Lux
Sun 07, 02:32 AM19,5 ºC54,4 %959 hPa0,00 l/m2 135º SE 0,0 km/h0,0 km/h2.2 Lux
Sun 07, 02:37 AM19,4 ºC54,5 %959 hPa0,00 l/m2 247,5º OSO 0,0 km/h0,0 km/h2.2 Lux
Sun 07, 02:42 AM19,5 ºC54,6 %959 hPa0,00 l/m2 67,5º ENE 0,0 km/h0,0 km/h2.3 Lux
Sun 07, 02:47 AM19,6 ºC54,2 %959 hPa0,00 l/m2 135º SE 0,0 km/h0,0 km/h2.3 Lux
Sun 07, 02:52 AM19,6 ºC54,2 %959 hPa0,00 l/m2 67,5º ENE 0,0 km/h0,0 km/h2.2 Lux
Sun 07, 02:57 AM19,5 ºC55,0 %959 hPa0,00 l/m2 157,5º SSE 0,0 km/h0,0 km/h2.2 Lux
Sun 07, 03:02 AM19,7 ºC54,7 %959 hPa0,00 l/m2 157,5º SSE 0,0 km/h0,0 km/h2.1 Lux
Sun 07, 03:07 AM19,4 ºC55,8 %959 hPa0,00 l/m2 67,5º ENE 0,0 km/h0,0 km/h2.1 Lux
Sun 07, 03:12 AM19,5 ºC55,5 %959 hPa0,00 l/m2 67,5º ENE 0,0 km/h0,0 km/h2.3 Lux
Sun 07, 03:17 AM19,7 ºC55,9 %959 hPa0,00 l/m2 67,5º ENE 0,0 km/h0,0 km/h2.1 Lux
Sun 07, 03:22 AM19,6 ºC56,5 %959 hPa0,00 l/m2 67,5º ENE 0,0 km/h0,3 km/h2.3 Lux
Sun 07, 03:27 AM19,5 ºC58,1 %959 hPa0,00 l/m2 247,5º OSO 0,0 km/h0,0 km/h2.1 Lux
Sun 07, 03:32 AM19,2 ºC60,5 %959 hPa0,00 l/m2 225º SO 0,0 km/h0,0 km/h2.2 Lux
Sun 07, 03:37 AM19,2 ºC57,8 %959 hPa0,00 l/m2 202,5º SSO 0,0 km/h0,0 km/h2.2 Lux
Sun 07, 03:42 AM19,0 ºC59,5 %959 hPa0,00 l/m2 157,5º SSE 0,0 km/h0,0 km/h2.3 Lux
Sun 07, 03:47 AM19,0 ºC61,0 %959 hPa0,00 l/m2 45º NE 0,0 km/h0,0 km/h2.1 Lux
Sun 07, 03:52 AM19,1 ºC62,3 %959 hPa0,00 l/m2 135º SE 0,0 km/h0,0 km/h2.2 Lux
Sun 07, 03:57 AM18,9 ºC64,5 %959 hPa0,00 l/m2 45º NE 0,0 km/h0,0 km/h2.3 Lux
Sun 07, 04:02 AM18,9 ºC66,4 %959 hPa0,00 l/m2 45º NE 0,0 km/h0,3 km/h2.3 Lux
Sun 07, 04:07 AM19,2 ºC67,0 %959 hPa0,00 l/m2 67,5º ENE 0,0 km/h0,3 km/h2.2 Lux
Sun 07, 04:12 AM18,8 ºC64,3 %959 hPa0,00 l/m2 0º N 0,0 km/h0,0 km/h2.1 Lux
Sun 07, 04:17 AM18,4 ºC64,2 %959 hPa0,00 l/m2 157,5º SSE 0,0 km/h0,0 km/h2.3 Lux
Sun 07, 04:22 AM18,3 ºC63,8 %959 hPa0,00 l/m2 67,5º ENE 0,0 km/h0,3 km/h2.1 Lux
Sun 07, 04:27 AM18,6 ºC63,8 %959 hPa0,00 l/m2 45º NE 0,0 km/h0,0 km/h2.3 Lux
Sun 07, 04:32 AM18,4 ºC64,4 %959 hPa0,00 l/m2 202,5º SSO 0,0 km/h0,0 km/h2.2 Lux
Sun 07, 04:37 AM18,1 ºC65,7 %959 hPa0,00 l/m2 225º SO 0,0 km/h0,0 km/h2.1 Lux
Sun 07, 04:42 AM18,0 ºC67,6 %959 hPa0,00 l/m2 337,5º NNO 0,0 km/h0,3 km/h2.1 Lux
Sun 07, 04:47 AM18,2 ºC68,7 %959 hPa0,00 l/m2 337,5º NNO 0,0 km/h0,0 km/h2.3 Lux
Sun 07, 04:52 AM18,1 ºC70,0 %959 hPa0,00 l/m2 45º NE 0,3 km/h2,6 km/h2.2 Lux
Sun 07, 04:57 AM18,4 ºC67,1 %959 hPa0,00 l/m2 0º N 0,0 km/h0,0 km/h2.1 Lux
Sun 07, 05:02 AM18,2 ºC65,4 %959 hPa0,00 l/m2 45º NE 0,2 km/h1,2 km/h2.1 Lux
Sun 07, 05:07 AM18,3 ºC64,2 %958 hPa0,00 l/m2 45º NE 0,4 km/h2,9 km/h2.2 Lux
Sun 07, 05:12 AM18,1 ºC65,2 %959 hPa0,00 l/m2 0º N 0,1 km/h0,6 km/h2.3 Lux
Sun 07, 05:17 AM18,3 ºC65,3 %959 hPa0,00 l/m2 67,5º ENE 0,0 km/h0,0 km/h2.2 Lux
Sun 07, 05:22 AM18,2 ºC65,3 %959 hPa0,00 l/m2 0º N 0,0 km/h0,0 km/h2.1 Lux
Sun 07, 05:27 AM18,0 ºC65,9 %959 hPa0,00 l/m2 135º SE 0,0 km/h0,0 km/h2.3 Lux
Sun 07, 05:32 AM17,5 ºC68,7 %959 hPa0,00 l/m2 337,5º NNO 0,0 km/h0,0 km/h2.3 Lux
Sun 07, 05:37 AM17,7 ºC66,6 %959 hPa0,00 l/m2 45º NE 0,0 km/h0,3 km/h2.3 Lux
Sun 07, 05:42 AM18,2 ºC63,8 %959 hPa0,00 l/m2 45º NE 0,0 km/h0,0 km/h2.2 Lux
Sun 07, 06:02 AM18,3 ºC63,3 %959 hPa0,00 l/m2 45º NE 0,0 km/h0,3 km/h2.1 Lux
Sun 07, 06:12 AM18,7 ºC61,6 %959 hPa0,00 l/m2 225º SO 0,1 km/h0,6 km/h2.3 Lux
Sun 07, 06:22 AM18,7 ºC60,9 %959 hPa0,00 l/m2 45º NE 0,0 km/h0,0 km/h2.2 Lux
Sun 07, 06:47 AM18,5 ºC61,2 %959 hPa0,00 l/m2 67,5º ENE 0,2 km/h2,9 km/h2.1 Lux
Sun 07, 06:52 AM18,6 ºC60,0 %959 hPa0,00 l/m2 157,5º SSE 0,0 km/h0,0 km/h2.3 Lux
Sun 07, 06:57 AM18,7 ºC59,3 %959 hPa0,00 l/m2 202,5º SSO 0,5 km/h3,7 km/h2.4 Lux
Sun 07, 07:02 AM18,5 ºC59,3 %959 hPa0,00 l/m2 157,5º SSE 0,0 km/h0,6 km/h2.2 Lux
Sun 07, 07:07 AM18,8 ºC58,2 %959 hPa0,00 l/m2 337,5º NNO 0,0 km/h0,0 km/h2.3 Lux
Sun 07, 07:12 AM18,7 ºC60,2 %959 hPa0,00 l/m2 337,5º NNO 0,0 km/h0,3 km/h2.3 Lux
Sun 07, 07:17 AM18,5 ºC62,6 %959 hPa0,00 l/m2 225º SO 0,0 km/h0,3 km/h2.3 Lux
Sun 07, 07:22 AM18,3 ºC63,4 %959 hPa0,00 l/m2 135º SE 0,0 km/h0,0 km/h2.3 Lux
Sun 07, 07:27 AM17,9 ºC63,9 %959 hPa0,00 l/m2 157,5º SSE 0,0 km/h0,0 km/h2.3 Lux
Sun 07, 07:32 AM17,8 ºC64,4 %959 hPa0,00 l/m2 157,5º SSE 0,0 km/h0,0 km/h2.3 Lux
Sun 07, 07:37 AM18,2 ºC62,6 %959 hPa0,00 l/m2 135º SE 0,0 km/h0,0 km/h2.2 Lux
Sun 07, 07:42 AM18,6 ºC60,2 %959 hPa0,00 l/m2 67,5º ENE 0,0 km/h0,0 km/h2.2 Lux
Sun 07, 07:47 AM18,2 ºC63,3 %959 hPa0,00 l/m2 67,5º ENE 0,0 km/h0,0 km/h2.3 Lux
Sun 07, 07:52 AM18,1 ºC63,3 %959 hPa0,00 l/m2 45º NE 0,5 km/h4,0 km/h2.3 Lux
Sun 07, 07:57 AM18,6 ºC59,4 %959 hPa0,00 l/m2 45º NE 0,5 km/h3,5 km/h2.5 Lux
Sun 07, 08:02 AM18,5 ºC58,7 %959 hPa0,00 l/m2 67,5º ENE 0,3 km/h1,7 km/h2.8 Lux
Sun 07, 08:07 AM18,7 ºC57,7 %959 hPa0,00 l/m2 45º NE 0,9 km/h4,0 km/h3.8 Lux
Sun 07, 08:12 AM18,3 ºC59,0 %959 hPa0,00 l/m2 90º E 1,1 km/h2,9 km/h5.5 Lux
Sun 07, 08:17 AM18,2 ºC59,2 %959 hPa0,00 l/m2 45º NE 0,6 km/h2,3 km/h8.9 Lux
Sun 07, 08:22 AM18,2 ºC58,8 %959 hPa0,00 l/m2 45º NE 0,4 km/h1,7 km/h12.7 Lux
Sun 07, 08:27 AM18,3 ºC58,5 %959 hPa0,00 l/m2 45º NE 0,0 km/h0,0 km/h19.4 Lux
Sun 07, 08:32 AM18,0 ºC59,3 %959 hPa0,00 l/m2 67,5º ENE 0,0 km/h0,6 km/h27 Lux
Sun 07, 08:37 AM18,0 ºC59,5 %959 hPa0,00 l/m2 225º SO 0,0 km/h0,3 km/h37.3 Lux
Sun 07, 08:42 AM18,0 ºC59,5 %959 hPa0,00 l/m2 45º NE 0,0 km/h0,0 km/h47.8 Lux
Sun 07, 08:47 AM17,9 ºC59,7 %959 hPa0,00 l/m2 45º NE 0,1 km/h1,2 km/h61.4 Lux
Sun 07, 08:52 AM17,9 ºC59,3 %959 hPa0,00 l/m2 45º NE 0,0 km/h0,0 km/h70.7 Lux
Sun 07, 08:57 AM18,2 ºC58,0 %959 hPa0,00 l/m2 90º E 0,4 km/h2,3 km/h85.1 Lux
Sun 07, 09:02 AM18,3 ºC56,8 %959 hPa0,00 l/m2 45º NE 1,5 km/h4,0 km/h97.9 Lux
Sun 07, 09:07 AM18,3 ºC56,4 %959 hPa0,00 l/m2 67,5º ENE 2,0 km/h4,0 km/h100.3 Lux
Sun 07, 09:12 AM18,4 ºC55,8 %959 hPa0,00 l/m2 67,5º ENE 1,1 km/h4,0 km/h109.4 Lux
Sun 07, 09:17 AM18,5 ºC55,5 %959 hPa0,00 l/m2 45º NE 0,3 km/h1,7 km/h133.6 Lux
Sun 07, 09:22 AM18,7 ºC55,2 %959 hPa0,00 l/m2 45º NE 0,2 km/h1,2 km/h143.3 Lux
Sun 07, 09:27 AM18,8 ºC56,3 %959 hPa0,00 l/m2 0º N 0,0 km/h0,0 km/h154.2 Lux
Sun 07, 09:32 AM18,5 ºC58,3 %959 hPa0,00 l/m2 45º NE 0,1 km/h0,9 km/h166.2 Lux
Sun 07, 09:37 AM18,6 ºC56,8 %959 hPa0,00 l/m2 315º NO 0,0 km/h0,3 km/h171.4 Lux
Sun 07, 09:42 AM18,9 ºC55,4 %959 hPa0,00 l/m2 45º NE 0,0 km/h0,0 km/h182.5 Lux
Sun 07, 09:47 AM19,1 ºC56,9 %959 hPa0,00 l/m2 45º NE 0,0 km/h0,0 km/h204.7 Lux
Sun 07, 09:52 AM19,2 ºC56,8 %959 hPa0,00 l/m2 337,5º NNO 0,0 km/h0,0 km/h223 Lux
Sun 07, 09:57 AM19,5 ºC54,7 %959 hPa0,00 l/m2 0º N 0,0 km/h0,3 km/h231 Lux
Sun 07, 10:02 AM19,9 ºC53,8 %959 hPa0,00 l/m2 247,5º OSO 0,0 km/h0,0 km/h277.9 Lux
Sun 07, 10:07 AM20,2 ºC52,2 %959 hPa0,00 l/m2 202,5º SSO 0,0 km/h0,0 km/h370.5 Lux
Sun 07, 10:12 AM20,5 ºC51,5 %959 hPa0,00 l/m2 67,5º ENE 0,0 km/h0,0 km/h414.6 Lux
Sun 07, 10:17 AM20,8 ºC51,0 %959 hPa0,00 l/m2 45º NE 0,0 km/h0,3 km/h587.4 Lux
Sun 07, 10:22 AM21,5 ºC47,8 %959 hPa0,00 l/m2 67,5º ENE 0,0 km/h0,0 km/h1014.5 Lux
Sun 07, 10:27 AM24,3 ºC40,9 %959 hPa0,00 l/m2 67,5º ENE 0,0 km/h0,0 km/h1308.8 Lux
Sun 07, 10:32 AM24,5 ºC40,2 %959 hPa0,00 l/m2 67,5º ENE 0,0 km/h0,3 km/h1535.5 Lux
Sun 07, 10:37 AM25,9 ºC36,7 %959 hPa0,00 l/m2 67,5º ENE 0,0 km/h0,0 km/h1601 Lux
Sun 07, 10:42 AM26,7 ºC37,1 %959 hPa0,00 l/m2 0º N 0,0 km/h0,0 km/h1744.7 Lux
Sun 07, 10:47 AM28,9 ºC30,3 %959 hPa0,00 l/m2 0º N 0,0 km/h0,0 km/h1744.7 Lux
Sun 07, 10:52 AM25,5 ºC36,7 %959 hPa0,00 l/m2 0º N 0,0 km/h0,0 km/h1908 Lux
Sun 07, 10:57 AM24,7 ºC40,6 %959 hPa0,00 l/m2 67,5º ENE 0,0 km/h0,0 km/h1744.7 Lux
Sun 07, 11:02 AM26,6 ºC38,1 %959 hPa0,00 l/m2 67,5º ENE 0,0 km/h0,0 km/h1908 Lux
Sun 07, 11:07 AM25,7 ºC39,9 %959 hPa0,00 l/m2 67,5º ENE 0,0 km/h0,0 km/h2094.2 Lux
Sun 07, 11:12 AM25,8 ºC39,4 %959 hPa0,00 l/m2 67,5º ENE 0,0 km/h0,0 km/h2094.2 Lux
Sun 07, 11:17 AM26,6 ºC37,5 %959 hPa0,00 l/m2 135º SE 0,0 km/h0,0 km/h1998 Lux
Sun 07, 11:22 AM27,2 ºC35,3 %959 hPa0,00 l/m2 67,5º ENE 0,0 km/h0,0 km/h2094.2 Lux
Sun 07, 11:27 AM28,1 ºC34,1 %959 hPa0,00 l/m2 45º NE 0,0 km/h0,0 km/h2197.4 Lux
Sun 07, 11:32 AM28,0 ºC33,9 %959 hPa0,00 l/m2 45º NE 0,0 km/h0,0 km/h2308 Lux
Sun 07, 11:37 AM29,0 ºC30,2 %959 hPa0,00 l/m2 45º NE 0,0 km/h0,3 km/h2197.4 Lux
Sun 07, 11:42 AM27,7 ºC33,0 %959 hPa0,00 l/m2 45º NE 0,0 km/h0,3 km/h2308 Lux
Sun 07, 11:47 AM27,5 ºC34,2 %959 hPa0,00 l/m2 337,5º NNO 0,9 km/h6,7 km/h2692.9 Lux
Sun 07, 11:52 AM26,2 ºC36,6 %959 hPa0,00 l/m2 67,5º ENE 0,4 km/h2,6 km/h2308 Lux
Sun 07, 11:57 AM27,3 ºC35,2 %959 hPa0,00 l/m2 0º N 0,7 km/h3,5 km/h2554.9 Lux
Sun 07, 12:02 PM26,5 ºC37,1 %959 hPa0,00 l/m2 0º N 0,1 km/h0,9 km/h2692.9 Lux
Sun 07, 12:07 PM26,9 ºC36,7 %959 hPa0,00 l/m2 45º NE 0,4 km/h4,0 km/h2554.9 Lux
Sun 07, 12:12 PM27,4 ºC36,8 %959 hPa0,00 l/m2 0º N 0,5 km/h5,8 km/h3368.1 Lux
Sun 07, 12:17 PM27,4 ºC36,8 %959 hPa0,00 l/m2 247,5º OSO 0,5 km/h4,3 km/h2692.9 Lux
Sun 07, 12:22 PM28,1 ºC34,7 %959 hPa0,00 l/m2 337,5º NNO 3,4 km/h17,9 km/h2841.9 Lux
Sun 07, 12:27 PM27,3 ºC36,2 %959 hPa0,00 l/m2 202,5º SSO 2,3 km/h9,5 km/h3003.2 Lux
Sun 07, 12:32 PM27,5 ºC35,0 %959 hPa0,00 l/m2 337,5º NNO 8,6 km/h19,1 km/h2841.9 Lux
Sun 07, 12:37 PM26,8 ºC36,5 %959 hPa0,00 l/m2 45º NE 9,3 km/h28,6 km/h3003.2 Lux
Sun 07, 12:42 PM27,4 ºC35,8 %959 hPa0,00 l/m2 202,5º SSO 2,7 km/h12,4 km/h3003.2 Lux
Sun 07, 12:47 PM27,5 ºC33,9 %959 hPa0,00 l/m2 337,5º NNO 4,5 km/h10,7 km/h3178.1 Lux
Sun 07, 12:52 PM27,2 ºC33,2 %959 hPa0,00 l/m2 67,5º ENE 5,7 km/h13,9 km/h3178.1 Lux
Sun 07, 12:57 PM27,9 ºC32,2 %959 hPa0,00 l/m2 225º SO 5,3 km/h14,4 km/h3003.2 Lux
Sun 07, 01:02 PM27,7 ºC31,8 %959 hPa0,00 l/m2 337,5º NNO 11,1 km/h28,3 km/h3178.1 Lux
Sun 07, 01:07 PM27,2 ºC32,0 %959 hPa0,00 l/m2 337,5º NNO 10,0 km/h27,5 km/h3003.2 Lux
Sun 07, 01:12 PM27,4 ºC31,2 %959 hPa0,00 l/m2 337,5º NNO 9,8 km/h28,3 km/h3368.1 Lux
Sun 07, 01:17 PM27,2 ºC29,8 %959 hPa0,00 l/m2 0º N 11,8 km/h22,8 km/h3003.2 Lux
Sun 07, 01:22 PM27,5 ºC30,5 %959 hPa0,00 l/m2 337,5º NNO 6,1 km/h15,6 km/h3178.1 Lux
Sun 07, 01:27 PM28,1 ºC30,4 %959 hPa0,00 l/m2 337,5º NNO 4,7 km/h15,0 km/h3003.2 Lux
Sun 07, 01:32 PM27,6 ºC30,5 %959 hPa0,00 l/m2 45º NE 6,4 km/h16,2 km/h3003.2 Lux
Sun 07, 01:37 PM28,2 ºC31,0 %959 hPa0,00 l/m2 202,5º SSO 2,0 km/h6,7 km/h3178.1 Lux
Sun 07, 01:42 PM28,7 ºC30,1 %959 hPa0,00 l/m2 135º SE 2,5 km/h14,4 km/h3178.1 Lux
Sun 07, 01:47 PM28,7 ºC30,5 %959 hPa0,00 l/m2 315º NO 8,5 km/h16,8 km/h3178.1 Lux
Sun 07, 01:52 PM28,6 ºC29,9 %958 hPa0,00 l/m2 337,5º NNO 6,2 km/h21,7 km/h3178.1 Lux
Sun 07, 01:57 PM28,5 ºC30,2 %958 hPa0,00 l/m2 45º NE 7,6 km/h28,9 km/h3178.1 Lux
Sun 07, 02:02 PM28,6 ºC30,0 %958 hPa0,00 l/m2 315º NO 4,9 km/h38,2 km/h3368.1 Lux
Sun 07, 02:07 PM29,2 ºC26,7 %958 hPa0,00 l/m2 337,5º NNO 14,9 km/h24,3 km/h3178.1 Lux
Sun 07, 02:12 PM28,8 ºC26,9 %958 hPa0,00 l/m2 337,5º NNO 20,0 km/h48,0 km/h3178.1 Lux
Sun 07, 02:17 PM28,9 ºC26,0 %958 hPa0,00 l/m2 337,5º NNO 16,4 km/h35,6 km/h3178.1 Lux
Sun 07, 02:22 PM29,0 ºC25,6 %958 hPa0,00 l/m2 337,5º NNO 21,0 km/h44,5 km/h3178.1 Lux
Sun 07, 02:27 PM28,8 ºC25,3 %958 hPa0,00 l/m2 337,5º NNO 28,9 km/h53,5 km/h3178.1 Lux
Sun 07, 02:32 PM28,4 ºC26,2 %958 hPa0,00 l/m2 0º N 15,8 km/h30,6 km/h3003.2 Lux
Sun 07, 02:37 PM28,7 ºC26,4 %958 hPa0,00 l/m2 337,5º NNO 18,5 km/h44,8 km/h3178.1 Lux
Sun 07, 02:42 PM28,8 ºC26,3 %958 hPa0,00 l/m2 315º NO 17,1 km/h34,7 km/h3178.1 Lux
Sun 07, 02:47 PM28,8 ºC27,0 %958 hPa0,00 l/m2 135º SE 19,0 km/h52,3 km/h3178.1 Lux
Sun 07, 02:52 PM28,9 ºC27,8 %958 hPa0,00 l/m2 337,5º NNO 15,1 km/h28,6 km/h3003.2 Lux
Sun 07, 02:57 PM29,0 ºC27,4 %958 hPa0,00 l/m2 0º N 16,8 km/h36,1 km/h2692.9 Lux
Sun 07, 03:02 PM29,1 ºC27,5 %958 hPa0,00 l/m2 202,5º SSO 22,1 km/h53,5 km/h2841.9 Lux
Sun 07, 03:07 PM29,1 ºC27,6 %958 hPa0,00 l/m2 337,5º NNO 12,6 km/h30,9 km/h3003.2 Lux
Sun 07, 03:12 PM28,8 ºC28,2 %958 hPa0,00 l/m2 315º NO 14,5 km/h34,4 km/h3003.2 Lux
Sun 07, 03:17 PM29,6 ºC27,6 %958 hPa0,00 l/m2 337,5º NNO 22,4 km/h36,7 km/h2841.9 Lux
Sun 07, 03:22 PM28,9 ºC28,5 %958 hPa0,00 l/m2 45º NE 18,0 km/h46,8 km/h2692.9 Lux
Sun 07, 03:27 PM28,8 ºC28,8 %958 hPa0,00 l/m2 337,5º NNO 16,8 km/h33,2 km/h2692.9 Lux
Sun 07, 03:37 PM29,2 ºC28,1 %957 hPa0,00 l/m2 337,5º NNO 17,4 km/h32,7 km/h2554.9 Lux
Sun 07, 03:42 PM29,3 ºC28,9 %957 hPa0,00 l/m2 337,5º NNO 13,7 km/h44,8 km/h2554.9 Lux
Sun 07, 03:47 PM29,6 ºC28,2 %957 hPa0,00 l/m2 337,5º NNO 9,9 km/h32,9 km/h2554.9 Lux
Sun 07, 03:52 PM29,4 ºC28,6 %957 hPa0,00 l/m2 225º SO 9,1 km/h23,1 km/h2308 Lux
Sun 07, 03:57 PM29,9 ºC28,4 %957 hPa0,00 l/m2 337,5º NNO 13,6 km/h49,7 km/h2426.9 Lux
Sun 07, 04:02 PM29,5 ºC28,7 %957 hPa0,00 l/m2 315º NO 18,7 km/h37,9 km/h2197.4 Lux
Sun 07, 04:07 PM29,2 ºC30,0 %957 hPa0,00 l/m2 337,5º NNO 6,9 km/h12,4 km/h1998 Lux
Sun 07, 04:12 PM29,8 ºC29,3 %957 hPa0,00 l/m2 337,5º NNO 15,0 km/h41,3 km/h2094.2 Lux
Sun 07, 04:27 PM28,8 ºC30,2 %957 hPa0,00 l/m2 0º N 9,1 km/h23,4 km/h1670.6 Lux
Sun 07, 04:43 PM29,6 ºC28,3 %957 hPa0,00 l/m2 337,5º NNO 14,6 km/h27,8 km/h1535.5 Lux
Sun 07, 04:48 PM29,3 ºC28,6 %957 hPa0,00 l/m2 315º NO 11,6 km/h19,1 km/h1535.5 Lux
Sun 07, 04:53 PM29,5 ºC29,4 %957 hPa0,00 l/m2 337,5º NNO 15,9 km/h30,6 km/h1213.3 Lux
Sun 07, 04:58 PM29,1 ºC29,8 %957 hPa0,00 l/m2 67,5º ENE 16,0 km/h37,6 km/h1087.9 Lux
Sun 07, 05:03 PM28,8 ºC31,1 %957 hPa0,00 l/m2 0º N 14,9 km/h41,3 km/h1050.3 Lux
Sun 07, 05:08 PM28,6 ºC31,5 %957 hPa0,00 l/m2 337,5º NNO 17,6 km/h37,0 km/h1169.2 Lux
Sun 07, 05:13 PM28,5 ºC30,8 %957 hPa0,00 l/m2 337,5º NNO 14,7 km/h25,2 km/h1050.3 Lux
Sun 07, 05:18 PM28,7 ºC30,9 %957 hPa0,00 l/m2 67,5º ENE 11,3 km/h29,2 km/h1050.3 Lux
Sun 07, 05:23 PM29,1 ºC31,1 %957 hPa0,00 l/m2 0º N 13,9 km/h37,0 km/h948 Lux
Sun 07, 05:28 PM29,2 ºC30,9 %957 hPa0,00 l/m2 337,5º NNO 23,8 km/h53,7 km/h859.6 Lux
Sun 07, 05:33 PM28,6 ºC31,8 %957 hPa0,00 l/m2 45º NE 20,6 km/h53,7 km/h917.2 Lux
Sun 07, 05:38 PM28,4 ºC31,5 %957 hPa0,00 l/m2 315º NO 16,3 km/h46,8 km/h1213.3 Lux
Sun 07, 05:43 PM28,7 ºC31,0 %957 hPa0,00 l/m2 337,5º NNO 14,6 km/h32,1 km/h782.6 Lux
Sun 07, 05:48 PM28,9 ºC30,3 %957 hPa0,00 l/m2 337,5º NNO 22,9 km/h45,4 km/h1087.9 Lux
Sun 07, 05:53 PM28,5 ºC30,2 %957 hPa0,00 l/m2 315º NO 16,5 km/h42,8 km/h736.7 Lux
Sun 07, 05:58 PM28,8 ºC30,0 %957 hPa0,00 l/m2 337,5º NNO 20,2 km/h43,1 km/h980.4 Lux
Sun 07, 06:03 PM28,6 ºC29,7 %957 hPa0,00 l/m2 337,5º NNO 22,3 km/h46,8 km/h980.4 Lux
Sun 07, 06:08 PM28,4 ºC29,8 %957 hPa0,00 l/m2 0º N 25,5 km/h58,4 km/h759.2 Lux
Sun 07, 06:13 PM28,4 ºC29,7 %957 hPa0,00 l/m2 0º N 23,8 km/h38,7 km/h759.2 Lux
Sun 07, 06:18 PM28,3 ºC29,7 %957 hPa0,00 l/m2 225º SO 24,8 km/h44,5 km/h807.1 Lux
Sun 07, 06:23 PM28,3 ºC29,8 %957 hPa0,00 l/m2 315º NO 12,3 km/h29,5 km/h736.7 Lux
Sun 07, 06:28 PM28,5 ºC29,6 %957 hPa0,00 l/m2 0º N 22,6 km/h54,9 km/h620.3 Lux
Sun 07, 06:33 PM28,0 ºC30,1 %957 hPa0,00 l/m2 337,5º NNO 21,7 km/h37,3 km/h370.5 Lux
Sun 07, 06:38 PM27,9 ºC30,3 %957 hPa0,00 l/m2 337,5º NNO 14,7 km/h42,5 km/h332.9 Lux
Sun 07, 06:43 PM27,9 ºC30,0 %957 hPa0,00 l/m2 337,5º NNO 16,3 km/h32,1 km/h313 Lux
Sun 07, 06:48 PM27,6 ºC30,5 %957 hPa0,00 l/m2 337,5º NNO 13,6 km/h19,7 km/h257.6 Lux
Sun 07, 06:53 PM27,4 ºC30,5 %957 hPa0,00 l/m2 247,5º OSO 17,1 km/h35,0 km/h231 Lux
Sun 07, 06:58 PM27,3 ºC30,5 %957 hPa0,00 l/m2 225º SO 20,3 km/h46,8 km/h211.8 Lux
Sun 07, 07:03 PM27,1 ºC30,9 %957 hPa0,00 l/m2 337,5º NNO 16,1 km/h26,0 km/h188.5 Lux
Sun 07, 07:08 PM27,0 ºC31,2 %957 hPa0,00 l/m2 337,5º NNO 15,6 km/h26,6 km/h129.9 Lux
Sun 07, 07:13 PM26,8 ºC31,6 %957 hPa0,00 l/m2 337,5º NNO 19,0 km/h34,1 km/h108.1 Lux
Sun 07, 07:18 PM26,7 ºC31,8 %957 hPa0,00 l/m2 337,5º NNO 15,4 km/h30,3 km/h83.2 Lux
Sun 07, 07:23 PM26,6 ºC31,9 %957 hPa0,00 l/m2 315º NO 17,1 km/h27,2 km/h65.1 Lux
Sun 07, 07:28 PM26,5 ºC32,1 %957 hPa0,00 l/m2 0º N 14,1 km/h38,4 km/h54.2 Lux
Sun 07, 07:33 PM26,4 ºC32,0 %957 hPa0,00 l/m2 337,5º NNO 10,3 km/h22,8 km/h43.5 Lux
Sun 07, 07:38 PM26,3 ºC32,3 %957 hPa0,00 l/m2 315º NO 10,1 km/h24,0 km/h30 Lux
Sun 07, 07:43 PM26,0 ºC32,5 %957 hPa0,00 l/m2 337,5º NNO 13,8 km/h19,1 km/h22.1 Lux
Sun 07, 07:48 PM25,8 ºC33,3 %957 hPa0,00 l/m2 337,5º NNO 11,2 km/h15,3 km/h13.4 Lux
Sun 07, 07:53 PM25,6 ºC33,6 %957 hPa0,00 l/m2 337,5º NNO 8,4 km/h14,7 km/h9 Lux
Sun 07, 07:58 PM25,4 ºC34,1 %957 hPa0,00 l/m2 45º NE 7,5 km/h14,7 km/h5.4 Lux
Sun 07, 08:03 PM25,3 ºC34,4 %957 hPa0,00 l/m2 315º NO 6,6 km/h11,6 km/h3.6 Lux
Sun 07, 08:08 PM25,2 ºC34,8 %957 hPa0,00 l/m2 337,5º NNO 7,8 km/h13,9 km/h2.7 Lux
Sun 07, 08:13 PM25,1 ºC35,2 %957 hPa0,00 l/m2 337,5º NNO 8,2 km/h15,0 km/h2.2 Lux
Sun 07, 08:18 PM25,0 ºC35,7 %957 hPa0,00 l/m2 315º NO 8,2 km/h12,4 km/h2.3 Lux
Sun 07, 08:23 PM25,0 ºC35,7 %957 hPa0,00 l/m2 337,5º NNO 8,2 km/h12,7 km/h2.1 Lux
Sun 07, 08:28 PM24,9 ºC36,0 %957 hPa0,00 l/m2 337,5º NNO 5,8 km/h11,6 km/h2.3 Lux
Sun 07, 08:33 PM24,9 ºC36,3 %957 hPa0,00 l/m2 112.5º ESE 1,8 km/h8,7 km/h2.3 Lux
Sun 07, 08:38 PM24,7 ºC36,9 %957 hPa0,00 l/m2 67,5º ENE 0,7 km/h4,0 km/h2.1 Lux
Sun 07, 08:43 PM24,4 ºC37,7 %957 hPa0,00 l/m2 337,5º NNO 0,4 km/h6,9 km/h2.2 Lux
Sun 07, 08:48 PM24,1 ºC38,0 %957 hPa0,00 l/m2 337,5º NNO 0,6 km/h5,8 km/h2.3 Lux
Sun 07, 08:53 PM24,1 ºC37,5 %958 hPa0,00 l/m2 202,5º SSO 2,3 km/h8,7 km/h2.2 Lux
Sun 07, 08:58 PM24,3 ºC36,4 %958 hPa0,00 l/m2 67,5º ENE 1,4 km/h6,9 km/h2.2 Lux
Sun 07, 09:03 PM24,1 ºC36,2 %958 hPa0,00 l/m2 315º NO 0,4 km/h3,5 km/h2.2 Lux
Sun 07, 09:08 PM24,0 ºC36,0 %958 hPa0,00 l/m2 337,5º NNO 1,5 km/h5,8 km/h2.2 Lux
Sun 07, 09:13 PM24,0 ºC35,7 %958 hPa0,00 l/m2 157,5º SSE 0,7 km/h3,5 km/h2.3 Lux
Sun 07, 09:18 PM23,9 ºC35,3 %958 hPa0,00 l/m2 225º SO 1,5 km/h6,4 km/h2.3 Lux
Sun 07, 09:23 PM23,8 ºC35,5 %957 hPa0,00 l/m2 225º SO 4,6 km/h15,9 km/h2.3 Lux
Sun 07, 09:28 PM23,9 ºC34,6 %957 hPa0,00 l/m2 67,5º ENE 4,6 km/h10,1 km/h2.1 Lux
Sun 07, 09:33 PM24,0 ºC33,5 %957 hPa0,00 l/m2 157,5º SSE 7,2 km/h27,5 km/h2.3 Lux
Sun 07, 09:38 PM23,9 ºC33,3 %957 hPa0,00 l/m2 337,5º NNO 6,5 km/h26,6 km/h2.2 Lux
Sun 07, 09:43 PM23,9 ºC33,0 %957 hPa0,00 l/m2 67,5º ENE 3,1 km/h8,7 km/h2.2 Lux
Sun 07, 09:48 PM23,8 ºC33,2 %957 hPa0,00 l/m2 337,5º NNO 1,4 km/h6,4 km/h2.3 Lux
Sun 07, 09:53 PM23,7 ºC33,5 %958 hPa0,00 l/m2 45º NE 4,6 km/h18,2 km/h2.3 Lux
Sun 07, 09:58 PM23,5 ºC33,6 %958 hPa0,00 l/m2 45º NE 3,9 km/h14,7 km/h2.3 Lux
Sun 07, 10:03 PM23,4 ºC33,8 %958 hPa0,00 l/m2 157,5º SSE 1,3 km/h9,8 km/h2.2 Lux
Sun 07, 10:08 PM23,1 ºC34,6 %958 hPa0,00 l/m2 202,5º SSO 2,6 km/h10,4 km/h2.3 Lux
Sun 07, 10:13 PM23,1 ºC34,7 %958 hPa0,00 l/m2 67,5º ENE 3,1 km/h11,8 km/h2.2 Lux
Sun 07, 10:18 PM23,1 ºC34,6 %958 hPa0,00 l/m2 135º SE 0,5 km/h2,3 km/h2.3 Lux
Sun 07, 10:23 PM22,9 ºC35,0 %958 hPa0,00 l/m2 157,5º SSE 0,5 km/h5,8 km/h2.2 Lux
Sun 07, 10:28 PM22,8 ºC35,0 %958 hPa0,00 l/m2 337,5º NNO 0,7 km/h5,2 km/h2.2 Lux
Sun 07, 10:33 PM22,7 ºC34,9 %958 hPa0,00 l/m2 202,5º SSO 1,7 km/h9,3 km/h2.3 Lux
Sun 07, 10:38 PM22,7 ºC34,0 %958 hPa0,00 l/m2 67,5º ENE 1,1 km/h6,4 km/h2.3 Lux
Sun 07, 10:43 PM22,6 ºC34,7 %958 hPa0,00 l/m2 67,5º ENE 0,1 km/h1,4 km/h2.2 Lux
Sun 07, 10:48 PM22,3 ºC34,5 %958 hPa0,00 l/m2 67,5º ENE 0,0 km/h0,0 km/h2.3 Lux
Sun 07, 10:53 PM22,1 ºC35,3 %958 hPa0,00 l/m2 45º NE 0,0 km/h0,3 km/h2.1 Lux
Sun 07, 10:58 PM21,9 ºC36,5 %958 hPa0,00 l/m2 67,5º ENE 0,6 km/h4,3 km/h2.3 Lux
Sun 07, 11:03 PM22,1 ºC35,9 %958 hPa0,00 l/m2 45º NE 0,0 km/h0,9 km/h2.3 Lux
Sun 07, 11:08 PM21,8 ºC36,1 %958 hPa0,00 l/m2 67,5º ENE 0,3 km/h3,2 km/h2.3 Lux
Sun 07, 11:13 PM21,7 ºC36,2 %958 hPa0,00 l/m2 67,5º ENE 0,0 km/h0,0 km/h2.3 Lux
Sun 07, 11:18 PM21,8 ºC36,4 %958 hPa0,00 l/m2 67,5º ENE 0,0 km/h0,0 km/h2.3 Lux
Sun 07, 11:23 PM21,7 ºC36,0 %958 hPa0,00 l/m2 67,5º ENE 0,0 km/h0,0 km/h2.3 Lux
Sun 07, 11:28 PM21,5 ºC36,4 %958 hPa0,00 l/m2 67,5º ENE 0,0 km/h0,3 km/h2.3 Lux
Sun 07, 11:33 PM21,6 ºC36,2 %959 hPa0,00 l/m2 67,5º ENE 1,7 km/h12,4 km/h2.2 Lux
Sun 07, 11:38 PM21,7 ºC36,5 %959 hPa0,00 l/m2 135º SE 0,4 km/h4,0 km/h2.3 Lux
Sun 07, 11:43 PM21,5 ºC37,3 %958 hPa0,00 l/m2 67,5º ENE 0,0 km/h0,3 km/h2.3 Lux
Sun 07, 11:48 PM21,5 ºC38,0 %958 hPa0,00 l/m2 135º SE 0,0 km/h0,0 km/h2.3 Lux
Sun 07, 11:53 PM21,3 ºC38,1 %958 hPa0,00 l/m2 157,5º SSE 0,0 km/h0,0 km/h2.2 Lux
Sun 07, 11:58 PM21,1 ºC39,5 %959 hPa0,00 l/m2 157,5º SSE 0,0 km/h0,0 km/h2.3 Lux
Mon 08, 12:03 AM20,9 ºC39,8 %959 hPa0,00 l/m2 135º SE 0,0 km/h0,0 km/h2.3 Lux
Mon 08, 12:08 AM20,6 ºC40,9 %959 hPa0,00 l/m2 202,5º SSO 0,0 km/h0,0 km/h2.1 Lux
Mon 08, 12:13 AM20,7 ºC40,5 %958 hPa0,00 l/m2 67,5º ENE 0,0 km/h0,0 km/h2.1 Lux
Mon 08, 12:18 AM20,6 ºC41,0 %959 hPa0,00 l/m2 157,5º SSE 0,0 km/h0,0 km/h2.2 Lux
Mon 08, 12:23 AM20,7 ºC40,9 %959 hPa0,00 l/m2 67,5º ENE 0,0 km/h0,0 km/h2.4 Lux
Mon 08, 12:28 AM20,6 ºC41,2 %959 hPa0,00 l/m2 67,5º ENE 0,0 km/h0,0 km/h2.1 Lux
Mon 08, 12:33 AM20,2 ºC42,6 %958 hPa0,00 l/m2 135º SE 0,0 km/h0,3 km/h2.3 Lux
Mon 08, 12:38 AM20,3 ºC42,0 %958 hPa0,00 l/m2 45º NE 0,0 km/h0,3 km/h2.3 Lux
Mon 08, 12:43 AM20,2 ºC42,5 %958 hPa0,00 l/m2 67,5º ENE 0,0 km/h0,3 km/h2.1 Lux
Mon 08, 12:48 AM20,1 ºC42,9 %958 hPa0,00 l/m2 157,5º SSE 0,0 km/h0,0 km/h2.2 Lux
Mon 08, 12:53 AM19,9 ºC43,7 %958 hPa0,00 l/m2 0º N 0,0 km/h0,0 km/h2.2 Lux
Mon 08, 12:58 AM20,0 ºC43,3 %958 hPa0,00 l/m2 45º NE 0,0 km/h0,3 km/h2.3 Lux
Mon 08, 01:03 AM19,9 ºC43,4 %958 hPa0,00 l/m2 45º NE 0,0 km/h0,3 km/h2.2 Lux
Mon 08, 01:08 AM19,8 ºC43,8 %958 hPa0,00 l/m2 67,5º ENE 0,0 km/h0,0 km/h2.4 Lux
Mon 08, 01:13 AM19,4 ºC45,3 %958 hPa0,00 l/m2 67,5º ENE 0,0 km/h0,0 km/h2.3 Lux
Mon 08, 01:18 AM19,6 ºC44,3 %958 hPa0,00 l/m2 202,5º SSO 0,0 km/h0,3 km/h2.4 Lux
Mon 08, 01:23 AM19,8 ºC43,6 %958 hPa0,00 l/m2 157,5º SSE 0,0 km/h0,0 km/h2.2 Lux
Mon 08, 01:28 AM19,9 ºC44,3 %958 hPa0,00 l/m2 67,5º ENE 0,0 km/h0,3 km/h2.3 Lux
Mon 08, 01:33 AM19,9 ºC43,7 %958 hPa0,00 l/m2 247,5º OSO 0,0 km/h0,0 km/h2.2 Lux
Mon 08, 01:38 AM19,8 ºC44,3 %958 hPa0,00 l/m2 67,5º ENE 0,0 km/h0,0 km/h2.3 Lux
Mon 08, 01:43 AM19,8 ºC43,9 %958 hPa0,00 l/m2 157,5º SSE 0,0 km/h0,0 km/h2.3 Lux
Mon 08, 01:48 AM20,1 ºC43,1 %958 hPa0,00 l/m2 247,5º OSO 0,0 km/h0,0 km/h2.2 Lux
Mon 08, 01:53 AM19,9 ºC44,0 %958 hPa0,00 l/m2 247,5º OSO 0,0 km/h0,0 km/h2.2 Lux
Mon 08, 01:58 AM19,9 ºC43,9 %958 hPa0,00 l/m2 67,5º ENE 0,0 km/h0,3 km/h2.2 Lux
Mon 08, 02:03 AM20,1 ºC43,0 %958 hPa0,00 l/m2 67,5º ENE 0,0 km/h0,0 km/h2.1 Lux
Mon 08, 02:08 AM20,2 ºC42,8 %958 hPa0,00 l/m2 45º NE 0,0 km/h0,0 km/h2.2 Lux
Mon 08, 02:13 AM19,8 ºC43,7 %958 hPa0,00 l/m2 67,5º ENE 0,0 km/h0,0 km/h2.3 Lux
Mon 08, 02:18 AM19,6 ºC44,9 %958 hPa0,00 l/m2 67,5º ENE 0,0 km/h0,0 km/h2.2 Lux
Mon 08, 02:23 AM19,5 ºC44,7 %958 hPa0,00 l/m2 67,5º ENE 0,0 km/h0,0 km/h2.2 Lux
Mon 08, 02:28 AM19,4 ºC45,2 %958 hPa0,00 l/m2 67,5º ENE 0,0 km/h0,0 km/h2.3 Lux
Mon 08, 02:33 AM19,3 ºC45,8 %958 hPa0,00 l/m2 67,5º ENE 0,1 km/h0,3 km/h2.1 Lux
Mon 08, 02:38 AM19,5 ºC44,5 %958 hPa0,00 l/m2 67,5º ENE 0,1 km/h0,3 km/h2.3 Lux
Mon 08, 02:43 AM19,3 ºC45,2 %958 hPa0,00 l/m2 45º NE 0,4 km/h1,7 km/h2.1 Lux
Mon 08, 02:48 AM19,1 ºC45,4 %958 hPa0,00 l/m2 135º SE 0,1 km/h0,9 km/h2.3 Lux
Mon 08, 02:53 AM19,0 ºC45,8 %958 hPa0,00 l/m2 247,5º OSO 0,0 km/h0,3 km/h2.3 Lux
Mon 08, 02:58 AM19,1 ºC45,8 %958 hPa0,00 l/m2 67,5º ENE 0,1 km/h0,3 km/h2.2 Lux
Mon 08, 03:03 AM19,1 ºC45,8 %958 hPa0,00 l/m2 202,5º SSO 0,0 km/h0,3 km/h2.2 Lux
Mon 08, 03:08 AM19,1 ºC45,6 %958 hPa0,00 l/m2 67,5º ENE 0,0 km/h0,3 km/h2.3 Lux
Mon 08, 03:13 AM19,3 ºC45,0 %957 hPa0,00 l/m2 67,5º ENE 0,0 km/h0,3 km/h2.3 Lux
Mon 08, 03:18 AM18,9 ºC46,8 %957 hPa0,00 l/m2 45º NE 0,8 km/h5,2 km/h2.3 Lux
Mon 08, 03:23 AM18,6 ºC46,6 %957 hPa0,00 l/m2 45º NE 0,2 km/h1,4 km/h2.2 Lux
Mon 08, 03:28 AM18,3 ºC47,2 %957 hPa0,00 l/m2 67,5º ENE 0,1 km/h0,3 km/h2.3 Lux
Mon 08, 03:33 AM18,4 ºC47,0 %957 hPa0,00 l/m2 67,5º ENE 0,1 km/h0,6 km/h2.4 Lux
Mon 08, 03:38 AM18,6 ºC46,5 %957 hPa0,00 l/m2 112.5º ESE 0,0 km/h0,3 km/h2.2 Lux
Mon 08, 03:43 AM18,5 ºC46,7 %957 hPa0,00 l/m2 135º SE 0,0 km/h0,0 km/h2.3 Lux
Mon 08, 03:48 AM18,5 ºC46,9 %957 hPa0,00 l/m2 67,5º ENE 0,0 km/h0,0 km/h2.2 Lux
Mon 08, 03:53 AM18,3 ºC47,7 %957 hPa0,00 l/m2 67,5º ENE 0,0 km/h0,0 km/h2.1 Lux
Mon 08, 03:58 AM18,3 ºC48,0 %957 hPa0,00 l/m2 67,5º ENE 0,0 km/h0,0 km/h2.3 Lux
Mon 08, 04:03 AM18,2 ºC48,9 %957 hPa0,00 l/m2 45º NE 0,1 km/h0,6 km/h2.2 Lux
Mon 08, 04:08 AM18,2 ºC47,9 %957 hPa0,00 l/m2 337,5º NNO 0,0 km/h0,9 km/h2.1 Lux
Mon 08, 04:13 AM17,6 ºC50,1 %957 hPa0,00 l/m2 135º SE 0,0 km/h0,0 km/h2.3 Lux
Mon 08, 04:18 AM16,6 ºC53,1 %957 hPa0,00 l/m2 45º NE 0,0 km/h0,0 km/h2.3 Lux
Mon 08, 04:23 AM16,7 ºC53,4 %957 hPa0,00 l/m2 67,5º ENE 0,0 km/h0,0 km/h2.3 Lux
Mon 08, 04:28 AM16,5 ºC54,4 %957 hPa0,00 l/m2 157,5º SSE 0,0 km/h0,0 km/h2.2 Lux
Mon 08, 04:33 AM17,1 ºC52,2 %957 hPa0,00 l/m2 157,5º SSE 0,0 km/h0,3 km/h2.3 Lux
Mon 08, 04:38 AM17,9 ºC49,8 %957 hPa0,00 l/m2 157,5º SSE 0,0 km/h0,3 km/h2.2 Lux
Mon 08, 04:43 AM17,5 ºC51,8 %957 hPa0,00 l/m2 337,5º NNO 0,6 km/h3,5 km/h2.2 Lux
Mon 08, 04:48 AM17,4 ºC50,8 %957 hPa0,00 l/m2 225º SO 0,1 km/h0,9 km/h2.2 Lux
Mon 08, 04:53 AM17,2 ºC50,8 %957 hPa0,00 l/m2 225º SO 0,0 km/h0,3 km/h2.4 Lux
Mon 08, 04:58 AM17,4 ºC51,3 %957 hPa0,00 l/m2 45º NE 0,0 km/h0,3 km/h2.2 Lux
Mon 08, 05:03 AM17,7 ºC50,3 %957 hPa0,00 l/m2 247,5º OSO 0,0 km/h0,3 km/h2.2 Lux
Mon 08, 05:08 AM18,0 ºC50,0 %957 hPa0,00 l/m2 157,5º SSE 0,0 km/h0,3 km/h2.3 Lux
Mon 08, 05:13 AM17,9 ºC50,4 %957 hPa0,00 l/m2 157,5º SSE 0,0 km/h0,0 km/h2.2 Lux
Mon 08, 05:18 AM18,1 ºC50,3 %957 hPa0,00 l/m2 67,5º ENE 0,0 km/h0,3 km/h2.3 Lux
Mon 08, 05:23 AM18,6 ºC48,4 %956 hPa0,00 l/m2 135º SE 0,0 km/h0,0 km/h2.2 Lux
Mon 08, 05:28 AM18,7 ºC47,8 %956 hPa0,00 l/m2 67,5º ENE 0,0 km/h0,0 km/h2.2 Lux
Mon 08, 05:33 AM18,3 ºC49,3 %956 hPa0,00 l/m2 67,5º ENE 0,1 km/h0,6 km/h2.3 Lux
Mon 08, 05:38 AM18,5 ºC48,9 %956 hPa0,00 l/m2 247,5º OSO 0,0 km/h0,3 km/h2.3 Lux
Mon 08, 05:43 AM18,4 ºC49,0 %956 hPa0,00 l/m2 45º NE 0,0 km/h0,3 km/h2.3 Lux
Mon 08, 05:48 AM18,2 ºC49,6 %956 hPa0,00 l/m2 45º NE 0,0 km/h0,3 km/h2.3 Lux
Mon 08, 05:53 AM18,1 ºC50,5 %956 hPa0,00 l/m2 337,5º NNO 0,5 km/h4,0 km/h2.1 Lux
Mon 08, 05:58 AM17,2 ºC52,9 %956 hPa0,00 l/m2 337,5º NNO 0,0 km/h0,9 km/h2.3 Lux
Mon 08, 06:03 AM16,8 ºC54,4 %956 hPa0,00 l/m2 45º NE 0,0 km/h0,0 km/h2.2 Lux
Mon 08, 06:08 AM16,5 ºC55,3 %957 hPa0,00 l/m2 45º NE 0,0 km/h0,0 km/h2.2 Lux
Mon 08, 06:13 AM15,8 ºC57,4 %957 hPa0,00 l/m2 0º N 0,0 km/h0,0 km/h2.2 Lux
Mon 08, 06:18 AM15,7 ºC57,9 %957 hPa0,00 l/m2 0º N 0,2 km/h2,9 km/h2.1 Lux
Mon 08, 06:23 AM15,8 ºC57,6 %956 hPa0,00 l/m2 157,5º SSE 0,0 km/h0,0 km/h2.4 Lux
Mon 08, 06:28 AM16,0 ºC57,1 %956 hPa0,00 l/m2 157,5º SSE 0,0 km/h0,0 km/h2.3 Lux
Mon 08, 06:33 AM15,7 ºC57,9 %956 hPa0,00 l/m2 157,5º SSE 0,0 km/h0,3 km/h2.2 Lux
Mon 08, 06:38 AM15,8 ºC57,5 %956 hPa0,00 l/m2 135º SE 0,0 km/h0,3 km/h2.2 Lux
Mon 08, 06:43 AM16,3 ºC55,9 %956 hPa0,00 l/m2 157,5º SSE 0,0 km/h0,0 km/h2.2 Lux
Mon 08, 06:48 AM16,2 ºC56,2 %956 hPa0,00 l/m2 157,5º SSE 0,0 km/h0,0 km/h2.2 Lux
Mon 08, 06:53 AM16,3 ºC56,9 %956 hPa0,00 l/m2 157,5º SSE 0,0 km/h0,0 km/h2.1 Lux
Mon 08, 06:58 AM16,2 ºC56,9 %956 hPa0,00 l/m2 202,5º SSO 0,0 km/h0,3 km/h2.2 Lux
Mon 08, 07:03 AM16,3 ºC57,0 %956 hPa0,00 l/m2 157,5º SSE 0,0 km/h0,3 km/h2.3 Lux
Mon 08, 07:08 AM16,2 ºC57,8 %956 hPa0,00 l/m2 157,5º SSE 0,0 km/h0,3 km/h2.2 Lux
Mon 08, 07:13 AM16,1 ºC57,7 %956 hPa0,00 l/m2 157,5º SSE 0,0 km/h0,3 km/h2.3 Lux
Mon 08, 07:18 AM16,4 ºC57,3 %956 hPa0,00 l/m2 157,5º SSE 0,0 km/h0,0 km/h2.3 Lux
Mon 08, 07:23 AM16,3 ºC58,1 %956 hPa0,00 l/m2 112.5º ESE 0,3 km/h2,6 km/h2.3 Lux
Mon 08, 07:28 AM16,6 ºC57,5 %956 hPa0,00 l/m2 157,5º SSE 0,0 km/h0,0 km/h2.3 Lux
Mon 08, 07:33 AM16,6 ºC58,0 %956 hPa0,00 l/m2 135º SE 0,0 km/h0,0 km/h2.3 Lux
Mon 08, 07:38 AM16,7 ºC58,2 %956 hPa0,00 l/m2 67,5º ENE 0,0 km/h0,0 km/h2.3 Lux
Mon 08, 07:43 AM16,7 ºC57,7 %956 hPa0,00 l/m2 112.5º ESE 0,0 km/h0,0 km/h2.2 Lux
Mon 08, 07:48 AM16,8 ºC57,8 %956 hPa0,00 l/m2 67,5º ENE 0,0 km/h0,0 km/h2.2 Lux
Mon 08, 07:53 AM16,9 ºC57,3 %956 hPa0,00 l/m2 45º NE 0,0 km/h0,0 km/h2.2 Lux
Mon 08, 07:58 AM16,8 ºC58,0 %956 hPa0,00 l/m2 45º NE 0,0 km/h0,0 km/h2.4 Lux
Mon 08, 08:03 AM14,9 ºC64,7 %956 hPa0,00 l/m2 45º NE 0,0 km/h0,0 km/h2.7 Lux
Mon 08, 08:08 AM15,0 ºC64,0 %956 hPa0,00 l/m2 45º NE 0,0 km/h0,0 km/h3.4 Lux
Mon 08, 08:13 AM15,1 ºC64,1 %956 hPa0,00 l/m2 157,5º SSE 0,0 km/h0,0 km/h5.2 Lux
Mon 08, 08:18 AM16,2 ºC60,5 %956 hPa0,00 l/m2 67,5º ENE 0,0 km/h0,0 km/h8.5 Lux
Mon 08, 08:23 AM15,6 ºC62,0 %956 hPa0,00 l/m2 67,5º ENE 0,0 km/h0,0 km/h13 Lux
Mon 08, 08:28 AM15,3 ºC63,0 %957 hPa0,00 l/m2 45º NE 0,4 km/h2,3 km/h18.1 Lux
Mon 08, 08:33 AM15,4 ºC63,8 %956 hPa0,00 l/m2 337,5º NNO 0,0 km/h0,6 km/h24.2 Lux
Mon 08, 08:38 AM15,5 ºC63,7 %956 hPa0,00 l/m2 337,5º NNO 1,7 km/h4,6 km/h32.7 Lux
Mon 08, 08:43 AM15,5 ºC65,4 %957 hPa0,00 l/m2 45º NE 0,4 km/h2,9 km/h41.7 Lux
Mon 08, 08:48 AM15,6 ºC66,8 %957 hPa0,00 l/m2 225º SO 0,9 km/h5,2 km/h51.8 Lux
Mon 08, 08:53 AM15,6 ºC68,4 %957 hPa0,00 l/m2 337,5º NNO 1,0 km/h5,5 km/h57.9 Lux
Mon 08, 08:58 AM15,9 ºC67,5 %957 hPa0,00 l/m2 0º N 0,0 km/h0,0 km/h62 Lux
Mon 08, 09:03 AM16,1 ºC66,4 %957 hPa0,00 l/m2 45º NE 0,1 km/h1,2 km/h76.2 Lux
Mon 08, 09:08 AM16,2 ºC67,0 %957 hPa0,00 l/m2 67,5º ENE 0,5 km/h4,3 km/h91.2 Lux
Mon 08, 09:13 AM16,1 ºC68,6 %957 hPa0,00 l/m2 45º NE 0,0 km/h0,3 km/h101.5 Lux
Mon 08, 09:18 AM15,9 ºC69,1 %957 hPa0,00 l/m2 45º NE 0,0 km/h0,3 km/h116.7 Lux
Mon 08, 09:23 AM16,3 ºC67,1 %957 hPa0,00 l/m2 45º NE 0,0 km/h0,0 km/h131.7 Lux
Mon 08, 09:28 AM16,2 ºC67,7 %957 hPa0,00 l/m2 0º N 0,0 km/h0,0 km/h137.3 Lux
Mon 08, 09:33 AM16,3 ºC67,6 %957 hPa0,00 l/m2 247,5º OSO 0,0 km/h0,0 km/h145.4 Lux
Mon 08, 09:38 AM16,5 ºC67,7 %957 hPa0,00 l/m2 157,5º SSE 0,0 km/h0,0 km/h168.8 Lux
Mon 08, 09:43 AM16,7 ºC67,3 %957 hPa0,00 l/m2 67,5º ENE 0,0 km/h0,0 km/h176.9 Lux
Mon 08, 09:48 AM16,9 ºC69,3 %957 hPa0,00 l/m2 135º SE 0,0 km/h0,0 km/h188.5 Lux
Mon 08, 09:53 AM17,1 ºC68,0 %957 hPa0,00 l/m2 67,5º ENE 0,0 km/h0,0 km/h188.5 Lux
Mon 08, 09:58 AM17,2 ºC68,8 %957 hPa0,00 l/m2 0º N 0,0 km/h0,3 km/h211.8 Lux
Mon 08, 10:03 AM17,2 ºC73,2 %957 hPa0,00 l/m2 67,5º ENE 0,0 km/h0,0 km/h243.8 Lux
Mon 08, 10:08 AM17,5 ºC72,1 %957 hPa0,00 l/m2 67,5º ENE 0,0 km/h0,0 km/h313 Lux
Mon 08, 10:13 AM17,7 ºC71,9 %957 hPa0,00 l/m2 67,5º ENE 0,1 km/h0,3 km/h362.5 Lux
Mon 08, 10:18 AM17,9 ºC71,7 %957 hPa0,00 l/m2 67,5º ENE 0,0 km/h0,0 km/h528.7 Lux
Mon 08, 10:23 AM18,2 ºC70,9 %958 hPa0,00 l/m2 67,5º ENE 0,0 km/h0,3 km/h1014.5 Lux
Mon 08, 10:28 AM20,1 ºC61,4 %958 hPa0,00 l/m2 45º NE 0,0 km/h0,0 km/h1259.7 Lux
Mon 08, 10:33 AM20,1 ºC59,8 %957 hPa0,00 l/m2 337,5º NNO 0,1 km/h1,4 km/h1535.5 Lux
Mon 08, 10:38 AM21,0 ºC56,4 %957 hPa0,00 l/m2 45º NE 2,2 km/h7,2 km/h1744.7 Lux
Mon 08, 10:43 AM19,6 ºC60,8 %958 hPa0,00 l/m2 67,5º ENE 0,0 km/h0,0 km/h1744.7 Lux
Mon 08, 10:48 AM21,9 ºC53,7 %958 hPa0,00 l/m2 67,5º ENE 0,0 km/h0,0 km/h1823.7 Lux
Mon 08, 10:53 AM21,5 ºC55,5 %958 hPa0,00 l/m2 67,5º ENE 0,0 km/h0,3 km/h1823.7 Lux
Mon 08, 10:58 AM22,7 ºC53,0 %958 hPa0,00 l/m2 67,5º ENE 0,3 km/h3,5 km/h1908 Lux
Mon 08, 11:03 AM22,1 ºC56,4 %958 hPa0,00 l/m2 45º NE 0,0 km/h0,3 km/h1823.7 Lux
Mon 08, 11:08 AM21,9 ºC55,2 %958 hPa0,00 l/m2 0º N 0,0 km/h0,0 km/h2094.2 Lux
Mon 08, 11:13 AM22,5 ºC52,9 %958 hPa0,00 l/m2 67,5º ENE 0,0 km/h0,3 km/h1998 Lux
Mon 08, 11:18 AM23,1 ºC52,0 %958 hPa0,00 l/m2 67,5º ENE 0,0 km/h0,0 km/h2094.2 Lux
Mon 08, 11:23 AM24,1 ºC49,3 %958 hPa0,00 l/m2 247,5º OSO 0,0 km/h0,0 km/h2094.2 Lux
Mon 08, 11:28 AM23,8 ºC50,6 %958 hPa0,00 l/m2 337,5º NNO 0,1 km/h0,3 km/h2308 Lux
Mon 08, 11:33 AM24,5 ºC51,5 %958 hPa0,00 l/m2 315º NO 3,6 km/h8,7 km/h2426.9 Lux
Mon 08, 11:38 AM23,7 ºC56,7 %958 hPa0,00 l/m2 337,5º NNO 2,6 km/h12,1 km/h2308 Lux
Mon 08, 11:43 AM24,1 ºC53,9 %958 hPa0,00 l/m2 0º N 5,3 km/h17,6 km/h2308 Lux
Mon 08, 11:48 AM23,2 ºC55,9 %958 hPa0,00 l/m2 225º SO 2,5 km/h7,2 km/h2554.9 Lux
Mon 08, 11:53 AM23,9 ºC52,6 %958 hPa0,00 l/m2 202,5º SSO 5,0 km/h12,4 km/h2692.9 Lux
Mon 08, 12:13 PM24,5 ºC47,4 %958 hPa0,00 l/m2 337,5º NNO 5,8 km/h13,6 km/h2841.9 Lux
Mon 08, 12:18 PM24,9 ºC45,9 %957 hPa0,00 l/m2 157,5º SSE 7,5 km/h29,5 km/h2692.9 Lux
Mon 08, 12:33 PM24,3 ºC40,5 %957 hPa0,00 l/m2 337,5º NNO 4,5 km/h11,6 km/h3003.2 Lux
Mon 08, 12:38 PM24,8 ºC40,4 %957 hPa0,00 l/m2 45º NE 2,3 km/h9,3 km/h3003.2 Lux
Mon 08, 12:43 PM25,8 ºC38,6 %957 hPa0,00 l/m2 315º NO 3,3 km/h14,7 km/h3003.2 Lux
Mon 08, 12:48 PM25,2 ºC42,7 %957 hPa0,00 l/m2 225º SO 6,8 km/h19,1 km/h3003.2 Lux
Mon 08, 12:53 PM25,1 ºC40,8 %957 hPa0,00 l/m2 67,5º ENE 3,8 km/h8,4 km/h3003.2 Lux
Mon 08, 12:58 PM25,5 ºC41,1 %957 hPa0,00 l/m2 225º SO 4,0 km/h12,4 km/h2841.9 Lux
Mon 08, 01:03 PM25,2 ºC42,3 %957 hPa0,00 l/m2 337,5º NNO 7,6 km/h19,7 km/h3178.1 Lux
Mon 08, 01:08 PM25,1 ºC41,9 %957 hPa0,00 l/m2 337,5º NNO 6,9 km/h18,2 km/h3368.1 Lux
Mon 08, 01:13 PM25,4 ºC40,8 %957 hPa0,00 l/m2 225º SO 8,1 km/h29,8 km/h3178.1 Lux
Mon 08, 01:18 PM25,1 ºC43,0 %957 hPa0,00 l/m2 315º NO 6,7 km/h15,6 km/h3178.1 Lux
Mon 08, 01:23 PM25,4 ºC43,6 %957 hPa0,00 l/m2 0º N 14,0 km/h27,5 km/h3178.1 Lux
Mon 08, 01:28 PM24,7 ºC42,4 %957 hPa0,00 l/m2 157,5º SSE 6,4 km/h12,7 km/h3003.2 Lux
Mon 08, 01:33 PM25,9 ºC41,5 %957 hPa0,00 l/m2 0º N 9,0 km/h24,6 km/h3178.1 Lux
Mon 08, 01:38 PM25,6 ºC40,7 %957 hPa0,00 l/m2 45º NE 12,0 km/h37,3 km/h3368.1 Lux
Mon 08, 01:43 PM26,0 ºC41,9 %957 hPa0,00 l/m2 67,5º ENE 10,7 km/h35,0 km/h3178.1 Lux
Mon 08, 01:48 PM25,7 ºC42,9 %957 hPa0,00 l/m2 337,5º NNO 10,9 km/h31,5 km/h3368.1 Lux
Mon 08, 01:53 PM25,3 ºC42,7 %957 hPa0,00 l/m2 0º N 10,9 km/h20,2 km/h3178.1 Lux
Mon 08, 01:58 PM26,1 ºC39,8 %957 hPa0,00 l/m2 45º NE 7,1 km/h13,9 km/h3368.1 Lux
Mon 08, 02:03 PM26,4 ºC41,7 %957 hPa0,00 l/m2 225º SO 2,6 km/h8,4 km/h4047.8 Lux
Mon 08, 02:08 PM26,8 ºC40,2 %957 hPa0,00 l/m2 337,5º NNO 6,2 km/h11,8 km/h3575 Lux
Mon 08, 02:13 PM26,7 ºC40,0 %956 hPa0,00 l/m2 157,5º SSE 4,7 km/h11,3 km/h3575 Lux
Mon 08, 02:18 PM26,6 ºC39,3 %956 hPa0,00 l/m2 225º SO 13,9 km/h39,6 km/h478.2 Lux
Mon 08, 02:23 PM26,3 ºC40,2 %956 hPa0,00 l/m2 135º SE 7,8 km/h20,5 km/h3178.1 Lux
Mon 08, 02:28 PM25,9 ºC42,7 %956 hPa0,00 l/m2 45º NE 1,0 km/h6,4 km/h3800.8 Lux
Mon 08, 02:33 PM26,8 ºC40,0 %956 hPa0,00 l/m2 67,5º ENE 1,1 km/h9,3 km/h3575 Lux
Mon 08, 02:38 PM27,4 ºC38,8 %956 hPa0,00 l/m2 337,5º NNO 9,4 km/h35,0 km/h4047.8 Lux
Mon 08, 02:43 PM26,6 ºC40,8 %956 hPa0,00 l/m2 337,5º NNO 6,6 km/h17,4 km/h715.3 Lux
Mon 08, 02:48 PM25,3 ºC43,9 %956 hPa0,00 l/m2 225º SO 5,5 km/h9,3 km/h3178.1 Lux
Mon 08, 02:53 PM25,9 ºC41,9 %956 hPa0,00 l/m2 0º N 3,9 km/h22,0 km/h542.6 Lux
Mon 08, 02:58 PM26,7 ºC37,6 %956 hPa0,00 l/m2 315º NO 8,5 km/h23,4 km/h455.5 Lux
Mon 08, 03:03 PM24,8 ºC40,3 %956 hPa0,00 l/m2 225º SO 5,7 km/h18,5 km/h252.9 Lux
Mon 08, 03:08 PM24,6 ºC41,4 %956 hPa0,00 l/m2 337,5º NNO 5,3 km/h13,3 km/h326.1 Lux
Mon 08, 03:13 PM24,7 ºC41,1 %956 hPa0,00 l/m2 337,5º NNO 9,7 km/h18,5 km/h674.9 Lux
Mon 08, 03:18 PM25,0 ºC38,0 %956 hPa0,00 l/m2 0º N 5,7 km/h17,1 km/h289 Lux
Mon 08, 03:23 PM24,9 ºC37,4 %956 hPa0,00 l/m2 337,5º NNO 8,4 km/h16,2 km/h1087.9 Lux
Mon 08, 03:28 PM25,0 ºC35,2 %956 hPa0,00 l/m2 337,5º NNO 10,8 km/h23,1 km/h715.3 Lux
Mon 08, 03:33 PM25,9 ºC34,1 %955 hPa0,00 l/m2 315º NO 10,5 km/h23,1 km/h340 Lux
Mon 08, 03:38 PM25,0 ºC35,7 %955 hPa0,00 l/m2 337,5º NNO 12,0 km/h26,0 km/h424.3 Lux
Mon 08, 03:43 PM25,1 ºC34,6 %955 hPa0,00 l/m2 315º NO 11,9 km/h22,2 km/h306.7 Lux
Mon 08, 03:48 PM25,0 ºC33,7 %955 hPa0,00 l/m2 337,5º NNO 13,9 km/h35,6 km/h340 Lux
Mon 08, 03:53 PM25,0 ºC30,0 %955 hPa0,00 l/m2 337,5º NNO 15,9 km/h32,4 km/h387.3 Lux
Mon 08, 03:58 PM25,1 ºC30,5 %955 hPa0,00 l/m2 337,5º NNO 8,4 km/h26,9 km/h370.5 Lux
Mon 08, 04:03 PM26,0 ºC29,8 %955 hPa0,00 l/m2 157,5º SSE 14,9 km/h32,4 km/h277.9 Lux
Mon 08, 04:08 PM25,1 ºC31,9 %955 hPa0,00 l/m2 337,5º NNO 14,7 km/h24,8 km/h267.5 Lux
Mon 08, 04:13 PM25,1 ºC31,8 %955 hPa0,00 l/m2 202,5º SSO 12,3 km/h22,2 km/h478.2 Lux
Mon 08, 04:18 PM25,1 ºC31,9 %955 hPa0,00 l/m2 337,5º NNO 12,6 km/h31,8 km/h528.7 Lux
Mon 08, 04:23 PM26,0 ºC30,1 %955 hPa0,00 l/m2 337,5º NNO 6,1 km/h26,0 km/h490.1 Lux
Mon 08, 04:28 PM26,0 ºC30,6 %955 hPa0,00 l/m2 337,5º NNO 7,7 km/h18,2 km/h2094.2 Lux
Mon 08, 04:33 PM26,0 ºC34,6 %955 hPa0,00 l/m2 315º NO 8,9 km/h19,1 km/h2094.2 Lux
Mon 08, 04:38 PM27,3 ºC37,3 %955 hPa0,00 l/m2 0º N 11,8 km/h30,1 km/h2197.4 Lux
Mon 08, 04:43 PM27,5 ºC39,9 %955 hPa0,00 l/m2 0º N 4,2 km/h10,7 km/h736.7 Lux
Mon 08, 04:48 PM26,9 ºC39,7 %955 hPa0,00 l/m2 337,5º NNO 1,5 km/h8,4 km/h571.9 Lux
Mon 08, 04:53 PM26,3 ºC41,7 %955 hPa0,00 l/m2 225º SO 4,3 km/h13,6 km/h859.6 Lux
Mon 08, 04:58 PM26,3 ºC44,6 %955 hPa0,00 l/m2 337,5º NNO 7,8 km/h24,3 km/h782.6 Lux
Mon 08, 05:03 PM25,4 ºC45,1 %955 hPa0,00 l/m2 225º SO 6,6 km/h19,1 km/h736.7 Lux
Mon 08, 05:08 PM25,7 ºC43,7 %955 hPa0,00 l/m2 157,5º SSE 6,7 km/h15,3 km/h424.3 Lux
Mon 08, 05:13 PM25,6 ºC44,9 %955 hPa0,00 l/m2 0º N 6,9 km/h16,2 km/h319.4 Lux
Mon 08, 05:18 PM25,3 ºC45,1 %955 hPa0,00 l/m2 247,5º OSO 2,7 km/h10,4 km/h1360.7 Lux
Mon 08, 05:23 PM25,2 ºC47,8 %955 hPa0,00 l/m2 315º NO 3,3 km/h10,4 km/h1259.7 Lux
Mon 08, 05:28 PM26,3 ºC44,5 %955 hPa0,00 l/m2 337,5º NNO 1,5 km/h6,4 km/h859.6 Lux
Mon 08, 05:33 PM26,4 ºC43,0 %955 hPa0,00 l/m2 202,5º SSO 1,8 km/h4,6 km/h252.9 Lux
Mon 08, 05:38 PM25,5 ºC46,3 %955 hPa0,00 l/m2 135º SE 8,1 km/h14,4 km/h515.4 Lux
Mon 08, 05:43 PM24,3 ºC53,9 %955 hPa0,00 l/m2 0º N 9,0 km/h15,0 km/h832.8 Lux
Mon 08, 05:48 PM24,5 ºC56,2 %955 hPa0,00 l/m2 247,5º OSO 6,4 km/h14,1 km/h556.9 Lux
Mon 08, 05:53 PM25,2 ºC52,5 %955 hPa0,00 l/m2 225º SO 3,8 km/h9,8 km/h455.5 Lux
Mon 08, 05:58 PM24,7 ºC54,6 %955 hPa0,00 l/m2 225º SO 10,7 km/h18,2 km/h859.6 Lux
Mon 08, 06:03 PM24,3 ºC55,9 %955 hPa0,00 l/m2 337,5º NNO 6,3 km/h12,1 km/h948 Lux
Mon 08, 06:08 PM25,3 ºC54,2 %955 hPa0,00 l/m2 337,5º NNO 5,4 km/h11,8 km/h917.2 Lux
Mon 08, 06:13 PM25,9 ºC49,9 %955 hPa0,00 l/m2 315º NO 4,8 km/h11,8 km/h387.3 Lux
Mon 08, 06:18 PM25,5 ºC52,1 %955 hPa0,00 l/m2 225º SO 3,3 km/h10,1 km/h158.8 Lux
Mon 08, 06:23 PM24,2 ºC54,5 %955 hPa0,00 l/m2 202,5º SSO 2,2 km/h6,9 km/h139.3 Lux
Mon 08, 06:28 PM24,0 ºC54,1 %955 hPa0,00 l/m2 202,5º SSO 2,1 km/h8,7 km/h139.3 Lux
Mon 08, 06:33 PM24,0 ºC53,3 %955 hPa0,00 l/m2 225º SO 4,7 km/h14,1 km/h194.8 Lux
Mon 08, 06:38 PM23,9 ºC56,2 %955 hPa0,00 l/m2 225º SO 5,2 km/h12,1 km/h444.7 Lux
Mon 08, 06:43 PM24,2 ºC56,1 %955 hPa0,00 l/m2 0º N 4,8 km/h10,4 km/h313 Lux
Mon 08, 06:48 PM24,1 ºC56,7 %955 hPa0,00 l/m2 337,5º NNO 3,5 km/h7,2 km/h272.7 Lux
Mon 08, 06:53 PM24,2 ºC55,1 %955 hPa0,00 l/m2 157,5º SSE 4,5 km/h16,8 km/h257.6 Lux
Mon 08, 06:58 PM24,4 ºC51,6 %955 hPa0,00 l/m2 315º NO 1,7 km/h9,3 km/h243.8 Lux
Mon 08, 07:03 PM24,1 ºC56,1 %955 hPa0,00 l/m2 315º NO 0,8 km/h6,1 km/h204.7 Lux
Mon 08, 07:08 PM24,2 ºC53,9 %955 hPa0,00 l/m2 67,5º ENE 2,1 km/h8,1 km/h143.3 Lux
Mon 08, 07:13 PM24,2 ºC52,1 %955 hPa0,00 l/m2 112.5º ESE 2,1 km/h8,7 km/h128.2 Lux
Mon 08, 07:18 PM24,1 ºC51,6 %955 hPa0,00 l/m2 247,5º OSO 1,0 km/h6,4 km/h124.7 Lux
Mon 08, 07:23 PM24,0 ºC50,7 %955 hPa0,00 l/m2 202,5º SSO 3,4 km/h10,4 km/h124.7 Lux
Mon 08, 07:28 PM23,9 ºC51,2 %955 hPa0,00 l/m2 337,5º NNO 2,6 km/h8,1 km/h90.1 Lux
Mon 08, 07:33 PM23,7 ºC52,5 %955 hPa0,00 l/m2 202,5º SSO 1,6 km/h9,0 km/h53.7 Lux
Mon 08, 07:38 PM23,6 ºC53,5 %955 hPa0,00 l/m2 202,5º SSO 4,6 km/h12,4 km/h34.2 Lux
Mon 08, 07:43 PM23,4 ºC53,8 %955 hPa0,00 l/m2 337,5º NNO 1,0 km/h9,0 km/h19.2 Lux
Mon 08, 07:48 PM23,3 ºC54,0 %955 hPa0,00 l/m2 337,5º NNO 2,3 km/h8,7 km/h11.6 Lux
Mon 08, 07:53 PM23,1 ºC55,2 %955 hPa0,00 l/m2 337,5º NNO 0,9 km/h8,1 km/h7.7 Lux
Mon 08, 07:58 PM22,8 ºC57,0 %955 hPa0,00 l/m2 135º SE 0,5 km/h4,6 km/h5 Lux
Mon 08, 08:03 PM22,6 ºC58,3 %955 hPa0,00 l/m2 225º SO 2,1 km/h5,8 km/h3.5 Lux
Mon 08, 08:08 PM22,5 ºC59,1 %955 hPa0,00 l/m2 157,5º SSE 1,4 km/h8,7 km/h2.8 Lux
Mon 08, 08:13 PM22,4 ºC60,2 %955 hPa0,00 l/m2 225º SO 2,6 km/h8,4 km/h2.5 Lux
Mon 08, 08:18 PM22,2 ºC60,6 %955 hPa0,00 l/m2 157,5º SSE 2,2 km/h7,8 km/h2.3 Lux
Mon 08, 08:23 PM22,2 ºC60,6 %955 hPa0,00 l/m2 135º SE 1,6 km/h5,5 km/h2.3 Lux
Mon 08, 08:28 PM22,0 ºC61,5 %955 hPa0,00 l/m2 157,5º SSE 1,0 km/h4,0 km/h2.3 Lux
Mon 08, 08:33 PM21,9 ºC62,7 %955 hPa0,00 l/m2 202,5º SSO 3,1 km/h10,4 km/h2.3 Lux
Mon 08, 08:38 PM21,9 ºC63,3 %955 hPa0,00 l/m2 247,5º OSO 1,1 km/h4,6 km/h2.1 Lux
Mon 08, 08:43 PM21,8 ºC64,2 %955 hPa0,00 l/m2 337,5º NNO 1,9 km/h6,1 km/h2.1 Lux
Mon 08, 08:48 PM21,8 ºC64,9 %955 hPa0,00 l/m2 202,5º SSO 3,2 km/h7,5 km/h2.3 Lux
Mon 08, 08:53 PM21,7 ºC65,2 %955 hPa0,00 l/m2 225º SO 2,5 km/h7,2 km/h2.2 Lux
Mon 08, 08:58 PM21,5 ºC66,0 %955 hPa0,00 l/m2 225º SO 1,4 km/h6,4 km/h2.3 Lux
Mon 08, 09:03 PM21,6 ºC65,8 %955 hPa0,00 l/m2 67,5º ENE 0,7 km/h3,5 km/h2.2 Lux
Mon 08, 09:08 PM21,6 ºC65,7 %955 hPa0,00 l/m2 67,5º ENE 0,1 km/h0,6 km/h2.3 Lux
Mon 08, 09:13 PM21,6 ºC65,9 %955 hPa0,00 l/m2 90º E 0,0 km/h0,0 km/h2.2 Lux
Mon 08, 09:18 PM21,6 ºC66,3 %955 hPa0,00 l/m2 0º N 0,0 km/h0,0 km/h2.3 Lux
Mon 08, 09:23 PM21,3 ºC67,2 %955 hPa0,00 l/m2 67,5º ENE 0,0 km/h0,0 km/h2.2 Lux
Mon 08, 09:28 PM21,1 ºC68,8 %955 hPa0,00 l/m2 0º N 0,0 km/h0,0 km/h2.3 Lux
Mon 08, 09:33 PM21,1 ºC68,3 %955 hPa0,00 l/m2 67,5º ENE 0,0 km/h0,0 km/h2.2 Lux
Mon 08, 09:38 PM21,1 ºC69,0 %955 hPa0,00 l/m2 67,5º ENE 0,0 km/h0,0 km/h2.2 Lux
Mon 08, 09:43 PM20,9 ºC69,4 %955 hPa0,00 l/m2 45º NE 0,0 km/h0,0 km/h2.2 Lux
Mon 08, 09:48 PM21,2 ºC70,7 %955 hPa0,00 l/m2 67,5º ENE 0,0 km/h0,0 km/h2.2 Lux
Mon 08, 09:53 PM21,2 ºC70,5 %955 hPa0,00 l/m2 67,5º ENE 0,0 km/h0,0 km/h2.2 Lux
Mon 08, 09:58 PM21,0 ºC71,1 %955 hPa0,00 l/m2 67,5º ENE 0,0 km/h0,0 km/h2.3 Lux
Mon 08, 10:03 PM21,3 ºC69,9 %955 hPa0,00 l/m2 0º N 0,1 km/h0,3 km/h2.2 Lux
Mon 08, 10:08 PM21,1 ºC71,9 %955 hPa0,00 l/m2 45º NE 0,0 km/h0,0 km/h2.3 Lux
Mon 08, 10:13 PM20,8 ºC74,1 %955 hPa0,00 l/m2 0º N 0,0 km/h0,0 km/h2.1 Lux
Mon 08, 10:18 PM20,5 ºC76,0 %955 hPa0,00 l/m2 45º NE 0,0 km/h0,0 km/h2.2 Lux
Mon 08, 10:23 PM20,5 ºC75,6 %955 hPa0,00 l/m2 67,5º ENE 0,0 km/h0,0 km/h2.2 Lux
Mon 08, 10:28 PM20,2 ºC76,0 %955 hPa0,00 l/m2 67,5º ENE 0,0 km/h0,0 km/h2.1 Lux
Mon 08, 10:33 PM19,8 ºC77,4 %955 hPa0,00 l/m2 67,5º ENE 0,0 km/h0,0 km/h2.1 Lux
Mon 08, 10:38 PM19,8 ºC78,8 %955 hPa0,00 l/m2 67,5º ENE 0,0 km/h0,0 km/h2.1 Lux
Mon 08, 10:43 PM19,9 ºC78,4 %956 hPa0,00 l/m2 45º NE 0,0 km/h0,0 km/h2.3 Lux
Mon 08, 10:48 PM19,8 ºC79,6 %956 hPa0,00 l/m2 45º NE 0,3 km/h3,5 km/h2.3 Lux
Mon 08, 10:53 PM19,9 ºC80,3 %956 hPa0,00 l/m2 337,5º NNO 0,0 km/h0,3 km/h2.3 Lux
Mon 08, 10:58 PM19,9 ºC80,8 %956 hPa0,00 l/m2 0º N 0,0 km/h0,3 km/h2.3 Lux
Mon 08, 11:03 PM19,8 ºC82,5 %956 hPa0,00 l/m2 45º NE 0,0 km/h0,0 km/h2.3 Lux
Mon 08, 11:08 PM19,7 ºC84,1 %956 hPa0,00 l/m2 45º NE 0,0 km/h0,0 km/h2.2 Lux
Mon 08, 11:13 PM19,7 ºC85,5 %956 hPa0,00 l/m2 45º NE 0,0 km/h0,3 km/h2.2 Lux
Mon 08, 11:18 PM19,6 ºC87,0 %956 hPa0,00 l/m2 0º N 0,0 km/h0,3 km/h2.4 Lux
Mon 08, 11:23 PM19,6 ºC87,9 %956 hPa0,00 l/m2 45º NE 0,0 km/h0,0 km/h2.3 Lux
Mon 08, 11:28 PM19,4 ºC88,5 %956 hPa0,00 l/m2 45º NE 0,0 km/h0,3 km/h2.3 Lux
Mon 08, 11:33 PM19,5 ºC87,6 %955 hPa0,00 l/m2 67,5º ENE 0,0 km/h0,0 km/h2.3 Lux
Mon 08, 11:38 PM19,5 ºC87,9 %955 hPa0,00 l/m2 0º N 0,0 km/h0,3 km/h2.2 Lux
Mon 08, 11:43 PM19,5 ºC87,4 %955 hPa0,00 l/m2 45º NE 0,0 km/h0,0 km/h2.3 Lux
Mon 08, 11:48 PM19,4 ºC88,2 %955 hPa0,00 l/m2 0º N 0,0 km/h0,0 km/h2.1 Lux
Mon 08, 11:53 PM19,4 ºC87,7 %955 hPa0,00 l/m2 45º NE 0,0 km/h0,0 km/h2.3 Lux
Mon 08, 11:58 PM19,4 ºC87,9 %955 hPa0,00 l/m2 45º NE 0,0 km/h0,0 km/h2.2 Lux
Tue 09, 12:03 AM19,2 ºC89,0 %955 hPa0,00 l/m2 45º NE 0,0 km/h0,3 km/h2.2 Lux
Tue 09, 12:08 AM19,3 ºC88,3 %955 hPa0,00 l/m2 337,5º NNO 0,0 km/h0,0 km/h2.2 Lux
Tue 09, 12:13 AM19,3 ºC87,4 %955 hPa0,00 l/m2 45º NE 0,0 km/h0,0 km/h2.3 Lux
Tue 09, 12:18 AM19,3 ºC86,6 %955 hPa0,00 l/m2 0º N 0,0 km/h0,0 km/h2.2 Lux
Tue 09, 12:23 AM19,2 ºC86,9 %955 hPa0,00 l/m2 0º N 0,0 km/h0,0 km/h2.3 Lux
Tue 09, 12:28 AM19,1 ºC87,7 %955 hPa0,00 l/m2 0º N 0,0 km/h0,0 km/h2.3 Lux
Tue 09, 12:33 AM18,5 ºC89,8 %955 hPa0,00 l/m2 0º N 0,0 km/h0,0 km/h2.2 Lux
Tue 09, 12:38 AM18,4 ºC91,4 %955 hPa0,00 l/m2 67,5º ENE 0,1 km/h0,6 km/h2.3 Lux
Tue 09, 12:43 AM18,1 ºC93,8 %955 hPa0,00 l/m2 157,5º SSE 0,0 km/h0,0 km/h2.3 Lux
Tue 09, 12:48 AM18,1 ºC93,9 %955 hPa0,00 l/m2 157,5º SSE 0,0 km/h0,0 km/h2.3 Lux
Tue 09, 12:53 AM18,3 ºC92,9 %955 hPa0,00 l/m2 202,5º SSO 0,0 km/h0,0 km/h2.1 Lux
Tue 09, 12:58 AM18,4 ºC92,7 %955 hPa0,00 l/m2 157,5º SSE 0,0 km/h0,0 km/h2.2 Lux
Tue 09, 01:03 AM18,1 ºC93,1 %955 hPa0,00 l/m2 202,5º SSO 0,0 km/h0,3 km/h2.2 Lux
Tue 09, 01:08 AM18,2 ºC94,3 %955 hPa0,00 l/m2 67,5º ENE 0,0 km/h0,0 km/h2.2 Lux
Tue 09, 01:13 AM18,3 ºC94,0 %955 hPa0,00 l/m2 67,5º ENE 0,0 km/h0,0 km/h2.2 Lux
Tue 09, 01:18 AM18,4 ºC93,5 %955 hPa0,00 l/m2 225º SO 0,0 km/h0,0 km/h2.1 Lux
Tue 09, 01:23 AM18,7 ºC93,7 %955 hPa0,00 l/m2 0º N 0,0 km/h0,3 km/h2.2 Lux
Tue 09, 01:28 AM18,3 ºC93,9 %955 hPa0,00 l/m2 135º SE 0,0 km/h0,0 km/h2.3 Lux
Tue 09, 01:33 AM18,2 ºC94,6 %955 hPa0,00 l/m2 67,5º ENE 0,0 km/h0,0 km/h2.3 Lux
Tue 09, 01:38 AM18,1 ºC95,0 %955 hPa0,00 l/m2 0º N 0,0 km/h0,0 km/h2.3 Lux
Tue 09, 01:43 AM18,2 ºC95,3 %955 hPa0,00 l/m2 45º NE 0,0 km/h0,0 km/h2.3 Lux
Tue 09, 01:48 AM18,3 ºC95,3 %955 hPa0,00 l/m2 67,5º ENE 0,0 km/h0,3 km/h2.2 Lux
Tue 09, 01:53 AM18,4 ºC94,9 %955 hPa0,00 l/m2 45º NE 0,0 km/h0,0 km/h2.3 Lux
Tue 09, 01:58 AM18,3 ºC95,2 %955 hPa0,00 l/m2 337,5º NNO 0,0 km/h0,0 km/h2.3 Lux
Tue 09, 02:03 AM18,2 ºC95,1 %955 hPa0,00 l/m2 67,5º ENE 0,0 km/h0,0 km/h2.2 Lux
Tue 09, 02:08 AM17,5 ºC97,9 %955 hPa0,00 l/m2 67,5º ENE 0,0 km/h0,0 km/h2.2 Lux
Tue 09, 02:13 AM17,7 ºC97,8 %955 hPa0,00 l/m2 67,5º ENE 0,0 km/h0,0 km/h2.3 Lux
Tue 09, 02:18 AM17,8 ºC96,7 %955 hPa0,00 l/m2 67,5º ENE 0,0 km/h0,0 km/h2.3 Lux
Tue 09, 02:23 AM17,8 ºC96,7 %955 hPa0,00 l/m2 45º NE 0,0 km/h0,0 km/h2.3 Lux
Tue 09, 02:28 AM18,2 ºC95,1 %955 hPa0,00 l/m2 67,5º ENE 0,0 km/h0,0 km/h2.4 Lux
Tue 09, 02:33 AM18,2 ºC94,9 %955 hPa0,00 l/m2 0º N 0,0 km/h0,0 km/h2.2 Lux
Tue 09, 02:38 AM17,7 ºC95,8 %955 hPa0,00 l/m2 45º NE 0,0 km/h0,0 km/h2.2 Lux
Tue 09, 02:43 AM17,0 ºC97,7 %955 hPa0,00 l/m2 337,5º NNO 0,0 km/h0,0 km/h2.2 Lux
Tue 09, 02:48 AM16,7 ºC98,6 %955 hPa0,00 l/m2 67,5º ENE 0,0 km/h0,0 km/h2.1 Lux
Tue 09, 02:53 AM16,9 ºC99,4 %955 hPa0,00 l/m2 337,5º NNO 0,0 km/h0,0 km/h2.2 Lux
Tue 09, 02:58 AM16,9 ºC99,4 %955 hPa0,00 l/m2 157,5º SSE 0,0 km/h0,0 km/h2.2 Lux
Tue 09, 03:03 AM16,7 ºC100,0 %955 hPa0,00 l/m2 157,5º SSE 0,0 km/h0,0 km/h2.2 Lux
Tue 09, 03:08 AM16,7 ºC100,0 %955 hPa0,00 l/m2 0º N 0,4 km/h4,0 km/h2.2 Lux
Tue 09, 03:13 AM16,8 ºC100,0 %955 hPa0,00 l/m2 0º N 0,0 km/h0,0 km/h2.1 Lux
Tue 09, 03:18 AM16,9 ºC100,0 %954 hPa0,00 l/m2 337,5º NNO 1,5 km/h8,1 km/h2.2 Lux
Tue 09, 03:23 AM17,0 ºC100,0 %954 hPa0,00 l/m2 157,5º SSE 0,9 km/h4,6 km/h2.3 Lux
Tue 09, 03:28 AM16,9 ºC100,0 %954 hPa0,00 l/m2 157,5º SSE 0,0 km/h0,0 km/h2.2 Lux
Tue 09, 03:33 AM16,8 ºC100,0 %954 hPa0,00 l/m2 0º N 0,0 km/h0,0 km/h2.3 Lux
Tue 09, 03:38 AM16,9 ºC100,0 %954 hPa0,00 l/m2 67,5º ENE 0,0 km/h0,0 km/h2.3 Lux
Tue 09, 03:43 AM17,1 ºC97,7 %954 hPa0,00 l/m2 337,5º NNO 1,3 km/h6,9 km/h2.3 Lux
Tue 09, 03:48 AM17,1 ºC93,5 %954 hPa0,00 l/m2 337,5º NNO 0,0 km/h0,3 km/h2.2 Lux
Tue 09, 03:53 AM17,0 ºC93,9 %954 hPa0,00 l/m2 45º NE 0,0 km/h0,0 km/h2.2 Lux
Tue 09, 03:58 AM17,0 ºC91,0 %954 hPa0,00 l/m2 0º N 0,0 km/h0,0 km/h2.1 Lux
Tue 09, 04:03 AM16,9 ºC89,8 %954 hPa0,00 l/m2 67,5º ENE 0,0 km/h0,0 km/h2.2 Lux
Tue 09, 04:08 AM16,9 ºC89,7 %954 hPa0,00 l/m2 67,5º ENE 0,0 km/h0,0 km/h2.1 Lux
Tue 09, 04:13 AM16,8 ºC89,4 %953 hPa0,00 l/m2 0º N 0,0 km/h0,0 km/h2.3 Lux
Tue 09, 04:18 AM16,6 ºC90,3 %953 hPa0,00 l/m2 225º SO 0,0 km/h0,0 km/h2.3 Lux
Tue 09, 04:23 AM16,6 ºC90,3 %953 hPa0,00 l/m2 202,5º SSO 0,2 km/h2,3 km/h2.2 Lux
Tue 09, 04:28 AM16,8 ºC90,1 %953 hPa0,00 l/m2 337,5º NNO 0,2 km/h1,7 km/h2.3 Lux
Tue 09, 04:33 AM16,8 ºC89,9 %953 hPa0,00 l/m2 67,5º ENE 0,0 km/h0,0 km/h2.1 Lux
Tue 09, 04:38 AM16,8 ºC90,0 %953 hPa0,00 l/m2 45º NE 0,0 km/h0,0 km/h2.2 Lux
Tue 09, 04:43 AM17,0 ºC88,6 %953 hPa0,00 l/m2 45º NE 0,0 km/h0,3 km/h2.3 Lux
Tue 09, 04:48 AM16,9 ºC88,1 %953 hPa0,00 l/m2 45º NE 0,0 km/h0,3 km/h2.3 Lux
Tue 09, 04:53 AM16,8 ºC88,1 %953 hPa0,00 l/m2 67,5º ENE 0,0 km/h0,6 km/h2.2 Lux
Tue 09, 04:58 AM16,6 ºC87,7 %953 hPa0,00 l/m2 337,5º NNO 0,3 km/h2,0 km/h2.2 Lux
Tue 09, 05:03 AM16,1 ºC89,5 %953 hPa0,00 l/m2 67,5º ENE 0,0 km/h0,0 km/h2.2 Lux
Tue 09, 05:08 AM16,2 ºC86,4 %954 hPa0,00 l/m2 67,5º ENE 0,0 km/h0,0 km/h2.3 Lux
Tue 09, 05:13 AM15,9 ºC86,8 %953 hPa0,00 l/m2 0º N 0,0 km/h0,0 km/h2.3 Lux
Tue 09, 05:18 AM15,9 ºC86,5 %953 hPa0,00 l/m2 202,5º SSO 0,0 km/h0,3 km/h2.4 Lux
Tue 09, 05:23 AM16,0 ºC86,6 %953 hPa0,00 l/m2 157,5º SSE 0,0 km/h0,0 km/h2.2 Lux
Tue 09, 05:28 AM16,1 ºC85,4 %953 hPa0,00 l/m2 157,5º SSE 0,0 km/h0,0 km/h2.3 Lux
Tue 09, 05:33 AM16,2 ºC84,7 %953 hPa0,00 l/m2 337,5º NNO 0,6 km/h5,8 km/h2.2 Lux
Tue 09, 05:38 AM16,2 ºC83,1 %953 hPa0,00 l/m2 45º NE 0,5 km/h5,2 km/h2.3 Lux
Tue 09, 05:43 AM16,4 ºC82,8 %953 hPa0,00 l/m2 337,5º NNO 0,0 km/h0,0 km/h2.3 Lux
Tue 09, 05:48 AM16,4 ºC85,4 %953 hPa0,00 l/m2 45º NE 0,0 km/h0,0 km/h2.3 Lux
Tue 09, 05:53 AM16,5 ºC85,6 %953 hPa0,00 l/m2 67,5º ENE 0,0 km/h0,0 km/h2.2 Lux
Tue 09, 05:58 AM16,3 ºC85,4 %953 hPa0,00 l/m2 67,5º ENE 0,0 km/h0,0 km/h2.1 Lux
Tue 09, 06:03 AM16,3 ºC85,7 %953 hPa0,00 l/m2 67,5º ENE 0,0 km/h0,0 km/h2.2 Lux
Tue 09, 06:08 AM16,3 ºC87,9 %953 hPa0,00 l/m2 135º SE 0,0 km/h0,0 km/h2.3 Lux
Tue 09, 06:13 AM16,2 ºC89,6 %953 hPa0,00 l/m2 202,5º SSO 0,0 km/h0,0 km/h2.3 Lux
Tue 09, 06:18 AM16,1 ºC90,8 %953 hPa0,00 l/m2 157,5º SSE 0,0 km/h0,3 km/h2.2 Lux
Tue 09, 06:23 AM16,5 ºC90,4 %953 hPa0,00 l/m2 45º NE 0,0 km/h0,0 km/h2.2 Lux
Tue 09, 06:28 AM16,5 ºC90,9 %953 hPa0,00 l/m2 45º NE 0,0 km/h0,0 km/h2.3 Lux
Tue 09, 06:33 AM16,6 ºC93,0 %953 hPa0,00 l/m2 0º N 0,0 km/h0,0 km/h2.3 Lux
Tue 09, 06:38 AM16,5 ºC93,3 %953 hPa0,00 l/m2 45º NE 0,0 km/h0,0 km/h2.2 Lux
Tue 09, 06:43 AM16,4 ºC94,0 %953 hPa0,00 l/m2 67,5º ENE 0,0 km/h0,0 km/h2.1 Lux
Tue 09, 06:48 AM16,8 ºC96,5 %953 hPa0,00 l/m2 0º N 0,0 km/h0,3 km/h2.3 Lux
Tue 09, 06:53 AM16,8 ºC97,2 %953 hPa0,00 l/m2 135º SE 0,0 km/h0,0 km/h2.4 Lux
Tue 09, 06:58 AM16,5 ºC99,2 %953 hPa0,00 l/m2 67,5º ENE 0,0 km/h0,0 km/h2.2 Lux
Tue 09, 07:03 AM16,6 ºC99,8 %953 hPa0,00 l/m2 67,5º ENE 0,0 km/h0,0 km/h2.2 Lux
Tue 09, 07:08 AM16,5 ºC96,8 %953 hPa0,00 l/m2 157,5º SSE 0,0 km/h0,3 km/h2.2 Lux
Tue 09, 07:13 AM16,7 ºC99,9 %953 hPa0,00 l/m2 157,5º SSE 0,0 km/h0,0 km/h2.2 Lux
Tue 09, 07:18 AM16,7 ºC99,6 %953 hPa0,00 l/m2 202,5º SSO 0,0 km/h0,0 km/h2.3 Lux
Tue 09, 07:23 AM17,1 ºC98,7 %953 hPa0,00 l/m2 0º N 0,0 km/h0,0 km/h2.3 Lux
Tue 09, 07:28 AM17,2 ºC98,6 %953 hPa0,00 l/m2 67,5º ENE 0,0 km/h0,3 km/h2.3 Lux
Tue 09, 07:33 AM17,4 ºC99,7 %953 hPa0,00 l/m2 45º NE 0,0 km/h0,0 km/h2.2 Lux
Tue 09, 07:38 AM17,2 ºC99,4 %953 hPa0,00 l/m2 337,5º NNO 0,0 km/h0,0 km/h2.4 Lux
Tue 09, 07:43 AM17,1 ºC100,0 %952 hPa0,00 l/m2 45º NE 0,1 km/h0,3 km/h2.2 Lux
Tue 09, 07:48 AM17,2 ºC99,9 %953 hPa0,00 l/m2 45º NE 0,1 km/h0,9 km/h2.2 Lux
Tue 09, 07:53 AM17,6 ºC98,6 %952 hPa0,00 l/m2 337,5º NNO 0,6 km/h4,0 km/h2.2 Lux
Tue 09, 07:58 AM17,8 ºC96,7 %953 hPa0,00 l/m2 0º N 4,6 km/h19,9 km/h2.4 Lux
Tue 09, 08:03 AM16,7 ºC97,6 %953 hPa0,00 l/m2 0º N 1,8 km/h8,7 km/h2.4 Lux
Tue 09, 08:08 AM16,3 ºC100,0 %952 hPa0,00 l/m2 67,5º ENE 0,0 km/h0,6 km/h2.9 Lux
Tue 09, 08:13 AM16,3 ºC100,0 %953 hPa0,00 l/m2 0º N 0,5 km/h4,3 km/h3.6 Lux
Tue 09, 08:18 AM16,4 ºC100,0 %953 hPa0,00 l/m2 45º NE 0,0 km/h0,6 km/h5.2 Lux
Tue 09, 08:23 AM16,1 ºC100,0 %953 hPa0,00 l/m2 45º NE 2,1 km/h8,7 km/h7.7 Lux
Tue 09, 08:28 AM16,7 ºC100,0 %953 hPa0,00 l/m2 0º N 0,0 km/h0,0 km/h9.6 Lux
Tue 09, 08:33 AM17,0 ºC100,0 %953 hPa0,00 l/m2 45º NE 0,0 km/h0,0 km/h17.4 Lux
Tue 09, 08:38 AM16,8 ºC99,1 %953 hPa0,00 l/m2 45º NE 0,4 km/h5,2 km/h23.2 Lux
Tue 09, 08:43 AM16,3 ºC100,0 %953 hPa0,00 l/m2 0º N 0,0 km/h0,0 km/h26.9 Lux
Tue 09, 08:48 AM16,5 ºC100,0 %953 hPa0,00 l/m2 0º N 0,0 km/h0,3 km/h36.1 Lux
Tue 09, 08:53 AM17,3 ºC100,0 %953 hPa0,00 l/m2 45º NE 0,1 km/h1,2 km/h60.8 Lux
Tue 09, 08:58 AM17,9 ºC99,4 %953 hPa0,00 l/m2 67,5º ENE 0,1 km/h2,0 km/h131.7 Lux
Tue 09, 09:03 AM18,2 ºC97,3 %953 hPa0,00 l/m2 225º SO 0,4 km/h2,9 km/h115.2 Lux
Tue 09, 09:08 AM18,4 ºC95,9 %953 hPa0,00 l/m2 0º N 0,0 km/h0,3 km/h104.1 Lux
Tue 09, 09:13 AM18,3 ºC95,3 %953 hPa0,00 l/m2 0º N 0,0 km/h0,0 km/h124.7 Lux
Tue 09, 09:18 AM18,3 ºC95,7 %953 hPa0,00 l/m2 337,5º NNO 0,8 km/h6,1 km/h147.5 Lux
Tue 09, 09:23 AM18,0 ºC97,5 %953 hPa0,00 l/m2 67,5º ENE 0,0 km/h0,0 km/h129.9 Lux
Tue 09, 09:28 AM17,7 ºC97,7 %953 hPa0,00 l/m2 0º N 0,0 km/h0,0 km/h243.8 Lux
Tue 09, 09:33 AM17,0 ºC97,5 %953 hPa0,00 l/m2 0º N 0,0 km/h0,0 km/h154.2 Lux
Tue 09, 09:38 AM17,1 ºC97,3 %953 hPa0,00 l/m2 67,5º ENE 0,0 km/h0,3 km/h143.3 Lux
Tue 09, 09:43 AM17,3 ºC98,7 %953 hPa0,00 l/m2 337,5º NNO 1,1 km/h6,4 km/h198 Lux
Tue 09, 09:48 AM18,3 ºC94,4 %953 hPa0,00 l/m2 337,5º NNO 5,1 km/h16,5 km/h204.7 Lux
Tue 09, 09:53 AM18,9 ºC90,2 %953 hPa0,00 l/m2 0º N 5,4 km/h12,7 km/h219.2 Lux
Tue 09, 09:58 AM19,0 ºC89,2 %953 hPa0,00 l/m2 90º E 4,0 km/h9,5 km/h243.8 Lux
Tue 09, 10:03 AM19,0 ºC88,4 %953 hPa0,00 l/m2 337,5º NNO 0,8 km/h2,6 km/h370.5 Lux
Tue 09, 10:08 AM19,1 ºC88,7 %953 hPa0,00 l/m2 337,5º NNO 1,7 km/h5,8 km/h354.8 Lux
Tue 09, 10:13 AM19,2 ºC87,7 %953 hPa0,00 l/m2 315º NO 4,2 km/h10,4 km/h478.2 Lux
Tue 09, 10:18 AM19,2 ºC88,5 %953 hPa0,00 l/m2 315º NO 3,9 km/h12,7 km/h277.9 Lux
Tue 09, 10:23 AM19,1 ºC88,8 %953 hPa0,00 l/m2 67,5º ENE 4,3 km/h9,3 km/h1050.3 Lux
Tue 09, 10:28 AM20,0 ºC84,6 %953 hPa0,00 l/m2 337,5º NNO 5,0 km/h10,1 km/h1415.6 Lux
Tue 09, 10:33 AM20,4 ºC80,4 %953 hPa0,00 l/m2 0º N 4,2 km/h9,8 km/h1744.7 Lux
Tue 09, 10:38 AM20,4 ºC78,5 %953 hPa0,00 l/m2 315º NO 6,2 km/h11,6 km/h1744.7 Lux
Tue 09, 10:43 AM20,4 ºC77,8 %953 hPa0,00 l/m2 67,5º ENE 7,7 km/h22,0 km/h1823.7 Lux
Tue 09, 10:48 AM20,4 ºC76,7 %953 hPa0,00 l/m2 225º SO 5,7 km/h13,6 km/h1908 Lux
Tue 09, 10:53 AM21,1 ºC72,5 %953 hPa0,00 l/m2 202,5º SSO 8,5 km/h17,1 km/h1744.7 Lux
Tue 09, 10:58 AM20,5 ºC74,6 %953 hPa0,00 l/m2 0º N 5,1 km/h11,0 km/h1908 Lux
Tue 09, 11:03 AM21,1 ºC71,8 %953 hPa0,00 l/m2 337,5º NNO 3,9 km/h10,4 km/h1998 Lux
Tue 09, 11:13 AM20,6 ºC74,1 %953 hPa0,00 l/m2 337,5º NNO 7,6 km/h17,9 km/h2197.4 Lux
Tue 09, 11:18 AM20,7 ºC73,8 %953 hPa0,00 l/m2 337,5º NNO 7,9 km/h14,4 km/h2308 Lux
Tue 09, 11:28 AM21,2 ºC71,2 %953 hPa0,00 l/m2 135º SE 9,6 km/h15,6 km/h2308 Lux
Tue 09, 11:38 AM21,2 ºC71,5 %953 hPa0,00 l/m2 225º SO 5,4 km/h10,7 km/h2308 Lux
Tue 09, 11:48 AM21,2 ºC71,4 %953 hPa0,00 l/m2 315º NO 10,2 km/h15,6 km/h2554.9 Lux
Tue 09, 12:08 PM21,9 ºC66,7 %953 hPa0,00 l/m2 337,5º NNO 8,4 km/h13,9 km/h3575 Lux
Tue 09, 12:13 PM22,3 ºC64,7 %953 hPa0,00 l/m2 337,5º NNO 3,1 km/h11,0 km/h3575 Lux
Tue 09, 12:18 PM22,9 ºC61,7 %953 hPa0,00 l/m2 45º NE 2,3 km/h9,8 km/h656 Lux
Tue 09, 12:23 PM23,0 ºC61,4 %953 hPa0,00 l/m2 135º SE 5,1 km/h10,4 km/h782.6 Lux
Tue 09, 12:28 PM21,6 ºC68,3 %953 hPa0,00 l/m2 315º NO 4,1 km/h8,7 km/h2554.9 Lux
Tue 09, 12:33 PM22,6 ºC64,3 %953 hPa0,00 l/m2 315º NO 2,2 km/h6,4 km/h1998 Lux
Tue 09, 12:38 PM23,6 ºC59,3 %953 hPa0,00 l/m2 337,5º NNO 6,4 km/h19,1 km/h3178.1 Lux
Tue 09, 12:48 PM22,3 ºC64,4 %953 hPa0,00 l/m2 45º NE 7,0 km/h15,3 km/h2841.9 Lux
Tue 09, 12:53 PM22,7 ºC62,6 %953 hPa0,00 l/m2 315º NO 4,7 km/h12,7 km/h3178.1 Lux
Tue 09, 12:58 PM22,3 ºC63,4 %953 hPa0,00 l/m2 247,5º OSO 4,8 km/h9,3 km/h3003.2 Lux
Tue 09, 01:03 PM23,3 ºC60,2 %953 hPa0,00 l/m2 225º SO 1,9 km/h5,5 km/h3003.2 Lux
Tue 09, 01:13 PM23,3 ºC61,2 %953 hPa0,00 l/m2 45º NE 2,3 km/h8,7 km/h3178.1 Lux
Tue 09, 01:18 PM24,1 ºC57,4 %953 hPa0,00 l/m2 247,5º OSO 4,9 km/h10,7 km/h3178.1 Lux
Tue 09, 01:23 PM23,6 ºC58,2 %953 hPa0,00 l/m2 337,5º NNO 10,0 km/h16,2 km/h3003.2 Lux
Tue 09, 01:28 PM23,2 ºC60,5 %953 hPa0,00 l/m2 337,5º NNO 5,2 km/h11,8 km/h3178.1 Lux
Tue 09, 01:33 PM23,7 ºC58,4 %953 hPa0,00 l/m2 0º N 5,8 km/h9,0 km/h3003.2 Lux
Tue 09, 01:38 PM23,8 ºC57,6 %953 hPa0,00 l/m2 45º NE 7,6 km/h12,1 km/h3178.1 Lux
Tue 09, 01:43 PM23,4 ºC58,9 %953 hPa0,00 l/m2 247,5º OSO 8,1 km/h16,5 km/h3178.1 Lux
Tue 09, 01:48 PM24,2 ºC56,4 %953 hPa0,00 l/m2 247,5º OSO 9,5 km/h13,0 km/h3003.2 Lux
Tue 09, 01:53 PM23,5 ºC57,8 %952 hPa0,00 l/m2 337,5º NNO 7,7 km/h11,6 km/h3178.1 Lux
Tue 09, 01:58 PM24,0 ºC56,5 %952 hPa0,00 l/m2 315º NO 7,4 km/h11,3 km/h3178.1 Lux
Tue 09, 02:03 PM23,7 ºC57,3 %952 hPa0,00 l/m2 315º NO 7,9 km/h13,3 km/h3178.1 Lux
Tue 09, 02:08 PM23,9 ºC56,5 %952 hPa0,00 l/m2 337,5º NNO 8,0 km/h16,2 km/h3575 Lux
Tue 09, 02:13 PM24,3 ºC56,2 %952 hPa0,00 l/m2 337,5º NNO 8,7 km/h15,9 km/h3178.1 Lux
Tue 09, 02:18 PM23,7 ºC58,3 %952 hPa0,00 l/m2 225º SO 8,1 km/h13,6 km/h3178.1 Lux
Tue 09, 02:23 PM23,4 ºC59,5 %952 hPa0,00 l/m2 225º SO 7,8 km/h13,3 km/h3178.1 Lux
Tue 09, 02:28 PM23,8 ºC57,5 %952 hPa0,00 l/m2 225º SO 9,5 km/h15,6 km/h3178.1 Lux
Tue 09, 02:33 PM23,9 ºC56,5 %952 hPa0,00 l/m2 315º NO 8,6 km/h17,9 km/h3003.2 Lux
Tue 09, 02:38 PM24,4 ºC54,9 %952 hPa0,00 l/m2 337,5º NNO 10,0 km/h26,6 km/h3003.2 Lux
Tue 09, 02:43 PM24,1 ºC56,1 %952 hPa0,00 l/m2 247,5º OSO 10,9 km/h17,1 km/h3003.2 Lux
Tue 09, 02:48 PM24,0 ºC56,4 %952 hPa0,00 l/m2 337,5º NNO 10,8 km/h22,2 km/h3003.2 Lux
Tue 09, 02:53 PM23,8 ºC57,5 %952 hPa0,00 l/m2 337,5º NNO 11,0 km/h18,5 km/h3003.2 Lux
Tue 09, 02:58 PM23,4 ºC60,0 %951 hPa0,00 l/m2 225º SO 12,2 km/h24,3 km/h2692.9 Lux
Tue 09, 03:03 PM23,0 ºC62,2 %951 hPa0,00 l/m2 337,5º NNO 11,2 km/h16,5 km/h3003.2 Lux
Tue 09, 03:08 PM23,2 ºC60,3 %951 hPa0,00 l/m2 0º N 9,0 km/h14,7 km/h2841.9 Lux
Tue 09, 03:13 PM23,5 ºC59,6 %951 hPa0,00 l/m2 225º SO 11,4 km/h16,8 km/h2692.9 Lux
Tue 09, 03:18 PM22,7 ºC63,2 %951 hPa0,00 l/m2 202,5º SSO 14,5 km/h24,6 km/h2692.9 Lux
Tue 09, 03:23 PM21,9 ºC66,0 %951 hPa0,00 l/m2 67,5º ENE 9,4 km/h15,9 km/h2554.9 Lux
Tue 09, 03:28 PM23,3 ºC59,8 %951 hPa0,00 l/m2 225º SO 8,4 km/h14,1 km/h2692.9 Lux
Tue 09, 03:33 PM24,1 ºC56,0 %951 hPa0,00 l/m2 157,5º SSE 8,4 km/h14,7 km/h2426.9 Lux
Tue 09, 03:38 PM23,6 ºC57,4 %951 hPa0,00 l/m2 337,5º NNO 7,5 km/h13,3 km/h2426.9 Lux
Tue 09, 03:43 PM24,4 ºC55,0 %951 hPa0,00 l/m2 337,5º NNO 9,3 km/h15,6 km/h2308 Lux
Tue 09, 03:48 PM24,0 ºC55,8 %951 hPa0,00 l/m2 247,5º OSO 5,8 km/h16,8 km/h490.1 Lux
Tue 09, 03:53 PM23,9 ºC55,6 %951 hPa0,00 l/m2 202,5º SSO 14,0 km/h22,0 km/h444.7 Lux
Tue 09, 03:58 PM21,6 ºC64,8 %951 hPa0,00 l/m2 337,5º NNO 7,4 km/h13,3 km/h1744.7 Lux
Tue 09, 04:03 PM22,1 ºC63,7 %951 hPa0,00 l/m2 337,5º NNO 8,5 km/h12,1 km/h2841.9 Lux
Tue 09, 04:08 PM23,6 ºC59,4 %951 hPa0,00 l/m2 337,5º NNO 6,5 km/h11,6 km/h2426.9 Lux
Tue 09, 04:13 PM24,8 ºC55,8 %951 hPa0,00 l/m2 0º N 10,4 km/h17,1 km/h2094.2 Lux
Tue 09, 04:18 PM23,9 ºC58,3 %951 hPa0,00 l/m2 337,5º NNO 8,7 km/h21,7 km/h2094.2 Lux
Tue 09, 04:23 PM23,9 ºC58,1 %951 hPa0,00 l/m2 247,5º OSO 9,9 km/h15,6 km/h1998 Lux
Tue 09, 04:28 PM23,7 ºC58,9 %951 hPa0,00 l/m2 247,5º OSO 8,2 km/h14,1 km/h1823.7 Lux
Tue 09, 04:33 PM23,9 ºC58,4 %951 hPa0,00 l/m2 315º NO 7,6 km/h19,4 km/h1670.6 Lux
Tue 09, 04:38 PM24,3 ºC57,3 %951 hPa0,00 l/m2 315º NO 8,6 km/h15,0 km/h859.6 Lux
Tue 09, 04:43 PM23,6 ºC59,0 %951 hPa0,00 l/m2 337,5º NNO 9,1 km/h13,9 km/h1535.5 Lux
Tue 09, 04:48 PM23,5 ºC59,5 %951 hPa0,00 l/m2 202,5º SSO 11,3 km/h25,7 km/h1415.6 Lux
Tue 09, 04:53 PM23,6 ºC58,3 %951 hPa0,00 l/m2 315º NO 11,0 km/h30,3 km/h1473.8 Lux
Tue 09, 04:58 PM23,6 ºC58,5 %951 hPa0,00 l/m2 225º SO 13,3 km/h33,2 km/h1308.8 Lux
Tue 09, 05:03 PM22,8 ºC62,1 %951 hPa0,00 l/m2 315º NO 17,2 km/h38,7 km/h1014.5 Lux
Tue 09, 05:08 PM22,6 ºC63,1 %951 hPa0,00 l/m2 225º SO 14,0 km/h24,0 km/h1169.2 Lux
Tue 09, 05:13 PM22,5 ºC62,7 %951 hPa0,00 l/m2 225º SO 10,0 km/h27,2 km/h948 Lux
Tue 09, 05:18 PM22,7 ºC62,4 %951 hPa0,00 l/m2 337,5º NNO 10,1 km/h16,8 km/h1014.5 Lux
Tue 09, 05:23 PM22,9 ºC61,4 %951 hPa0,00 l/m2 315º NO 10,2 km/h18,5 km/h1014.5 Lux
Tue 09, 05:28 PM22,5 ºC64,0 %951 hPa0,00 l/m2 225º SO 10,4 km/h24,8 km/h980.4 Lux
Tue 09, 05:33 PM22,4 ºC64,2 %951 hPa0,00 l/m2 225º SO 9,3 km/h15,6 km/h832.8 Lux
Tue 09, 05:38 PM22,5 ºC63,9 %951 hPa0,00 l/m2 45º NE 11,0 km/h28,3 km/h340 Lux
Tue 09, 05:43 PM22,1 ºC65,7 %951 hPa0,00 l/m2 225º SO 19,8 km/h43,3 km/h231 Lux
Tue 09, 05:48 PM21,2 ºC69,4 %951 hPa0,00 l/m2 247,5º OSO 13,9 km/h19,7 km/h204.7 Lux
Tue 09, 05:53 PM20,9 ºC70,4 %951 hPa0,00 l/m2 202,5º SSO 11,1 km/h19,4 km/h223 Lux
Tue 09, 06:13 PM20,8 ºC69,8 %951 hPa0,00 l/m2 225º SO 14,5 km/h26,9 km/h759.2 Lux
Tue 09, 06:18 PM20,9 ºC68,7 %951 hPa0,00 l/m2 337,5º NNO 11,6 km/h24,6 km/h455.5 Lux
Tue 09, 06:23 PM21,3 ºC67,5 %951 hPa0,00 l/m2 225º SO 9,6 km/h17,1 km/h239.4 Lux
Tue 09, 06:28 PM21,0 ºC69,8 %951 hPa0,00 l/m2 225º SO 11,8 km/h26,0 km/h68.5 Lux
Tue 09, 06:38 PM20,7 ºC71,7 %951 hPa0,00 l/m2 225º SO 9,2 km/h21,1 km/h39.4 Lux
Tue 09, 07:43 PM20,2 ºC73,9 %951 hPa0,00 l/m2 202,5º SSO 16,3 km/h31,2 km/h4.6 Lux
Tue 09, 07:48 PM20,1 ºC73,4 %951 hPa0,00 l/m2 225º SO 11,6 km/h16,2 km/h3.6 Lux
Tue 09, 08:08 PM19,9 ºC76,2 %951 hPa0,00 l/m2 225º SO 3,5 km/h9,8 km/h2.3 Lux
Tue 09, 08:23 PM20,1 ºC73,9 %951 hPa0,00 l/m2 67,5º ENE 9,3 km/h17,9 km/h2.3 Lux
Tue 09, 08:38 PM19,7 ºC79,6 %951 hPa0,00 l/m2 337,5º NNO 7,3 km/h12,7 km/h2.3 Lux
Tue 09, 08:43 PM19,4 ºC84,6 %952 hPa0,00 l/m2 67,5º ENE 5,8 km/h13,6 km/h2.3 Lux
Tue 09, 08:48 PM19,1 ºC87,9 %952 hPa0,00 l/m2 90º E 4,5 km/h11,0 km/h2.2 Lux
Tue 09, 08:53 PM19,0 ºC89,3 %952 hPa0,00 l/m2 225º SO 4,1 km/h11,6 km/h2.3 Lux
Tue 09, 08:58 PM18,9 ºC90,6 %952 hPa0,00 l/m2 337,5º NNO 5,0 km/h9,3 km/h2.1 Lux
Tue 09, 09:03 PM18,9 ºC92,8 %952 hPa0,00 l/m2 0º N 3,2 km/h7,8 km/h2.3 Lux
Tue 09, 09:08 PM18,8 ºC93,0 %952 hPa0,00 l/m2 0º N 5,2 km/h9,8 km/h2.1 Lux
Tue 09, 09:13 PM18,7 ºC93,6 %952 hPa0,00 l/m2 45º NE 2,9 km/h6,9 km/h2.3 Lux
Tue 09, 09:18 PM18,5 ºC97,7 %952 hPa0,00 l/m2 45º NE 4,2 km/h13,0 km/h2.2 Lux
Tue 09, 09:23 PM18,4 ºC98,5 %952 hPa0,08 l/m2 315º NO 4,6 km/h13,9 km/h2.3 Lux
Tue 09, 09:28 PM18,4 ºC98,4 %952 hPa0,00 l/m2 337,5º NNO 1,8 km/h6,9 km/h2.4 Lux
Tue 09, 09:33 PM18,3 ºC99,8 %952 hPa0,00 l/m2 337,5º NNO 2,8 km/h8,1 km/h2.1 Lux
Tue 09, 09:38 PM18,3 ºC98,5 %952 hPa0,00 l/m2 337,5º NNO 4,5 km/h10,7 km/h2.4 Lux
Tue 09, 09:43 PM18,4 ºC98,0 %952 hPa0,00 l/m2 315º NO 2,0 km/h6,7 km/h2.3 Lux
Tue 09, 09:48 PM18,4 ºC100,0 %952 hPa0,08 l/m2 337,5º NNO 2,6 km/h7,5 km/h2.3 Lux
Tue 09, 09:53 PM18,3 ºC97,6 %952 hPa0,00 l/m2 337,5º NNO 5,2 km/h11,0 km/h2.3 Lux
Tue 09, 09:58 PM18,5 ºC96,0 %952 hPa0,00 l/m2 202,5º SSO 5,3 km/h9,0 km/h2.1 Lux
Tue 09, 10:03 PM18,4 ºC95,9 %952 hPa0,00 l/m2 337,5º NNO 1,4 km/h4,6 km/h2.2 Lux
Tue 09, 10:08 PM18,4 ºC94,7 %952 hPa0,00 l/m2 337,5º NNO 3,0 km/h7,5 km/h2.2 Lux
Tue 09, 10:13 PM18,6 ºC94,1 %952 hPa0,00 l/m2 337,5º NNO 1,1 km/h5,8 km/h2.2 Lux
Tue 09, 10:18 PM18,4 ºC96,6 %952 hPa0,00 l/m2 225º SO 2,0 km/h6,4 km/h2.2 Lux
Tue 09, 10:23 PM18,4 ºC95,2 %952 hPa0,00 l/m2 337,5º NNO 4,7 km/h10,4 km/h2.2 Lux
Tue 09, 10:28 PM18,5 ºC95,6 %952 hPa0,00 l/m2 45º NE 2,1 km/h8,1 km/h2.2 Lux
Tue 09, 10:33 PM18,4 ºC95,4 %952 hPa0,00 l/m2 0º N 1,6 km/h4,9 km/h2.3 Lux
Tue 09, 10:38 PM18,5 ºC93,4 %952 hPa0,00 l/m2 337,5º NNO 6,3 km/h20,2 km/h2.3 Lux
Tue 09, 10:43 PM19,0 ºC90,2 %952 hPa0,00 l/m2 337,5º NNO 5,2 km/h9,8 km/h2.4 Lux
Tue 09, 10:48 PM18,9 ºC91,1 %952 hPa0,00 l/m2 45º NE 6,0 km/h13,9 km/h2.3 Lux
Tue 09, 10:53 PM18,8 ºC94,1 %952 hPa0,00 l/m2 337,5º NNO 8,4 km/h30,1 km/h2.3 Lux
Tue 09, 10:58 PM18,5 ºC94,4 %952 hPa0,00 l/m2 202,5º SSO 6,1 km/h14,1 km/h2.2 Lux
Tue 09, 11:03 PM18,4 ºC94,2 %952 hPa0,00 l/m2 225º SO 3,9 km/h7,8 km/h2.1 Lux
Tue 09, 11:08 PM18,4 ºC94,2 %952 hPa0,00 l/m2 225º SO 7,4 km/h15,6 km/h2.3 Lux
Tue 09, 11:13 PM18,4 ºC94,4 %952 hPa0,00 l/m2 0º N 7,8 km/h14,7 km/h2.4 Lux
Tue 09, 11:18 PM18,2 ºC94,5 %952 hPa0,00 l/m2 337,5º NNO 9,3 km/h14,4 km/h2.2 Lux
Tue 09, 11:23 PM18,1 ºC95,6 %952 hPa0,00 l/m2 0º N 6,4 km/h11,6 km/h2.1 Lux
Tue 09, 11:28 PM18,1 ºC95,7 %952 hPa0,00 l/m2 45º NE 6,8 km/h12,1 km/h2.2 Lux
Tue 09, 11:33 PM18,2 ºC95,4 %952 hPa0,00 l/m2 0º N 7,0 km/h15,0 km/h2.3 Lux
Tue 09, 11:38 PM18,2 ºC95,8 %952 hPa0,00 l/m2 0º N 5,8 km/h12,1 km/h2.1 Lux
Tue 09, 11:43 PM18,0 ºC95,3 %952 hPa0,00 l/m2 225º SO 3,9 km/h9,3 km/h2.3 Lux
Tue 09, 11:48 PM18,1 ºC94,2 %952 hPa0,00 l/m2 45º NE 6,7 km/h14,1 km/h2.3 Lux
Tue 09, 11:53 PM18,3 ºC92,9 %952 hPa0,00 l/m2 225º SO 5,9 km/h15,6 km/h2.2 Lux
Tue 09, 11:58 PM18,3 ºC92,3 %952 hPa0,00 l/m2 157,5º SSE 4,7 km/h8,1 km/h2.1 Lux
Wed 10, 12:03 AM18,1 ºC93,8 %952 hPa0,00 l/m2 225º SO 6,9 km/h18,2 km/h2.2 Lux
Wed 10, 12:08 AM18,0 ºC94,4 %952 hPa0,00 l/m2 337,5º NNO 7,8 km/h12,4 km/h2.3 Lux
Wed 10, 12:13 AM18,0 ºC92,4 %952 hPa0,00 l/m2 337,5º NNO 9,0 km/h15,9 km/h2.3 Lux
Wed 10, 12:18 AM18,0 ºC93,3 %952 hPa0,00 l/m2 90º E 4,5 km/h11,6 km/h2.3 Lux
Wed 10, 12:23 AM17,9 ºC94,2 %952 hPa0,00 l/m2 337,5º NNO 6,8 km/h19,4 km/h2.3 Lux
Wed 10, 12:28 AM18,1 ºC93,9 %952 hPa0,00 l/m2 337,5º NNO 8,9 km/h22,2 km/h2.4 Lux
Wed 10, 12:33 AM18,2 ºC92,3 %951 hPa0,00 l/m2 337,5º NNO 8,9 km/h18,5 km/h2.3 Lux
Wed 10, 12:38 AM18,0 ºC94,4 %952 hPa0,00 l/m2 0º N 8,9 km/h14,7 km/h2.3 Lux
Wed 10, 12:43 AM18,1 ºC94,7 %952 hPa0,00 l/m2 225º SO 8,6 km/h24,3 km/h2.1 Lux
Wed 10, 12:48 AM18,0 ºC94,4 %952 hPa0,00 l/m2 225º SO 9,3 km/h23,1 km/h2.3 Lux
Wed 10, 12:53 AM17,9 ºC94,6 %952 hPa0,00 l/m2 135º SE 12,2 km/h36,4 km/h2.2 Lux
Wed 10, 12:58 AM18,0 ºC93,3 %951 hPa0,00 l/m2 67,5º ENE 11,8 km/h27,5 km/h2.3 Lux
Wed 10, 01:03 AM18,1 ºC90,1 %952 hPa0,00 l/m2 0º N 4,9 km/h12,7 km/h2.1 Lux
Wed 10, 01:08 AM18,0 ºC90,9 %951 hPa0,00 l/m2 0º N 8,1 km/h13,9 km/h2.3 Lux
Wed 10, 01:13 AM18,1 ºC89,2 %951 hPa0,00 l/m2 225º SO 9,8 km/h16,5 km/h2.2 Lux
Wed 10, 01:18 AM18,0 ºC89,6 %951 hPa0,00 l/m2 337,5º NNO 12,0 km/h19,9 km/h2.2 Lux
Wed 10, 01:23 AM17,9 ºC89,8 %951 hPa0,00 l/m2 67,5º ENE 9,9 km/h21,4 km/h2.3 Lux
Wed 10, 01:28 AM17,9 ºC88,4 %951 hPa0,00 l/m2 45º NE 8,9 km/h12,7 km/h2.3 Lux
Wed 10, 01:33 AM18,0 ºC87,7 %951 hPa0,00 l/m2 67,5º ENE 9,3 km/h21,4 km/h2.3 Lux
Wed 10, 01:38 AM18,0 ºC87,8 %951 hPa0,00 l/m2 315º NO 13,2 km/h26,6 km/h2.2 Lux
Wed 10, 01:43 AM18,1 ºC87,4 %951 hPa0,00 l/m2 337,5º NNO 10,6 km/h17,9 km/h2.3 Lux
Wed 10, 01:48 AM18,1 ºC87,6 %951 hPa0,00 l/m2 337,5º NNO 11,2 km/h29,2 km/h2.2 Lux
Wed 10, 01:53 AM18,1 ºC88,0 %951 hPa0,00 l/m2 45º NE 7,6 km/h15,3 km/h2.2 Lux
Wed 10, 01:58 AM18,0 ºC88,1 %951 hPa0,00 l/m2 337,5º NNO 9,1 km/h19,4 km/h2.2 Lux
Wed 10, 02:03 AM18,3 ºC85,9 %951 hPa0,00 l/m2 225º SO 6,1 km/h14,7 km/h2.1 Lux
Wed 10, 02:08 AM18,3 ºC85,6 %951 hPa0,00 l/m2 337,5º NNO 7,3 km/h15,3 km/h2.2 Lux
Wed 10, 02:13 AM18,3 ºC85,7 %951 hPa0,00 l/m2 247,5º OSO 5,6 km/h13,0 km/h2.3 Lux
Wed 10, 02:18 AM18,4 ºC85,6 %951 hPa0,00 l/m2 0º N 2,4 km/h5,8 km/h2.3 Lux
Wed 10, 02:23 AM18,3 ºC84,9 %951 hPa0,00 l/m2 0º N 5,4 km/h14,7 km/h2.3 Lux
Wed 10, 02:28 AM18,3 ºC86,1 %951 hPa0,00 l/m2 225º SO 2,5 km/h9,8 km/h2.1 Lux
Wed 10, 02:33 AM18,2 ºC87,6 %951 hPa0,00 l/m2 337,5º NNO 6,6 km/h10,4 km/h2.2 Lux
Wed 10, 02:38 AM18,1 ºC89,1 %951 hPa0,00 l/m2 337,5º NNO 10,1 km/h18,2 km/h2.3 Lux
Wed 10, 02:43 AM18,0 ºC89,7 %951 hPa0,00 l/m2 225º SO 8,4 km/h17,4 km/h2.3 Lux
Wed 10, 02:48 AM18,0 ºC90,7 %951 hPa0,00 l/m2 337,5º NNO 6,6 km/h12,7 km/h2.3 Lux
Wed 10, 02:53 AM17,8 ºC92,6 %951 hPa0,00 l/m2 45º NE 6,5 km/h13,0 km/h2.1 Lux
Wed 10, 02:58 AM17,8 ºC92,4 %951 hPa0,00 l/m2 337,5º NNO 5,7 km/h11,0 km/h2.1 Lux
Wed 10, 03:03 AM17,7 ºC91,0 %951 hPa0,00 l/m2 225º SO 4,0 km/h7,2 km/h2.3 Lux
Wed 10, 03:08 AM17,8 ºC90,0 %951 hPa0,00 l/m2 247,5º OSO 2,6 km/h11,0 km/h2.4 Lux
Wed 10, 03:13 AM18,0 ºC88,5 %951 hPa0,00 l/m2 67,5º ENE 3,5 km/h9,8 km/h2.2 Lux
Wed 10, 03:18 AM18,1 ºC88,2 %951 hPa0,00 l/m2 315º NO 2,7 km/h8,7 km/h2.4 Lux
Wed 10, 03:23 AM18,0 ºC89,3 %951 hPa0,00 l/m2 0º N 3,2 km/h9,0 km/h2.2 Lux
Wed 10, 03:28 AM17,8 ºC90,8 %951 hPa0,00 l/m2 225º SO 7,1 km/h19,4 km/h2.3 Lux
Wed 10, 03:33 AM17,7 ºC92,9 %951 hPa0,00 l/m2 202,5º SSO 4,6 km/h23,4 km/h2.3 Lux
Wed 10, 03:38 AM17,6 ºC93,7 %951 hPa0,00 l/m2 45º NE 2,0 km/h12,1 km/h2.3 Lux
Wed 10, 03:43 AM17,5 ºC95,1 %951 hPa0,00 l/m2 45º NE 3,1 km/h14,7 km/h2.3 Lux
Wed 10, 03:48 AM17,4 ºC94,9 %950 hPa0,00 l/m2 337,5º NNO 0,9 km/h4,6 km/h2.4 Lux
Wed 10, 03:53 AM17,5 ºC95,1 %951 hPa0,00 l/m2 0º N 1,8 km/h7,2 km/h2.3 Lux
Wed 10, 03:58 AM17,6 ºC92,8 %951 hPa0,00 l/m2 337,5º NNO 3,4 km/h8,7 km/h2.2 Lux
Wed 10, 04:03 AM18,1 ºC90,0 %951 hPa0,00 l/m2 45º NE 1,7 km/h9,0 km/h2.4 Lux
Wed 10, 04:08 AM18,1 ºC91,2 %951 hPa0,00 l/m2 45º NE 0,3 km/h2,9 km/h2.1 Lux
Wed 10, 04:13 AM17,9 ºC91,3 %951 hPa0,00 l/m2 135º SE 1,3 km/h13,9 km/h2.3 Lux
Wed 10, 04:18 AM18,3 ºC86,4 %951 hPa0,00 l/m2 45º NE 1,6 km/h6,4 km/h2.3 Lux
Wed 10, 04:23 AM18,2 ºC88,2 %951 hPa0,00 l/m2 45º NE 1,3 km/h4,6 km/h2.2 Lux
Wed 10, 04:28 AM18,3 ºC86,9 %951 hPa0,00 l/m2 45º NE 1,2 km/h11,3 km/h2.2 Lux
Wed 10, 04:33 AM18,2 ºC87,5 %951 hPa0,00 l/m2 337,5º NNO 4,1 km/h16,5 km/h2.2 Lux
Wed 10, 04:38 AM18,2 ºC85,6 %951 hPa0,00 l/m2 67,5º ENE 5,4 km/h13,6 km/h2.1 Lux
Wed 10, 04:43 AM18,3 ºC85,5 %951 hPa0,00 l/m2 315º NO 1,2 km/h9,8 km/h2.2 Lux
Wed 10, 04:48 AM18,2 ºC85,8 %951 hPa0,00 l/m2 337,5º NNO 5,6 km/h15,0 km/h2.2 Lux
Wed 10, 04:53 AM18,0 ºC86,3 %950 hPa0,00 l/m2 45º NE 3,5 km/h12,4 km/h2.2 Lux
Wed 10, 04:58 AM18,1 ºC85,8 %950 hPa0,00 l/m2 90º E 2,3 km/h9,3 km/h2.2 Lux
Wed 10, 05:03 AM18,0 ºC86,3 %950 hPa0,00 l/m2 45º NE 0,7 km/h3,5 km/h2.3 Lux
Wed 10, 05:08 AM17,9 ºC87,7 %950 hPa0,00 l/m2 337,5º NNO 4,3 km/h15,0 km/h2.3 Lux
Wed 10, 05:13 AM17,8 ºC88,5 %950 hPa0,00 l/m2 337,5º NNO 0,7 km/h4,0 km/h2.3 Lux
Wed 10, 05:18 AM17,8 ºC88,4 %950 hPa0,00 l/m2 67,5º ENE 1,3 km/h12,7 km/h2.2 Lux
Wed 10, 05:23 AM17,9 ºC88,1 %950 hPa0,00 l/m2 0º N 0,1 km/h1,4 km/h2.2 Lux
Wed 10, 05:28 AM17,9 ºC88,0 %950 hPa0,00 l/m2 67,5º ENE 1,0 km/h3,2 km/h2.2 Lux
Wed 10, 05:33 AM17,7 ºC89,6 %950 hPa0,00 l/m2 90º E 2,6 km/h6,9 km/h2.1 Lux
Wed 10, 05:38 AM17,8 ºC88,8 %950 hPa0,00 l/m2 67,5º ENE 1,0 km/h4,6 km/h2.2 Lux
Wed 10, 05:43 AM18,0 ºC87,0 %950 hPa0,00 l/m2 0º N 0,6 km/h3,7 km/h2.2 Lux
Wed 10, 05:48 AM18,0 ºC87,3 %950 hPa0,00 l/m2 135º SE 2,2 km/h8,1 km/h2.3 Lux
Wed 10, 05:53 AM18,2 ºC85,9 %950 hPa0,00 l/m2 0º N 1,6 km/h9,8 km/h2.3 Lux
Wed 10, 05:58 AM18,2 ºC85,1 %950 hPa0,00 l/m2 0º N 1,7 km/h5,5 km/h2.2 Lux
Wed 10, 06:03 AM18,1 ºC86,1 %950 hPa0,00 l/m2 45º NE 1,2 km/h4,3 km/h2.1 Lux
Wed 10, 06:08 AM18,1 ºC85,4 %950 hPa0,00 l/m2 0º N 5,0 km/h27,2 km/h2.1 Lux
Wed 10, 06:13 AM18,4 ºC83,6 %951 hPa0,00 l/m2 45º NE 0,8 km/h4,6 km/h2.3 Lux
Wed 10, 06:18 AM18,2 ºC84,5 %951 hPa0,00 l/m2 45º NE 0,8 km/h4,6 km/h2.3 Lux
Wed 10, 06:23 AM18,3 ºC84,8 %951 hPa0,00 l/m2 247,5º OSO 3,9 km/h9,0 km/h2.2 Lux
Wed 10, 06:28 AM18,5 ºC82,6 %951 hPa0,00 l/m2 337,5º NNO 1,5 km/h9,0 km/h2.2 Lux
Wed 10, 06:33 AM18,5 ºC82,7 %951 hPa0,00 l/m2 225º SO 2,0 km/h6,9 km/h2.2 Lux
Wed 10, 06:38 AM18,2 ºC84,9 %950 hPa0,00 l/m2 67,5º ENE 5,1 km/h26,6 km/h2.2 Lux
Wed 10, 06:43 AM18,3 ºC83,4 %950 hPa0,00 l/m2 337,5º NNO 1,3 km/h4,9 km/h2.3 Lux
Wed 10, 06:48 AM18,3 ºC83,3 %950 hPa0,00 l/m2 67,5º ENE 2,6 km/h8,7 km/h2.2 Lux
Wed 10, 06:53 AM18,3 ºC83,0 %951 hPa0,00 l/m2 225º SO 1,9 km/h6,4 km/h2.3 Lux
Wed 10, 06:58 AM18,0 ºC83,7 %951 hPa0,00 l/m2 337,5º NNO 1,5 km/h5,5 km/h2.3 Lux
Wed 10, 07:03 AM18,0 ºC83,4 %951 hPa0,00 l/m2 337,5º NNO 0,8 km/h4,3 km/h2.2 Lux
Wed 10, 07:08 AM17,9 ºC83,9 %951 hPa0,00 l/m2 45º NE 1,3 km/h12,7 km/h2.1 Lux
Wed 10, 07:13 AM17,9 ºC83,9 %951 hPa0,00 l/m2 337,5º NNO 0,3 km/h1,7 km/h2.1 Lux
Wed 10, 07:18 AM17,8 ºC85,0 %951 hPa0,00 l/m2 0º N 0,3 km/h1,2 km/h2.2 Lux
Wed 10, 07:23 AM17,8 ºC84,5 %950 hPa0,00 l/m2 225º SO 1,5 km/h5,8 km/h2.4 Lux
Wed 10, 07:28 AM17,8 ºC85,0 %950 hPa0,00 l/m2 225º SO 2,9 km/h6,4 km/h2.3 Lux
Wed 10, 07:33 AM18,0 ºC82,1 %951 hPa0,00 l/m2 45º NE 3,0 km/h7,5 km/h2.2 Lux
Wed 10, 07:38 AM18,1 ºC81,3 %951 hPa0,00 l/m2 225º SO 3,5 km/h6,4 km/h2.3 Lux
Wed 10, 07:43 AM18,1 ºC82,7 %951 hPa0,00 l/m2 157,5º SSE 3,9 km/h8,1 km/h2.3 Lux
Wed 10, 07:48 AM18,1 ºC82,9 %951 hPa0,00 l/m2 225º SO 3,1 km/h10,1 km/h2.3 Lux
Wed 10, 07:53 AM18,2 ºC81,8 %951 hPa0,00 l/m2 157,5º SSE 5,5 km/h13,3 km/h2.1 Lux
Wed 10, 07:58 AM18,2 ºC82,1 %951 hPa0,00 l/m2 225º SO 4,1 km/h9,5 km/h2.3 Lux
Wed 10, 08:03 AM18,1 ºC82,4 %951 hPa0,00 l/m2 337,5º NNO 2,3 km/h7,2 km/h2.3 Lux
Wed 10, 08:08 AM18,1 ºC83,2 %951 hPa0,00 l/m2 67,5º ENE 1,8 km/h11,8 km/h2.4 Lux
Wed 10, 08:13 AM18,0 ºC83,5 %951 hPa0,00 l/m2 45º NE 2,4 km/h6,4 km/h2.9 Lux
Wed 10, 08:18 AM17,9 ºC84,7 %951 hPa0,00 l/m2 337,5º NNO 2,1 km/h7,2 km/h3.7 Lux
Wed 10, 08:23 AM17,7 ºC85,5 %951 hPa0,00 l/m2 45º NE 1,1 km/h4,6 km/h5.1 Lux
Wed 10, 08:28 AM17,7 ºC85,8 %951 hPa0,00 l/m2 67,5º ENE 0,3 km/h2,0 km/h6.8 Lux
Wed 10, 08:33 AM17,7 ºC86,7 %951 hPa0,00 l/m2 45º NE 2,8 km/h11,0 km/h9.6 Lux
Wed 10, 08:38 AM17,6 ºC87,6 %951 hPa0,00 l/m2 45º NE 2,1 km/h11,0 km/h13.2 Lux
Wed 10, 08:43 AM17,5 ºC88,0 %951 hPa0,00 l/m2 67,5º ENE 1,4 km/h6,7 km/h15.9 Lux
Wed 10, 08:48 AM17,4 ºC89,3 %951 hPa0,00 l/m2 0º N 1,3 km/h5,2 km/h19.7 Lux
Wed 10, 08:53 AM17,2 ºC90,9 %951 hPa0,00 l/m2 247,5º OSO 3,3 km/h9,3 km/h25.5 Lux
Wed 10, 08:58 AM17,6 ºC89,8 %951 hPa0,00 l/m2 225º SO 1,9 km/h7,5 km/h34.5 Lux
Wed 10, 09:03 AM17,7 ºC89,8 %951 hPa0,00 l/m2 225º SO 1,6 km/h5,5 km/h37.6 Lux
Wed 10, 09:08 AM17,7 ºC90,0 %951 hPa0,00 l/m2 337,5º NNO 0,6 km/h2,9 km/h54.7 Lux
Wed 10, 09:13 AM17,7 ºC90,2 %951 hPa0,00 l/m2 337,5º NNO 1,1 km/h5,5 km/h73 Lux
Wed 10, 09:18 AM17,7 ºC90,4 %951 hPa0,00 l/m2 0º N 0,1 km/h0,6 km/h102.8 Lux
Wed 10, 09:23 AM17,8 ºC90,4 %951 hPa0,00 l/m2 337,5º NNO 0,2 km/h2,3 km/h88 Lux
Wed 10, 09:28 AM17,9 ºC90,5 %951 hPa0,00 l/m2 0º N 1,4 km/h6,9 km/h105.4 Lux
Wed 10, 09:33 AM17,9 ºC90,2 %951 hPa0,00 l/m2 225º SO 0,3 km/h2,9 km/h106.7 Lux
Wed 10, 09:38 AM18,0 ºC89,8 %951 hPa0,00 l/m2 0º N 1,0 km/h2,9 km/h106.7 Lux
Wed 10, 09:43 AM18,0 ºC89,6 %951 hPa0,00 l/m2 67,5º ENE 0,0 km/h0,6 km/h143.3 Lux
Wed 10, 09:48 AM17,8 ºC91,3 %951 hPa0,00 l/m2 0º N 0,0 km/h0,3 km/h243.8 Lux
Wed 10, 09:53 AM17,3 ºC93,1 %952 hPa0,00 l/m2 45º NE 0,0 km/h0,0 km/h201.3 Lux
Wed 10, 09:58 AM17,6 ºC91,7 %952 hPa0,00 l/m2 67,5º ENE 0,0 km/h0,0 km/h277.9 Lux
Wed 10, 10:03 AM17,7 ºC92,1 %952 hPa0,00 l/m2 67,5º ENE 0,0 km/h0,0 km/h204.7 Lux
Wed 10, 10:08 AM17,9 ºC91,7 %952 hPa0,00 l/m2 0º N 0,0 km/h0,0 km/h139.3 Lux
Wed 10, 10:13 AM17,8 ºC92,0 %952 hPa0,00 l/m2 0º N 0,0 km/h0,0 km/h267.5 Lux
Wed 10, 10:18 AM17,8 ºC92,7 %952 hPa0,00 l/m2 337,5º NNO 1,3 km/h6,7 km/h326.1 Lux
Wed 10, 10:23 AM17,7 ºC94,6 %952 hPa0,00 l/m2 337,5º NNO 0,7 km/h5,2 km/h571.9 Lux
Wed 10, 10:28 AM18,0 ºC94,0 %952 hPa0,00 l/m2 0º N 0,3 km/h2,9 km/h807.1 Lux
Wed 10, 10:33 AM18,1 ºC94,2 %952 hPa0,00 l/m2 45º NE 0,0 km/h0,0 km/h1601 Lux
Wed 10, 10:38 AM19,5 ºC86,7 %952 hPa0,00 l/m2 67,5º ENE 0,0 km/h0,0 km/h1360.7 Lux
Wed 10, 10:43 AM21,4 ºC76,4 %952 hPa0,00 l/m2 0º N 0,0 km/h0,0 km/h1050.3 Lux
Wed 10, 10:48 AM21,9 ºC72,8 %952 hPa0,00 l/m2 67,5º ENE 0,0 km/h0,0 km/h832.8 Lux
Wed 10, 10:53 AM21,4 ºC73,5 %952 hPa0,00 l/m2 67,5º ENE 0,0 km/h0,0 km/h1744.7 Lux
Wed 10, 10:58 AM22,2 ºC70,8 %952 hPa0,00 l/m2 337,5º NNO 0,2 km/h2,0 km/h2094.2 Lux
Wed 10, 11:03 AM21,2 ºC74,3 %952 hPa0,00 l/m2 67,5º ENE 5,5 km/h17,4 km/h603.5 Lux
Wed 10, 11:08 AM20,9 ºC74,6 %952 hPa0,00 l/m2 337,5º NNO 3,1 km/h7,2 km/h759.2 Lux
Wed 10, 11:13 AM20,5 ºC77,4 %952 hPa0,00 l/m2 337,5º NNO 2,5 km/h8,7 km/h656 Lux
Wed 10, 11:18 AM20,5 ºC76,8 %952 hPa0,00 l/m2 337,5º NNO 1,3 km/h4,3 km/h2308 Lux
Wed 10, 11:23 AM20,9 ºC76,9 %952 hPa0,00 l/m2 0º N 1,7 km/h7,5 km/h1087.9 Lux
Wed 10, 11:28 AM21,1 ºC73,9 %952 hPa0,00 l/m2 225º SO 1,8 km/h6,9 km/h2692.9 Lux
Wed 10, 11:33 AM22,2 ºC71,5 %952 hPa0,00 l/m2 337,5º NNO 2,8 km/h10,4 km/h2692.9 Lux
Wed 10, 11:38 AM23,1 ºC66,6 %952 hPa0,00 l/m2 45º NE 3,5 km/h13,9 km/h1670.6 Lux
Wed 10, 11:43 AM22,8 ºC67,0 %952 hPa0,00 l/m2 45º NE 3,0 km/h15,0 km/h759.2 Lux
Wed 10, 11:48 AM21,3 ºC72,2 %952 hPa0,00 l/m2 337,5º NNO 0,3 km/h1,2 km/h759.2 Lux
Wed 10, 11:53 AM21,9 ºC70,1 %952 hPa0,00 l/m2 45º NE 2,5 km/h13,9 km/h2841.9 Lux
Wed 10, 11:58 AM21,8 ºC72,1 %952 hPa0,00 l/m2 0º N 3,3 km/h9,3 km/h917.2 Lux
Wed 10, 12:03 PM21,3 ºC74,6 %952 hPa0,00 l/m2 337,5º NNO 3,5 km/h12,7 km/h1259.7 Lux
Wed 10, 12:08 PM21,9 ºC71,4 %952 hPa0,00 l/m2 45º NE 4,4 km/h9,8 km/h2426.9 Lux
Wed 10, 12:13 PM22,2 ºC71,1 %952 hPa0,00 l/m2 0º N 3,4 km/h9,3 km/h674.9 Lux
Wed 10, 12:18 PM21,8 ºC72,7 %952 hPa0,00 l/m2 45º NE 2,5 km/h6,7 km/h694.7 Lux
Wed 10, 12:23 PM21,2 ºC76,2 %952 hPa0,00 l/m2 45º NE 1,9 km/h5,8 km/h832.8 Lux
Wed 10, 12:28 PM20,9 ºC76,8 %952 hPa0,00 l/m2 0º N 0,9 km/h4,0 km/h1998 Lux
Wed 10, 12:33 PM21,4 ºC74,7 %952 hPa0,00 l/m2 90º E 4,2 km/h8,7 km/h832.8 Lux
Wed 10, 12:38 PM21,5 ºC74,2 %952 hPa0,00 l/m2 315º NO 2,0 km/h9,0 km/h674.9 Lux
Wed 10, 12:43 PM21,1 ºC76,5 %952 hPa0,00 l/m2 45º NE 3,6 km/h6,9 km/h859.6 Lux
Wed 10, 12:48 PM20,9 ºC77,6 %952 hPa0,00 l/m2 337,5º NNO 1,3 km/h5,2 km/h832.8 Lux
Wed 10, 12:53 PM21,5 ºC74,3 %952 hPa0,00 l/m2 45º NE 1,8 km/h4,6 km/h515.4 Lux
Wed 10, 12:58 PM21,0 ºC76,0 %952 hPa0,00 l/m2 45º NE 2,6 km/h8,4 km/h1169.2 Lux
Wed 10, 01:03 PM20,8 ºC77,0 %952 hPa0,00 l/m2 337,5º NNO 1,8 km/h13,0 km/h1998 Lux
Wed 10, 01:08 PM22,8 ºC66,9 %952 hPa0,00 l/m2 247,5º OSO 2,2 km/h7,5 km/h3800.8 Lux
Wed 10, 01:13 PM23,9 ºC61,7 %952 hPa0,00 l/m2 225º SO 2,2 km/h6,7 km/h1744.7 Lux
Wed 10, 01:18 PM24,3 ºC58,7 %952 hPa0,00 l/m2 337,5º NNO 1,8 km/h4,6 km/h980.4 Lux
Wed 10, 01:23 PM22,9 ºC65,0 %952 hPa0,00 l/m2 315º NO 1,2 km/h6,7 km/h1050.3 Lux
Wed 10, 01:28 PM22,1 ºC68,0 %952 hPa0,00 l/m2 225º SO 4,5 km/h12,4 km/h980.4 Lux
Wed 10, 01:33 PM22,2 ºC66,8 %952 hPa0,00 l/m2 337,5º NNO 2,2 km/h8,7 km/h2841.9 Lux
Wed 10, 01:38 PM23,4 ºC64,2 %952 hPa0,00 l/m2 337,5º NNO 2,2 km/h6,4 km/h3800.8 Lux
Wed 10, 01:43 PM23,2 ºC64,5 %952 hPa0,00 l/m2 67,5º ENE 1,3 km/h3,5 km/h2554.9 Lux
Wed 10, 01:48 PM22,8 ºC65,5 %952 hPa0,00 l/m2 45º NE 2,8 km/h9,8 km/h887.7 Lux
Wed 10, 01:53 PM23,5 ºC64,0 %952 hPa0,00 l/m2 0º N 2,4 km/h9,3 km/h674.9 Lux
Wed 10, 01:58 PM22,6 ºC68,5 %952 hPa0,00 l/m2 337,5º NNO 1,0 km/h4,6 km/h1050.3 Lux
Wed 10, 02:03 PM22,6 ºC67,3 %952 hPa0,00 l/m2 225º SO 2,4 km/h6,9 km/h3575 Lux
Wed 10, 02:08 PM22,4 ºC68,6 %952 hPa0,00 l/m2 247,5º OSO 3,7 km/h9,8 km/h1014.5 Lux
Wed 10, 02:13 PM22,3 ºC67,8 %952 hPa0,00 l/m2 337,5º NNO 5,8 km/h14,7 km/h1087.9 Lux
Wed 10, 02:18 PM21,9 ºC70,9 %952 hPa0,00 l/m2 90º E 3,1 km/h9,0 km/h948 Lux
Wed 10, 02:23 PM22,8 ºC66,6 %952 hPa0,00 l/m2 225º SO 3,7 km/h12,4 km/h980.4 Lux
Wed 10, 02:28 PM22,4 ºC68,9 %951 hPa0,00 l/m2 337,5º NNO 2,5 km/h5,8 km/h1415.6 Lux
Wed 10, 02:33 PM22,6 ºC67,5 %951 hPa0,00 l/m2 45º NE 0,3 km/h2,6 km/h3003.2 Lux
Wed 10, 02:38 PM22,5 ºC67,6 %951 hPa0,00 l/m2 135º SE 2,9 km/h7,8 km/h1670.6 Lux
Wed 10, 02:43 PM24,8 ºC59,0 %951 hPa0,00 l/m2 247,5º OSO 3,1 km/h7,5 km/h1535.5 Lux
Wed 10, 02:48 PM23,0 ºC63,2 %951 hPa0,00 l/m2 315º NO 4,8 km/h8,4 km/h1998 Lux
Wed 10, 02:53 PM23,2 ºC63,6 %951 hPa0,00 l/m2 225º SO 5,4 km/h10,4 km/h3368.1 Lux
Wed 10, 02:58 PM23,7 ºC60,7 %951 hPa0,00 l/m2 315º NO 6,6 km/h15,0 km/h3575 Lux
Wed 10, 03:03 PM24,3 ºC60,0 %951 hPa0,00 l/m2 67,5º ENE 4,5 km/h12,1 km/h2692.9 Lux
Wed 10, 03:08 PM24,4 ºC58,3 %951 hPa0,00 l/m2 67,5º ENE 1,6 km/h7,5 km/h715.3 Lux
Wed 10, 03:13 PM25,3 ºC56,2 %951 hPa0,00 l/m2 157,5º SSE 3,5 km/h11,6 km/h3003.2 Lux
Wed 10, 03:18 PM25,1 ºC55,9 %951 hPa0,00 l/m2 315º NO 1,7 km/h7,5 km/h3003.2 Lux
Wed 10, 03:23 PM24,6 ºC56,2 %951 hPa0,00 l/m2 67,5º ENE 2,1 km/h6,7 km/h1415.6 Lux
Wed 10, 03:28 PM25,2 ºC56,0 %951 hPa0,00 l/m2 202,5º SSO 3,3 km/h10,4 km/h1213.3 Lux
Wed 10, 03:33 PM24,8 ºC56,6 %951 hPa0,00 l/m2 67,5º ENE 3,6 km/h7,2 km/h1473.8 Lux
Wed 10, 03:38 PM25,0 ºC56,6 %951 hPa0,00 l/m2 315º NO 2,8 km/h10,1 km/h3368.1 Lux
Wed 10, 03:43 PM25,0 ºC57,1 %951 hPa0,00 l/m2 337,5º NNO 3,9 km/h11,3 km/h2841.9 Lux
Wed 10, 03:48 PM25,3 ºC54,7 %951 hPa0,00 l/m2 247,5º OSO 3,7 km/h12,4 km/h2554.9 Lux
Wed 10, 03:53 PM25,9 ºC53,4 %951 hPa0,00 l/m2 337,5º NNO 5,4 km/h13,3 km/h2554.9 Lux
Wed 10, 03:58 PM24,7 ºC56,0 %951 hPa0,00 l/m2 247,5º OSO 6,5 km/h11,0 km/h396.1 Lux
Wed 10, 04:03 PM23,0 ºC61,9 %951 hPa0,00 l/m2 337,5º NNO 5,0 km/h13,6 km/h1415.6 Lux
Wed 10, 04:08 PM23,8 ºC60,8 %951 hPa0,00 l/m2 337,5º NNO 3,3 km/h10,1 km/h405.2 Lux
Wed 10, 04:13 PM23,1 ºC63,5 %951 hPa0,00 l/m2 225º SO 7,8 km/h19,1 km/h887.7 Lux
Wed 10, 04:18 PM22,6 ºC66,0 %951 hPa0,00 l/m2 67,5º ENE 11,7 km/h21,7 km/h1908 Lux
Wed 10, 04:23 PM23,8 ºC61,7 %951 hPa0,00 l/m2 225º SO 3,9 km/h8,1 km/h1823.7 Lux
Wed 10, 04:28 PM25,5 ºC55,0 %951 hPa0,00 l/m2 225º SO 5,2 km/h12,1 km/h1744.7 Lux
Wed 10, 04:33 PM24,5 ºC57,3 %951 hPa0,00 l/m2 247,5º OSO 1,9 km/h6,1 km/h1601 Lux
Wed 10, 04:38 PM25,3 ºC54,4 %951 hPa0,00 l/m2 225º SO 5,3 km/h13,6 km/h1473.8 Lux
Wed 10, 04:43 PM24,3 ºC57,2 %951 hPa0,00 l/m2 225º SO 5,9 km/h12,1 km/h1473.8 Lux
Wed 10, 04:48 PM25,0 ºC55,1 %951 hPa0,00 l/m2 225º SO 6,4 km/h16,8 km/h1308.8 Lux
Wed 10, 04:53 PM24,4 ºC58,3 %951 hPa0,00 l/m2 315º NO 6,4 km/h12,7 km/h1360.7 Lux
Wed 10, 04:58 PM24,4 ºC58,6 %951 hPa0,00 l/m2 225º SO 5,4 km/h9,3 km/h1169.2 Lux
Wed 10, 05:03 PM24,4 ºC58,4 %951 hPa0,00 l/m2 0º N 1,4 km/h8,7 km/h1087.9 Lux
Wed 10, 05:08 PM25,0 ºC57,5 %951 hPa0,00 l/m2 225º SO 3,5 km/h10,4 km/h1127.5 Lux
Wed 10, 05:13 PM24,4 ºC58,4 %951 hPa0,00 l/m2 247,5º OSO 4,8 km/h9,8 km/h1169.2 Lux
Wed 10, 05:18 PM24,6 ºC58,3 %951 hPa0,00 l/m2 337,5º NNO 8,0 km/h13,9 km/h980.4 Lux
Wed 10, 05:23 PM24,0 ºC61,0 %951 hPa0,00 l/m2 337,5º NNO 4,5 km/h9,0 km/h948 Lux
Wed 10, 05:28 PM24,1 ºC60,2 %951 hPa0,00 l/m2 225º SO 6,0 km/h11,6 km/h917.2 Lux
Wed 10, 05:33 PM23,9 ºC61,4 %951 hPa0,00 l/m2 225º SO 8,2 km/h17,9 km/h807.1 Lux
Wed 10, 05:38 PM23,1 ºC64,4 %951 hPa0,00 l/m2 315º NO 3,9 km/h9,5 km/h917.2 Lux
Wed 10, 05:43 PM23,6 ºC62,0 %951 hPa0,00 l/m2 337,5º NNO 8,2 km/h13,6 km/h694.7 Lux
Wed 10, 05:48 PM23,0 ºC65,2 %951 hPa0,00 l/m2 202,5º SSO 9,4 km/h15,6 km/h191.6 Lux
Wed 10, 05:53 PM22,1 ºC68,7 %952 hPa0,00 l/m2 225º SO 5,6 km/h13,9 km/h267.5 Lux
Wed 10, 05:58 PM22,2 ºC69,0 %951 hPa0,00 l/m2 225º SO 6,4 km/h12,4 km/h267.5 Lux
Wed 10, 06:03 PM22,0 ºC69,8 %951 hPa0,00 l/m2 247,5º OSO 7,6 km/h15,6 km/h515.4 Lux
Wed 10, 06:08 PM22,2 ºC68,4 %951 hPa0,00 l/m2 225º SO 5,6 km/h11,3 km/h424.3 Lux
Wed 10, 06:13 PM22,8 ºC65,1 %952 hPa0,00 l/m2 225º SO 2,2 km/h6,7 km/h182.5 Lux
Wed 10, 06:18 PM22,3 ºC66,8 %952 hPa0,00 l/m2 337,5º NNO 4,4 km/h13,9 km/h219.2 Lux
Wed 10, 06:23 PM22,3 ºC67,1 %952 hPa0,00 l/m2 225º SO 6,7 km/h15,0 km/h782.6 Lux
Wed 10, 06:28 PM22,6 ºC66,1 %952 hPa0,00 l/m2 315º NO 4,8 km/h7,5 km/h502.5 Lux
Wed 10, 06:33 PM23,3 ºC63,1 %952 hPa0,00 l/m2 202,5º SSO 5,4 km/h11,6 km/h434.3 Lux
Wed 10, 06:38 PM22,5 ºC66,2 %952 hPa0,00 l/m2 225º SO 3,5 km/h10,4 km/h294.7 Lux
Wed 10, 06:43 PM22,8 ºC65,3 %952 hPa0,00 l/m2 315º NO 2,8 km/h9,3 km/h277.9 Lux
Wed 10, 06:48 PM22,9 ºC65,3 %952 hPa0,00 l/m2 225º SO 5,3 km/h10,7 km/h121.4 Lux
Wed 10, 06:53 PM21,9 ºC69,1 %952 hPa0,00 l/m2 225º SO 2,0 km/h4,9 km/h161.2 Lux
Wed 10, 06:58 PM21,9 ºC69,6 %952 hPa0,00 l/m2 247,5º OSO 2,6 km/h8,1 km/h252.9 Lux
Wed 10, 07:03 PM21,8 ºC70,0 %952 hPa0,00 l/m2 67,5º ENE 2,4 km/h8,1 km/h171.4 Lux
Wed 10, 07:08 PM22,0 ºC69,6 %952 hPa0,00 l/m2 225º SO 1,7 km/h5,8 km/h118.3 Lux
Wed 10, 07:13 PM22,0 ºC69,0 %952 hPa0,00 l/m2 0º N 2,6 km/h6,4 km/h95.6 Lux
Wed 10, 07:18 PM21,9 ºC68,2 %952 hPa0,00 l/m2 225º SO 1,6 km/h5,2 km/h89.1 Lux
Wed 10, 07:23 PM21,8 ºC68,7 %952 hPa0,00 l/m2 225º SO 2,8 km/h8,7 km/h64.5 Lux
Wed 10, 07:28 PM21,5 ºC71,9 %952 hPa0,00 l/m2 225º SO 2,3 km/h6,9 km/h42.4 Lux
Wed 10, 07:33 PM21,3 ºC73,8 %952 hPa0,00 l/m2 157,5º SSE 2,6 km/h4,6 km/h30.2 Lux
Wed 10, 07:38 PM21,2 ºC74,8 %952 hPa0,00 l/m2 0º N 2,8 km/h7,2 km/h19.9 Lux
Wed 10, 07:43 PM21,1 ºC75,5 %952 hPa0,00 l/m2 337,5º NNO 3,6 km/h7,2 km/h13.1 Lux
Wed 10, 07:48 PM21,0 ºC75,3 %952 hPa0,00 l/m2 0º N 2,6 km/h6,7 km/h7.2 Lux
Wed 10, 07:53 PM21,0 ºC75,0 %952 hPa0,00 l/m2 337,5º NNO 1,3 km/h5,8 km/h4.9 Lux
Wed 10, 07:58 PM21,0 ºC75,5 %952 hPa0,00 l/m2 225º SO 2,1 km/h6,9 km/h3.8 Lux
Wed 10, 08:03 PM20,9 ºC75,4 %952 hPa0,00 l/m2 225º SO 2,1 km/h8,1 km/h2.9 Lux
Wed 10, 08:08 PM20,9 ºC76,1 %952 hPa0,00 l/m2 247,5º OSO 4,7 km/h9,3 km/h2.4 Lux
Wed 10, 08:13 PM20,9 ºC75,4 %952 hPa0,00 l/m2 225º SO 4,1 km/h9,0 km/h2.3 Lux
Wed 10, 08:18 PM20,8 ºC76,4 %953 hPa0,00 l/m2 337,5º NNO 4,8 km/h15,9 km/h2.3 Lux
Wed 10, 08:23 PM20,9 ºC74,7 %953 hPa0,00 l/m2 157,5º SSE 3,0 km/h8,4 km/h2.3 Lux
Wed 10, 08:28 PM20,7 ºC77,1 %953 hPa0,00 l/m2 67,5º ENE 6,4 km/h12,1 km/h2.3 Lux
Wed 10, 08:33 PM20,6 ºC77,3 %953 hPa0,00 l/m2 225º SO 5,6 km/h16,8 km/h2.3 Lux
Wed 10, 08:38 PM20,6 ºC76,9 %953 hPa0,00 l/m2 315º NO 3,1 km/h9,0 km/h2.3 Lux
Wed 10, 08:43 PM20,5 ºC76,8 %953 hPa0,00 l/m2 202,5º SSO 3,2 km/h8,7 km/h2.4 Lux
Wed 10, 08:48 PM20,5 ºC77,2 %953 hPa0,00 l/m2 157,5º SSE 1,1 km/h4,6 km/h2.1 Lux
Wed 10, 08:53 PM20,4 ºC78,3 %953 hPa0,00 l/m2 45º NE 0,0 km/h0,9 km/h2.3 Lux
Wed 10, 08:58 PM20,3 ºC78,6 %953 hPa0,00 l/m2 90º E 0,0 km/h0,0 km/h2.3 Lux
Wed 10, 09:03 PM20,2 ºC79,6 %953 hPa0,00 l/m2 337,5º NNO 0,0 km/h0,0 km/h2.2 Lux
Wed 10, 09:08 PM20,2 ºC80,0 %953 hPa0,00 l/m2 45º NE 0,2 km/h2,0 km/h2.2 Lux
Wed 10, 09:13 PM20,1 ºC80,7 %953 hPa0,00 l/m2 112.5º ESE 0,0 km/h0,0 km/h2.2 Lux
Wed 10, 09:18 PM20,1 ºC80,3 %953 hPa0,00 l/m2 337,5º NNO 0,3 km/h2,9 km/h2.3 Lux
Wed 10, 09:23 PM20,2 ºC78,1 %953 hPa0,00 l/m2 202,5º SSO 1,5 km/h7,5 km/h2.2 Lux
Wed 10, 09:28 PM20,3 ºC76,5 %953 hPa0,00 l/m2 315º NO 1,1 km/h7,2 km/h2.3 Lux
Wed 10, 09:33 PM20,3 ºC76,2 %953 hPa0,00 l/m2 337,5º NNO 1,9 km/h7,5 km/h2.2 Lux
Wed 10, 09:38 PM20,4 ºC75,5 %953 hPa0,00 l/m2 225º SO 2,7 km/h9,8 km/h2.2 Lux
Wed 10, 09:43 PM20,4 ºC75,2 %953 hPa0,00 l/m2 315º NO 3,8 km/h9,3 km/h2.2 Lux
Wed 10, 09:48 PM20,1 ºC78,5 %953 hPa0,00 l/m2 337,5º NNO 1,5 km/h5,5 km/h2.2 Lux
Wed 10, 09:53 PM20,0 ºC79,4 %953 hPa0,00 l/m2 202,5º SSO 2,5 km/h9,3 km/h2.2 Lux
Wed 10, 09:58 PM20,2 ºC77,2 %953 hPa0,00 l/m2 45º NE 1,7 km/h12,1 km/h2.3 Lux
Wed 10, 10:03 PM20,2 ºC77,3 %954 hPa0,00 l/m2 157,5º SSE 1,4 km/h5,5 km/h2.3 Lux
Wed 10, 10:08 PM20,1 ºC78,6 %954 hPa0,00 l/m2 337,5º NNO 1,4 km/h5,8 km/h2.1 Lux
Wed 10, 10:13 PM20,1 ºC80,2 %954 hPa0,00 l/m2 315º NO 2,5 km/h6,9 km/h2.3 Lux
Wed 10, 10:18 PM19,9 ºC81,4 %954 hPa0,00 l/m2 45º NE 2,1 km/h5,2 km/h2.2 Lux
Wed 10, 10:23 PM19,9 ºC81,3 %954 hPa0,00 l/m2 315º NO 1,8 km/h7,8 km/h2.1 Lux
Wed 10, 10:28 PM19,9 ºC81,1 %954 hPa0,00 l/m2 157,5º SSE 2,0 km/h6,4 km/h2.3 Lux
Wed 10, 10:33 PM19,8 ºC82,2 %954 hPa0,00 l/m2 67,5º ENE 0,6 km/h2,3 km/h2.2 Lux
Wed 10, 10:38 PM19,7 ºC83,6 %954 hPa0,00 l/m2 45º NE 0,5 km/h3,5 km/h2.4 Lux
Wed 10, 10:43 PM19,5 ºC85,8 %954 hPa0,00 l/m2 315º NO 0,4 km/h2,6 km/h2.3 Lux
Wed 10, 10:48 PM19,4 ºC86,7 %954 hPa0,00 l/m2 337,5º NNO 0,5 km/h4,0 km/h2.1 Lux
Wed 10, 10:53 PM19,3 ºC87,0 %954 hPa0,00 l/m2 225º SO 0,3 km/h1,7 km/h2.2 Lux
Wed 10, 10:58 PM19,2 ºC86,7 %954 hPa0,00 l/m2 337,5º NNO 0,0 km/h0,3 km/h2.3 Lux
Wed 10, 11:03 PM19,1 ºC86,5 %954 hPa0,00 l/m2 337,5º NNO 0,0 km/h0,3 km/h2.3 Lux
Wed 10, 11:08 PM19,1 ºC86,9 %954 hPa0,00 l/m2 45º NE 0,5 km/h2,9 km/h2.2 Lux
Wed 10, 11:13 PM19,1 ºC87,1 %954 hPa0,00 l/m2 45º NE 0,0 km/h0,0 km/h2.3 Lux
Wed 10, 11:18 PM19,0 ºC88,3 %954 hPa0,00 l/m2 45º NE 0,0 km/h0,0 km/h2.3 Lux
Wed 10, 11:23 PM18,8 ºC89,9 %954 hPa0,00 l/m2 45º NE 0,0 km/h0,3 km/h2.2 Lux
Wed 10, 11:28 PM18,8 ºC89,9 %954 hPa0,00 l/m2 45º NE 0,2 km/h1,2 km/h2.3 Lux
Wed 10, 11:33 PM18,8 ºC89,8 %954 hPa0,00 l/m2 45º NE 0,0 km/h0,3 km/h2.3 Lux
Wed 10, 11:38 PM18,9 ºC89,2 %954 hPa0,00 l/m2 0º N 0,0 km/h0,0 km/h2.1 Lux
Wed 10, 11:43 PM18,7 ºC89,9 %954 hPa0,00 l/m2 337,5º NNO 0,0 km/h0,3 km/h2.3 Lux
Wed 10, 11:48 PM18,4 ºC90,4 %954 hPa0,00 l/m2 225º SO 0,0 km/h0,3 km/h2.3 Lux
Wed 10, 11:53 PM18,6 ºC89,2 %955 hPa0,00 l/m2 157,5º SSE 0,0 km/h0,3 km/h2.2 Lux
Wed 10, 11:58 PM18,4 ºC89,4 %954 hPa0,00 l/m2 45º NE 0,0 km/h0,3 km/h2.2 Lux
Thu 11, 12:03 AM18,5 ºC89,6 %954 hPa0,00 l/m2 247,5º OSO 0,1 km/h1,7 km/h2.2 Lux
Thu 11, 12:08 AM18,8 ºC87,4 %954 hPa0,00 l/m2 225º SO 0,1 km/h1,4 km/h2.2 Lux
Thu 11, 12:13 AM19,1 ºC85,0 %954 hPa0,00 l/m2 135º SE 0,1 km/h1,2 km/h2.4 Lux
Thu 11, 12:18 AM19,1 ºC84,1 %954 hPa0,00 l/m2 0º N 0,4 km/h2,6 km/h2.2 Lux
Thu 11, 12:23 AM19,2 ºC83,7 %954 hPa0,00 l/m2 337,5º NNO 0,0 km/h0,0 km/h2.3 Lux
Thu 11, 12:28 AM19,0 ºC84,1 %954 hPa0,00 l/m2 45º NE 0,0 km/h0,0 km/h2.2 Lux
Thu 11, 12:33 AM18,8 ºC85,7 %955 hPa0,00 l/m2 315º NO 0,0 km/h0,3 km/h2.2 Lux
Thu 11, 12:38 AM19,0 ºC84,1 %955 hPa0,00 l/m2 45º NE 0,0 km/h0,0 km/h2.3 Lux
Thu 11, 12:43 AM18,9 ºC84,9 %954 hPa0,00 l/m2 0º N 0,1 km/h0,9 km/h2.3 Lux
Thu 11, 12:48 AM18,9 ºC86,2 %955 hPa0,00 l/m2 0º N 0,2 km/h1,7 km/h2.3 Lux
Thu 11, 12:53 AM19,0 ºC86,3 %954 hPa0,00 l/m2 337,5º NNO 0,0 km/h0,0 km/h2.2 Lux
Thu 11, 12:58 AM18,9 ºC87,8 %954 hPa0,00 l/m2 45º NE 0,1 km/h1,4 km/h2.3 Lux
Thu 11, 01:03 AM19,0 ºC88,0 %954 hPa0,00 l/m2 337,5º NNO 0,1 km/h1,2 km/h2.3 Lux
Thu 11, 01:08 AM19,0 ºC88,1 %954 hPa0,00 l/m2 67,5º ENE 0,9 km/h4,0 km/h2.3 Lux
Thu 11, 01:13 AM19,2 ºC87,3 %954 hPa0,00 l/m2 337,5º NNO 0,4 km/h3,5 km/h2.3 Lux
Thu 11, 01:18 AM19,2 ºC87,7 %954 hPa0,00 l/m2 202,5º SSO 1,6 km/h4,3 km/h2.3 Lux
Thu 11, 01:23 AM19,2 ºC88,3 %954 hPa0,00 l/m2 247,5º OSO 2,4 km/h8,1 km/h2.3 Lux
Thu 11, 01:28 AM19,3 ºC89,6 %955 hPa0,00 l/m2 337,5º NNO 3,9 km/h8,1 km/h2.3 Lux
Thu 11, 01:33 AM19,3 ºC89,9 %955 hPa0,00 l/m2 225º SO 3,4 km/h7,8 km/h2.2 Lux
Thu 11, 01:38 AM19,3 ºC90,4 %955 hPa0,00 l/m2 157,5º SSE 4,8 km/h12,7 km/h2.1 Lux
Thu 11, 01:43 AM19,3 ºC90,8 %955 hPa0,00 l/m2 247,5º OSO 5,1 km/h11,6 km/h2.2 Lux
Thu 11, 01:48 AM19,4 ºC90,1 %955 hPa0,00 l/m2 337,5º NNO 2,6 km/h5,5 km/h2.2 Lux
Thu 11, 01:53 AM19,5 ºC89,2 %955 hPa0,00 l/m2 45º NE 3,7 km/h7,2 km/h2.2 Lux
Thu 11, 01:58 AM19,6 ºC88,8 %955 hPa0,00 l/m2 315º NO 1,8 km/h9,5 km/h2.2 Lux
Thu 11, 02:03 AM19,6 ºC88,2 %955 hPa0,00 l/m2 45º NE 1,5 km/h6,4 km/h2.2 Lux
Thu 11, 02:08 AM19,6 ºC87,4 %955 hPa0,00 l/m2 337,5º NNO 0,7 km/h3,5 km/h2.4 Lux
Thu 11, 02:13 AM19,7 ºC86,7 %955 hPa0,00 l/m2 337,5º NNO 2,4 km/h7,5 km/h2.2 Lux
Thu 11, 02:18 AM19,7 ºC87,7 %955 hPa0,00 l/m2 337,5º NNO 3,1 km/h9,5 km/h2.2 Lux
Thu 11, 02:23 AM19,7 ºC86,8 %955 hPa0,00 l/m2 45º NE 0,4 km/h4,3 km/h2.3 Lux
Thu 11, 02:28 AM19,0 ºC88,7 %955 hPa0,00 l/m2 45º NE 0,0 km/h0,3 km/h2.3 Lux
Thu 11, 02:33 AM18,8 ºC88,9 %955 hPa0,00 l/m2 45º NE 0,0 km/h0,0 km/h2.3 Lux
Thu 11, 02:38 AM18,8 ºC91,5 %955 hPa0,00 l/m2 0º N 0,0 km/h0,6 km/h2.1 Lux
Thu 11, 02:43 AM19,2 ºC91,6 %955 hPa0,00 l/m2 0º N 0,1 km/h0,3 km/h2.3 Lux
Thu 11, 02:48 AM19,3 ºC92,6 %955 hPa0,00 l/m2 0º N 0,3 km/h3,5 km/h2.2 Lux
Thu 11, 02:53 AM19,0 ºC89,5 %955 hPa0,00 l/m2 45º NE 0,1 km/h0,9 km/h2.2 Lux
Thu 11, 02:58 AM18,3 ºC90,9 %955 hPa0,00 l/m2 337,5º NNO 0,0 km/h0,0 km/h2.2 Lux
Thu 11, 03:03 AM18,3 ºC92,4 %955 hPa0,00 l/m2 90º E 0,1 km/h1,2 km/h2.1 Lux
Thu 11, 03:08 AM18,7 ºC95,2 %955 hPa0,00 l/m2 67,5º ENE 0,4 km/h3,2 km/h2.2 Lux
Thu 11, 03:13 AM19,1 ºC95,9 %955 hPa0,00 l/m2 45º NE 1,2 km/h4,9 km/h2.3 Lux
Thu 11, 03:18 AM19,2 ºC94,9 %955 hPa0,00 l/m2 45º NE 0,9 km/h7,8 km/h2.3 Lux
Thu 11, 03:23 AM19,2 ºC94,9 %955 hPa0,00 l/m2 337,5º NNO 0,9 km/h3,2 km/h2.3 Lux
Thu 11, 03:28 AM19,3 ºC93,6 %955 hPa0,00 l/m2 337,5º NNO 0,4 km/h2,9 km/h2.2 Lux
Thu 11, 03:33 AM19,2 ºC94,4 %955 hPa0,00 l/m2 0º N 0,3 km/h2,3 km/h2.2 Lux
Thu 11, 03:38 AM19,1 ºC95,0 %955 hPa0,00 l/m2 202,5º SSO 0,8 km/h5,2 km/h2.3 Lux
Thu 11, 03:43 AM19,2 ºC93,8 %955 hPa0,00 l/m2 337,5º NNO 0,1 km/h0,3 km/h2.2 Lux
Thu 11, 03:48 AM19,2 ºC93,2 %955 hPa0,00 l/m2 225º SO 5,9 km/h15,6 km/h2.3 Lux
Thu 11, 03:53 AM19,8 ºC86,4 %955 hPa0,00 l/m2 157,5º SSE 3,7 km/h12,7 km/h2.2 Lux
Thu 11, 03:58 AM19,8 ºC86,6 %954 hPa0,00 l/m2 315º NO 1,4 km/h5,8 km/h2.1 Lux
Thu 11, 04:03 AM19,5 ºC89,2 %954 hPa0,00 l/m2 202,5º SSO 2,4 km/h11,3 km/h2.3 Lux
Thu 11, 04:08 AM19,6 ºC88,6 %954 hPa0,00 l/m2 202,5º SSO 8,0 km/h11,8 km/h2.2 Lux
Thu 11, 04:13 AM19,8 ºC87,5 %954 hPa0,00 l/m2 45º NE 4,2 km/h11,6 km/h2.2 Lux
Thu 11, 04:18 AM19,7 ºC88,5 %954 hPa0,00 l/m2 202,5º SSO 1,4 km/h4,6 km/h2.3 Lux
Thu 11, 04:23 AM19,3 ºC92,6 %954 hPa0,00 l/m2 45º NE 0,4 km/h2,3 km/h2.3 Lux
Thu 11, 04:28 AM19,2 ºC93,7 %954 hPa0,00 l/m2 337,5º NNO 0,5 km/h4,9 km/h2.3 Lux
Thu 11, 04:33 AM19,2 ºC93,6 %954 hPa0,00 l/m2 0º N 1,3 km/h6,9 km/h2.2 Lux
Thu 11, 04:38 AM19,2 ºC93,8 %954 hPa0,00 l/m2 0º N 0,9 km/h3,2 km/h2.3 Lux
Thu 11, 04:43 AM19,1 ºC94,6 %954 hPa0,00 l/m2 45º NE 1,5 km/h5,5 km/h2.3 Lux
Thu 11, 04:48 AM19,0 ºC94,8 %954 hPa0,00 l/m2 157,5º SSE 1,8 km/h6,7 km/h2.4 Lux
Thu 11, 04:53 AM19,0 ºC94,2 %954 hPa0,00 l/m2 45º NE 2,0 km/h6,4 km/h2.2 Lux
Thu 11, 04:58 AM18,9 ºC95,0 %954 hPa0,00 l/m2 225º SO 2,3 km/h4,9 km/h2.2 Lux
Thu 11, 05:03 AM18,8 ºC95,5 %954 hPa0,00 l/m2 67,5º ENE 3,8 km/h7,2 km/h2.3 Lux
Thu 11, 05:08 AM18,8 ºC95,7 %954 hPa0,00 l/m2 45º NE 4,0 km/h10,4 km/h2.2 Lux
Thu 11, 05:13 AM18,7 ºC95,7 %954 hPa0,00 l/m2 315º NO 3,2 km/h6,9 km/h2.3 Lux
Thu 11, 05:18 AM18,7 ºC95,6 %954 hPa0,00 l/m2 337,5º NNO 1,7 km/h5,8 km/h2.1 Lux
Thu 11, 05:23 AM18,7 ºC95,0 %954 hPa0,00 l/m2 0º N 2,4 km/h10,7 km/h2.1 Lux
Thu 11, 05:28 AM18,7 ºC95,1 %954 hPa0,00 l/m2 315º NO 1,4 km/h3,5 km/h2.3 Lux
Thu 11, 05:33 AM18,7 ºC94,5 %954 hPa0,00 l/m2 337,5º NNO 0,2 km/h0,6 km/h2.2 Lux
Thu 11, 05:38 AM18,7 ºC93,2 %954 hPa0,00 l/m2 315º NO 0,4 km/h2,0 km/h2.3 Lux
Thu 11, 05:43 AM18,8 ºC92,2 %954 hPa0,00 l/m2 0º N 0,2 km/h2,6 km/h2.3 Lux
Thu 11, 05:48 AM18,8 ºC91,5 %954 hPa0,00 l/m2 0º N 0,0 km/h0,0 km/h2.2 Lux
Thu 11, 05:53 AM18,7 ºC92,4 %954 hPa0,00 l/m2 337,5º NNO 0,0 km/h0,0 km/h2.1 Lux
Thu 11, 05:58 AM18,7 ºC92,0 %954 hPa0,00 l/m2 45º NE 0,0 km/h0,0 km/h2.3 Lux
Thu 11, 06:03 AM18,8 ºC91,5 %954 hPa0,00 l/m2 337,5º NNO 0,9 km/h6,4 km/h2.2 Lux
Thu 11, 06:08 AM18,9 ºC89,5 %954 hPa0,00 l/m2 337,5º NNO 1,5 km/h4,9 km/h2.2 Lux
Thu 11, 06:13 AM19,0 ºC89,7 %954 hPa0,00 l/m2 0º N 1,3 km/h5,5 km/h2.2 Lux
Thu 11, 06:18 AM19,0 ºC89,2 %955 hPa0,00 l/m2 45º NE 1,3 km/h5,2 km/h2.2 Lux
Thu 11, 06:23 AM19,0 ºC90,1 %955 hPa0,00 l/m2 0º N 1,5 km/h6,7 km/h2.2 Lux
Thu 11, 06:28 AM19,0 ºC89,6 %955 hPa0,00 l/m2 67,5º ENE 1,6 km/h7,2 km/h2.2 Lux
Thu 11, 06:33 AM19,0 ºC88,8 %955 hPa0,00 l/m2 337,5º NNO 1,3 km/h8,7 km/h2.3 Lux
Thu 11, 06:38 AM19,0 ºC88,9 %955 hPa0,00 l/m2 225º SO 1,8 km/h10,1 km/h2.1 Lux
Thu 11, 06:43 AM19,0 ºC89,0 %955 hPa0,00 l/m2 0º N 1,8 km/h5,8 km/h2.3 Lux
Thu 11, 06:48 AM18,9 ºC90,6 %955 hPa0,00 l/m2 45º NE 1,0 km/h3,2 km/h2.1 Lux
Thu 11, 06:53 AM18,8 ºC92,2 %955 hPa0,00 l/m2 135º SE 1,7 km/h6,7 km/h2.2 Lux
Thu 11, 06:58 AM18,8 ºC91,0 %955 hPa0,00 l/m2 337,5º NNO 3,3 km/h6,9 km/h2.3 Lux
Thu 11, 07:03 AM18,8 ºC91,4 %955 hPa0,00 l/m2 45º NE 2,8 km/h10,1 km/h2.4 Lux
Thu 11, 07:08 AM18,9 ºC90,8 %955 hPa0,00 l/m2 0º N 2,6 km/h6,1 km/h2.1 Lux
Thu 11, 07:13 AM19,0 ºC89,6 %955 hPa0,00 l/m2 135º SE 1,8 km/h6,9 km/h2.2 Lux
Thu 11, 07:18 AM18,8 ºC91,0 %955 hPa0,00 l/m2 0º N 2,1 km/h4,6 km/h2.2 Lux
Thu 11, 07:23 AM18,8 ºC91,0 %955 hPa0,00 l/m2 337,5º NNO 1,6 km/h5,5 km/h2.1 Lux
Thu 11, 07:28 AM18,8 ºC90,8 %955 hPa0,00 l/m2 337,5º NNO 3,8 km/h10,1 km/h2.3 Lux
Thu 11, 07:33 AM18,8 ºC90,7 %955 hPa0,00 l/m2 315º NO 2,0 km/h4,0 km/h2.3 Lux
Thu 11, 07:38 AM18,7 ºC91,8 %955 hPa0,00 l/m2 45º NE 1,2 km/h4,0 km/h2.2 Lux
Thu 11, 07:43 AM18,7 ºC91,2 %955 hPa0,00 l/m2 0º N 1,0 km/h3,5 km/h2.1 Lux
Thu 11, 07:48 AM18,8 ºC90,9 %955 hPa0,00 l/m2 0º N 0,6 km/h2,3 km/h2.2 Lux
Thu 11, 07:53 AM18,7 ºC91,4 %955 hPa0,00 l/m2 337,5º NNO 0,3 km/h2,9 km/h2.3 Lux
Thu 11, 07:58 AM18,7 ºC91,2 %955 hPa0,00 l/m2 0º N 0,3 km/h2,0 km/h2.4 Lux
Thu 11, 08:03 AM18,8 ºC91,1 %955 hPa0,00 l/m2 337,5º NNO 0,2 km/h2,0 km/h2.4 Lux
Thu 11, 08:08 AM18,7 ºC91,0 %955 hPa0,00 l/m2 337,5º NNO 0,9 km/h4,3 km/h2.7 Lux
Thu 11, 08:13 AM18,8 ºC90,2 %955 hPa0,00 l/m2 225º SO 1,8 km/h7,5 km/h3.6 Lux
Thu 11, 08:18 AM18,8 ºC90,3 %955 hPa0,00 l/m2 337,5º NNO 1,6 km/h4,6 km/h5 Lux
Thu 11, 08:23 AM18,9 ºC89,9 %955 hPa0,00 l/m2 0º N 2,8 km/h6,1 km/h6.7 Lux
Thu 11, 08:28 AM19,0 ºC88,6 %955 hPa0,00 l/m2 337,5º NNO 2,2 km/h4,9 km/h10.1 Lux
Thu 11, 08:33 AM19,0 ºC89,4 %955 hPa0,00 l/m2 45º NE 3,3 km/h11,0 km/h16.8 Lux
Thu 11, 08:38 AM19,1 ºC89,9 %955 hPa0,00 l/m2 315º NO 2,7 km/h6,1 km/h24.6 Lux
Thu 11, 08:43 AM19,1 ºC88,4 %955 hPa0,00 l/m2 0º N 2,3 km/h7,8 km/h53.7 Lux
Thu 11, 08:48 AM19,2 ºC89,6 %955 hPa0,00 l/m2 67,5º ENE 2,1 km/h5,5 km/h82.2 Lux
Thu 11, 08:53 AM19,2 ºC88,2 %955 hPa0,00 l/m2 337,5º NNO 1,4 km/h3,5 km/h149.7 Lux
Thu 11, 08:58 AM19,4 ºC88,9 %956 hPa0,00 l/m2 337,5º NNO 1,4 km/h3,7 km/h124.7 Lux
Thu 11, 09:03 AM19,4 ºC89,0 %956 hPa0,00 l/m2 0º N 0,3 km/h1,4 km/h115.2 Lux
Thu 11, 09:08 AM19,4 ºC88,8 %956 hPa0,00 l/m2 0º N 2,2 km/h7,2 km/h145.4 Lux
Thu 11, 09:13 AM19,5 ºC88,1 %956 hPa0,00 l/m2 0º N 0,8 km/h2,3 km/h239.4 Lux
Thu 11, 09:18 AM19,7 ºC86,6 %956 hPa0,00 l/m2 315º NO 0,4 km/h2,9 km/h313 Lux
Thu 11, 09:23 AM20,0 ºC83,7 %956 hPa0,00 l/m2 225º SO 0,9 km/h4,9 km/h313 Lux
Thu 11, 09:28 AM20,2 ºC81,7 %956 hPa0,00 l/m2 337,5º NNO 0,2 km/h1,7 km/h272.7 Lux
Thu 11, 09:33 AM20,3 ºC81,8 %956 hPa0,00 l/m2 45º NE 0,4 km/h3,7 km/h300.6 Lux
Thu 11, 09:38 AM20,5 ºC79,9 %956 hPa0,00 l/m2 337,5º NNO 1,2 km/h3,5 km/h239.4 Lux
Thu 11, 09:43 AM20,6 ºC78,2 %956 hPa0,00 l/m2 45º NE 2,6 km/h8,4 km/h277.9 Lux
Thu 11, 09:48 AM20,4 ºC79,8 %957 hPa0,00 l/m2 45º NE 1,0 km/h6,9 km/h168.8 Lux
Thu 11, 09:53 AM20,5 ºC79,5 %957 hPa0,00 l/m2 0º N 1,2 km/h5,2 km/h78.7 Lux
Thu 11, 09:58 AM20,4 ºC80,1 %957 hPa0,00 l/m2 67,5º ENE 0,7 km/h4,3 km/h50.4 Lux
Thu 11, 10:03 AM20,2 ºC81,3 %957 hPa0,00 l/m2 45º NE 1,2 km/h4,0 km/h43.1 Lux
Thu 11, 10:08 AM20,1 ºC81,1 %957 hPa0,00 l/m2 45º NE 0,8 km/h3,5 km/h43.5 Lux
Thu 11, 10:13 AM20,1 ºC81,3 %957 hPa0,00 l/m2 337,5º NNO 2,8 km/h7,5 km/h54.7 Lux
Thu 11, 10:18 AM20,2 ºC80,9 %957 hPa0,00 l/m2 337,5º NNO 4,3 km/h8,4 km/h53.7 Lux
Thu 11, 10:23 AM20,1 ºC81,0 %957 hPa0,00 l/m2 0º N 2,3 km/h9,8 km/h49.9 Lux
Thu 11, 10:28 AM20,0 ºC81,6 %957 hPa0,00 l/m2 337,5º NNO 0,6 km/h2,9 km/h47 Lux
Thu 11, 10:33 AM19,9 ºC83,1 %957 hPa0,00 l/m2 45º NE 3,2 km/h6,4 km/h40.7 Lux
Thu 11, 10:38 AM19,8 ºC85,2 %957 hPa0,00 l/m2 225º SO 3,2 km/h8,7 km/h47 Lux
Thu 11, 10:43 AM19,6 ºC89,1 %957 hPa0,00 l/m2 337,5º NNO 3,2 km/h9,3 km/h46.5 Lux
Thu 11, 10:48 AM19,5 ºC90,2 %957 hPa0,00 l/m2 45º NE 2,8 km/h6,7 km/h50.4 Lux
Thu 11, 10:53 AM19,4 ºC92,4 %957 hPa0,00 l/m2 225º SO 2,8 km/h6,1 km/h50.8 Lux
Thu 11, 10:58 AM19,4 ºC92,5 %957 hPa0,00 l/m2 157,5º SSE 4,8 km/h11,0 km/h52.7 Lux
Thu 11, 11:03 AM19,4 ºC91,1 %957 hPa0,00 l/m2 337,5º NNO 1,3 km/h5,5 km/h49.1 Lux
Thu 11, 11:08 AM19,4 ºC92,8 %957 hPa0,00 l/m2 157,5º SSE 3,1 km/h8,7 km/h51.8 Lux
Thu 11, 11:13 AM19,2 ºC95,3 %957 hPa0,00 l/m2 225º SO 1,6 km/h6,9 km/h80.4 Lux
Thu 11, 11:18 AM19,2 ºC95,6 %957 hPa0,00 l/m2 202,5º SSO 1,7 km/h12,4 km/h92.2 Lux
Thu 11, 11:23 AM19,1 ºC95,8 %957 hPa0,00 l/m2 225º SO 3,9 km/h12,4 km/h119.8 Lux
Thu 11, 11:28 AM19,3 ºC94,9 %958 hPa0,08 l/m2 45º NE 1,0 km/h4,9 km/h168.8 Lux
Thu 11, 11:33 AM19,2 ºC98,0 %957 hPa0,08 l/m2 45º NE 1,2 km/h6,4 km/h227 Lux
Thu 11, 11:38 AM19,1 ºC100,0 %958 hPa0,00 l/m2 45º NE 0,5 km/h2,9 km/h243.8 Lux
Thu 11, 11:43 AM19,3 ºC99,5 %958 hPa0,08 l/m2 337,5º NNO 2,2 km/h8,1 km/h289 Lux
Thu 11, 11:48 AM19,4 ºC99,3 %958 hPa0,00 l/m2 0º N 0,3 km/h2,9 km/h248.3 Lux
Thu 11, 11:53 AM19,3 ºC98,9 %958 hPa0,00 l/m2 202,5º SSO 0,8 km/h6,4 km/h387.3 Lux
Thu 11, 11:58 AM19,6 ºC95,6 %958 hPa0,00 l/m2 0º N 0,0 km/h0,0 km/h478.2 Lux
Thu 11, 12:03 PM20,1 ºC96,5 %958 hPa0,00 l/m2 67,5º ENE 0,0 km/h0,3 km/h378.8 Lux
Thu 11, 12:08 PM20,1 ºC98,6 %958 hPa0,00 l/m2 45º NE 0,0 km/h0,0 km/h396.1 Lux
Thu 11, 12:13 PM20,2 ºC100,0 %958 hPa0,00 l/m2 45º NE 0,5 km/h4,6 km/h414.6 Lux
Thu 11, 12:18 PM20,0 ºC99,1 %958 hPa0,08 l/m2 315º NO 1,5 km/h7,8 km/h515.4 Lux
Thu 11, 12:23 PM20,1 ºC96,6 %958 hPa0,00 l/m2 337,5º NNO 1,0 km/h5,8 km/h736.7 Lux
Thu 11, 12:28 PM20,4 ºC94,6 %958 hPa0,00 l/m2 0º N 1,2 km/h3,7 km/h528.7 Lux
Thu 11, 12:33 PM20,4 ºC94,0 %958 hPa0,00 l/m2 247,5º OSO 1,0 km/h6,9 km/h1601 Lux
Thu 11, 12:38 PM20,5 ºC93,6 %958 hPa0,00 l/m2 202,5º SSO 1,9 km/h6,7 km/h1308.8 Lux
Thu 11, 12:43 PM21,2 ºC90,2 %958 hPa0,00 l/m2 135º SE 3,9 km/h11,0 km/h1601 Lux
Thu 11, 12:48 PM21,6 ºC87,1 %958 hPa0,00 l/m2 202,5º SSO 7,7 km/h24,0 km/h3003.2 Lux
Thu 11, 12:53 PM21,9 ºC84,2 %958 hPa0,00 l/m2 202,5º SSO 11,8 km/h24,6 km/h2554.9 Lux
Thu 11, 12:58 PM21,5 ºC83,9 %958 hPa0,00 l/m2 225º SO 12,9 km/h25,2 km/h2841.9 Lux
Thu 11, 01:03 PM21,5 ºC82,7 %958 hPa0,00 l/m2 337,5º NNO 8,6 km/h19,1 km/h1169.2 Lux
Thu 11, 01:08 PM22,4 ºC81,6 %958 hPa0,00 l/m2 225º SO 10,0 km/h34,1 km/h3368.1 Lux
Thu 11, 01:13 PM21,9 ºC80,2 %959 hPa0,00 l/m2 225º SO 10,4 km/h22,2 km/h3368.1 Lux
Thu 11, 01:18 PM22,2 ºC79,5 %958 hPa0,00 l/m2 225º SO 13,7 km/h26,6 km/h1087.9 Lux
Thu 11, 01:23 PM21,3 ºC82,5 %959 hPa0,00 l/m2 225º SO 11,2 km/h25,7 km/h1473.8 Lux
Thu 11, 01:28 PM21,2 ºC85,2 %959 hPa0,00 l/m2 225º SO 10,4 km/h20,2 km/h3575 Lux
Thu 11, 01:33 PM21,8 ºC82,6 %959 hPa0,00 l/m2 247,5º OSO 10,8 km/h23,7 km/h3800.8 Lux
Thu 11, 01:38 PM22,3 ºC80,2 %958 hPa0,00 l/m2 247,5º OSO 9,1 km/h14,4 km/h3368.1 Lux
Thu 11, 01:43 PM22,1 ºC80,1 %958 hPa0,00 l/m2 202,5º SSO 9,7 km/h13,9 km/h3178.1 Lux
Thu 11, 01:48 PM21,6 ºC81,8 %958 hPa0,00 l/m2 315º NO 10,8 km/h25,5 km/h1014.5 Lux
Thu 11, 01:53 PM21,2 ºC83,7 %958 hPa0,00 l/m2 225º SO 11,9 km/h20,8 km/h3575 Lux
Thu 11, 01:58 PM21,7 ºC81,3 %958 hPa0,00 l/m2 225º SO 5,9 km/h15,0 km/h3575 Lux
Thu 11, 02:03 PM22,8 ºC76,6 %958 hPa0,00 l/m2 225º SO 6,5 km/h11,0 km/h3178.1 Lux
Thu 11, 02:08 PM23,3 ºC74,0 %958 hPa0,00 l/m2 247,5º OSO 5,9 km/h11,6 km/h4047.8 Lux
Thu 11, 02:13 PM22,4 ºC77,9 %958 hPa0,00 l/m2 225º SO 7,0 km/h13,6 km/h3575 Lux
Thu 11, 02:18 PM22,1 ºC80,9 %958 hPa0,00 l/m2 157,5º SSE 7,4 km/h14,1 km/h948 Lux
Thu 11, 02:23 PM21,5 ºC83,2 %958 hPa0,00 l/m2 337,5º NNO 5,8 km/h9,5 km/h1014.5 Lux
Thu 11, 02:28 PM21,4 ºC84,1 %958 hPa0,00 l/m2 337,5º NNO 4,6 km/h8,7 km/h1213.3 Lux
Thu 11, 02:33 PM21,7 ºC83,1 %958 hPa0,00 l/m2 45º NE 4,8 km/h12,1 km/h1308.8 Lux
Thu 11, 02:38 PM23,1 ºC76,7 %958 hPa0,00 l/m2 315º NO 3,0 km/h9,0 km/h1601 Lux
Thu 11, 02:43 PM22,8 ºC77,5 %958 hPa0,00 l/m2 225º SO 3,6 km/h10,1 km/h3575 Lux
Thu 11, 02:48 PM23,9 ºC72,4 %958 hPa0,00 l/m2 337,5º NNO 4,7 km/h10,4 km/h3800.8 Lux
Thu 11, 02:53 PM24,9 ºC67,9 %958 hPa0,00 l/m2 225º SO 8,5 km/h19,1 km/h1823.7 Lux
Thu 11, 02:58 PM23,0 ºC74,9 %958 hPa0,00 l/m2 247,5º OSO 10,1 km/h16,2 km/h3003.2 Lux
Thu 11, 03:03 PM22,5 ºC78,0 %958 hPa0,00 l/m2 247,5º OSO 8,1 km/h16,5 km/h1308.8 Lux
Thu 11, 03:08 PM22,5 ºC78,0 %958 hPa0,00 l/m2 225º SO 7,7 km/h15,9 km/h1259.7 Lux
Thu 11, 03:13 PM22,5 ºC77,6 %958 hPa0,00 l/m2 247,5º OSO 8,6 km/h16,8 km/h1087.9 Lux
Thu 11, 03:18 PM22,0 ºC80,1 %958 hPa0,00 l/m2 315º NO 4,5 km/h9,8 km/h1087.9 Lux
Thu 11, 03:23 PM22,5 ºC78,0 %958 hPa0,00 l/m2 45º NE 3,5 km/h7,5 km/h1213.3 Lux
Thu 11, 03:28 PM22,8 ºC76,0 %958 hPa0,00 l/m2 225º SO 3,8 km/h9,5 km/h656 Lux
Thu 11, 03:33 PM22,5 ºC76,5 %958 hPa0,00 l/m2 337,5º NNO 3,0 km/h9,0 km/h528.7 Lux
Thu 11, 03:38 PM22,3 ºC77,7 %958 hPa0,00 l/m2 0º N 1,6 km/h5,8 km/h674.9 Lux
Thu 11, 03:43 PM22,4 ºC77,9 %958 hPa0,00 l/m2 0º N 2,2 km/h5,5 km/h362.5 Lux
Thu 11, 03:48 PM22,2 ºC79,0 %958 hPa0,00 l/m2 247,5º OSO 3,0 km/h12,4 km/h620.3 Lux
Thu 11, 03:53 PM22,1 ºC79,1 %958 hPa0,00 l/m2 337,5º NNO 4,6 km/h17,1 km/h736.7 Lux
Thu 11, 03:58 PM22,1 ºC79,4 %958 hPa0,00 l/m2 337,5º NNO 2,7 km/h6,9 km/h948 Lux
Thu 11, 04:03 PM22,3 ºC78,7 %958 hPa0,00 l/m2 337,5º NNO 6,5 km/h18,2 km/h3178.1 Lux
Thu 11, 04:08 PM24,2 ºC68,9 %958 hPa0,00 l/m2 337,5º NNO 4,2 km/h10,1 km/h1601 Lux
Thu 11, 04:13 PM25,3 ºC64,2 %958 hPa0,00 l/m2 315º NO 6,5 km/h13,9 km/h1908 Lux
Thu 11, 04:18 PM24,0 ºC68,6 %959 hPa0,00 l/m2 157,5º SSE 8,5 km/h14,4 km/h515.4 Lux
Thu 11, 04:23 PM22,5 ºC74,6 %958 hPa0,00 l/m2 247,5º OSO 6,7 km/h14,7 km/h2197.4 Lux
Thu 11, 04:28 PM23,3 ºC72,1 %958 hPa0,00 l/m2 0º N 6,4 km/h14,1 km/h528.7 Lux
Thu 11, 04:33 PM23,3 ºC71,1 %958 hPa0,00 l/m2 135º SE 3,6 km/h9,8 km/h1744.7 Lux
Thu 11, 04:38 PM24,2 ºC66,9 %958 hPa0,00 l/m2 337,5º NNO 3,3 km/h6,9 km/h1744.7 Lux
Thu 11, 04:43 PM25,0 ºC62,8 %958 hPa0,00 l/m2 157,5º SSE 4,7 km/h14,4 km/h1601 Lux
Thu 11, 04:48 PM24,6 ºC63,6 %959 hPa0,00 l/m2 315º NO 5,1 km/h14,4 km/h1535.5 Lux
Thu 11, 04:53 PM24,5 ºC62,6 %959 hPa0,00 l/m2 0º N 7,2 km/h18,5 km/h1415.6 Lux
Thu 11, 04:58 PM24,5 ºC63,2 %959 hPa0,00 l/m2 337,5º NNO 5,2 km/h9,3 km/h1360.7 Lux
Thu 11, 05:03 PM24,5 ºC64,4 %959 hPa0,00 l/m2 315º NO 9,2 km/h19,1 km/h759.2 Lux
Thu 11, 05:08 PM23,6 ºC66,2 %959 hPa0,00 l/m2 315º NO 9,7 km/h19,9 km/h1087.9 Lux
Thu 11, 05:13 PM23,4 ºC67,5 %959 hPa0,00 l/m2 225º SO 8,2 km/h24,6 km/h1087.9 Lux
Thu 11, 05:18 PM24,0 ºC64,9 %959 hPa0,00 l/m2 337,5º NNO 2,6 km/h11,3 km/h917.2 Lux
Thu 11, 05:23 PM23,8 ºC65,0 %959 hPa0,00 l/m2 225º SO 3,7 km/h16,2 km/h832.8 Lux
Thu 11, 05:28 PM23,5 ºC66,3 %959 hPa0,00 l/m2 337,5º NNO 2,4 km/h8,7 km/h887.7 Lux
Thu 11, 05:33 PM23,6 ºC65,6 %959 hPa0,00 l/m2 45º NE 3,0 km/h10,1 km/h887.7 Lux
Thu 11, 05:38 PM24,1 ºC64,5 %959 hPa0,00 l/m2 337,5º NNO 5,8 km/h14,4 km/h587.4 Lux
Thu 11, 05:43 PM23,6 ºC66,8 %959 hPa0,00 l/m2 337,5º NNO 1,0 km/h7,2 km/h694.7 Lux
Thu 11, 05:48 PM23,9 ºC67,4 %959 hPa0,00 l/m2 225º SO 3,3 km/h7,8 km/h782.6 Lux
Thu 11, 05:53 PM23,8 ºC64,6 %959 hPa0,00 l/m2 337,5º NNO 4,8 km/h8,7 km/h759.2 Lux
Thu 11, 05:58 PM23,7 ºC65,3 %959 hPa0,00 l/m2 337,5º NNO 1,8 km/h7,2 km/h603.5 Lux
Thu 11, 06:03 PM23,8 ºC62,8 %959 hPa0,00 l/m2 67,5º ENE 3,8 km/h11,6 km/h587.4 Lux
Thu 11, 06:08 PM23,5 ºC64,8 %959 hPa0,00 l/m2 247,5º OSO 2,2 km/h7,5 km/h759.2 Lux
Thu 11, 06:13 PM23,7 ºC65,7 %959 hPa0,00 l/m2 337,5º NNO 1,7 km/h6,4 km/h715.3 Lux
Thu 11, 06:18 PM24,5 ºC62,3 %959 hPa0,00 l/m2 337,5º NNO 0,6 km/h4,0 km/h694.7 Lux
Thu 11, 06:23 PM24,9 ºC60,5 %959 hPa0,00 l/m2 45º NE 2,3 km/h13,9 km/h715.3 Lux
Thu 11, 06:28 PM24,4 ºC61,6 %959 hPa0,00 l/m2 337,5º NNO 9,3 km/h27,5 km/h455.5 Lux
Thu 11, 06:33 PM23,5 ºC63,6 %959 hPa0,00 l/m2 45º NE 7,5 km/h15,6 km/h405.2 Lux
Thu 11, 06:38 PM23,2 ºC64,5 %959 hPa0,00 l/m2 157,5º SSE 4,1 km/h10,4 km/h414.6 Lux
Thu 11, 06:43 PM23,1 ºC67,0 %960 hPa0,00 l/m2 225º SO 2,4 km/h8,4 km/h396.1 Lux
Thu 11, 06:48 PM23,4 ºC65,1 %960 hPa0,00 l/m2 337,5º NNO 3,3 km/h13,0 km/h313 Lux
Thu 11, 06:53 PM23,0 ºC66,8 %960 hPa0,00 l/m2 315º NO 3,3 km/h12,1 km/h156.5 Lux
Thu 11, 06:58 PM22,6 ºC69,7 %960 hPa0,00 l/m2 247,5º OSO 0,7 km/h4,9 km/h115.2 Lux
Thu 11, 07:03 PM22,5 ºC69,8 %960 hPa0,00 l/m2 225º SO 0,9 km/h8,1 km/h96.7 Lux
Thu 11, 07:08 PM22,3 ºC71,4 %960 hPa0,00 l/m2 45º NE 2,8 km/h13,9 km/h78.7 Lux
Thu 11, 07:13 PM22,1 ºC72,7 %960 hPa0,00 l/m2 157,5º SSE 0,1 km/h0,6 km/h73.7 Lux
Thu 11, 07:18 PM22,0 ºC72,7 %960 hPa0,00 l/m2 337,5º NNO 0,0 km/h0,3 km/h62 Lux
Thu 11, 07:23 PM21,9 ºC73,0 %960 hPa0,00 l/m2 202,5º SSO 0,4 km/h3,7 km/h52.7 Lux
Thu 11, 07:28 PM21,9 ºC73,2 %960 hPa0,00 l/m2 135º SE 0,0 km/h0,0 km/h48.2 Lux
Thu 11, 07:33 PM21,9 ºC73,6 %960 hPa0,00 l/m2 0º N 0,4 km/h7,2 km/h34 Lux
Thu 11, 07:38 PM21,8 ºC73,7 %960 hPa0,00 l/m2 157,5º SSE 0,4 km/h4,9 km/h20.5 Lux
Thu 11, 07:43 PM21,7 ºC75,1 %960 hPa0,00 l/m2 157,5º SSE 0,0 km/h0,6 km/h9.4 Lux
Thu 11, 07:48 PM21,6 ºC75,7 %960 hPa0,00 l/m2 45º NE 0,0 km/h0,0 km/h6.3 Lux
Thu 11, 07:53 PM21,5 ºC76,1 %960 hPa0,00 l/m2 157,5º SSE 0,0 km/h0,0 km/h4.1 Lux
Thu 11, 07:58 PM21,4 ºC76,1 %960 hPa0,00 l/m2 67,5º ENE 0,0 km/h0,0 km/h3.6 Lux
Thu 11, 08:03 PM21,3 ºC77,0 %960 hPa0,00 l/m2 67,5º ENE 0,0 km/h0,0 km/h2.8 Lux
Thu 11, 08:08 PM21,1 ºC78,7 %960 hPa0,00 l/m2 67,5º ENE 0,0 km/h0,0 km/h2.4 Lux
Thu 11, 08:13 PM20,9 ºC78,3 %960 hPa0,00 l/m2 67,5º ENE 0,0 km/h0,0 km/h2.3 Lux
Thu 11, 08:18 PM20,9 ºC80,4 %960 hPa0,00 l/m2 0º N 0,0 km/h0,0 km/h2.3 Lux
Thu 11, 08:23 PM20,7 ºC79,4 %960 hPa0,00 l/m2 0º N 0,0 km/h0,0 km/h2.3 Lux
Thu 11, 08:28 PM20,7 ºC80,9 %961 hPa0,00 l/m2 337,5º NNO 2,7 km/h11,8 km/h2.2 Lux
Thu 11, 08:33 PM20,6 ºC80,6 %961 hPa0,00 l/m2 202,5º SSO 4,3 km/h9,8 km/h2.1 Lux
Thu 11, 08:38 PM20,6 ºC83,2 %961 hPa0,00 l/m2 337,5º NNO 3,5 km/h9,0 km/h2.3 Lux
Thu 11, 08:43 PM20,4 ºC84,2 %961 hPa0,00 l/m2 0º N 2,2 km/h8,7 km/h2.3 Lux
Thu 11, 08:48 PM20,3 ºC85,0 %961 hPa0,00 l/m2 337,5º NNO 3,3 km/h9,0 km/h2.4 Lux
Thu 11, 08:53 PM20,4 ºC82,1 %961 hPa0,00 l/m2 315º NO 4,7 km/h10,4 km/h2.3 Lux
Thu 11, 08:58 PM20,3 ºC80,1 %961 hPa0,00 l/m2 315º NO 7,3 km/h14,7 km/h2.2 Lux
Thu 11, 09:03 PM20,3 ºC78,0 %961 hPa0,00 l/m2 337,5º NNO 5,1 km/h9,8 km/h2.2 Lux
Thu 11, 09:08 PM20,2 ºC77,7 %961 hPa0,00 l/m2 0º N 5,8 km/h15,6 km/h2.2 Lux
Thu 11, 09:13 PM20,2 ºC77,1 %961 hPa0,00 l/m2 67,5º ENE 2,4 km/h9,8 km/h2.4 Lux
Thu 11, 09:18 PM20,1 ºC78,4 %961 hPa0,00 l/m2 45º NE 1,5 km/h6,4 km/h2.3 Lux
Thu 11, 09:23 PM20,0 ºC78,6 %961 hPa0,00 l/m2 337,5º NNO 2,4 km/h7,5 km/h2.3 Lux
Thu 11, 09:28 PM20,0 ºC78,5 %962 hPa0,00 l/m2 337,5º NNO 0,8 km/h5,8 km/h2.4 Lux
Thu 11, 09:33 PM19,9 ºC78,8 %962 hPa0,00 l/m2 0º N 0,5 km/h3,2 km/h2.3 Lux
Thu 11, 09:38 PM20,0 ºC79,2 %962 hPa0,00 l/m2 0º N 0,0 km/h0,3 km/h2.3 Lux
Thu 11, 09:43 PM19,7 ºC80,2 %962 hPa0,00 l/m2 45º NE 0,6 km/h4,3 km/h2.2 Lux
Thu 11, 09:48 PM19,6 ºC81,4 %962 hPa0,00 l/m2 337,5º NNO 4,0 km/h11,6 km/h2.3 Lux
Thu 11, 09:53 PM19,7 ºC81,6 %962 hPa0,00 l/m2 0º N 2,8 km/h9,3 km/h2.1 Lux
Thu 11, 09:58 PM19,6 ºC82,3 %962 hPa0,00 l/m2 45º NE 0,0 km/h0,0 km/h2.4 Lux
Thu 11, 10:03 PM19,5 ºC83,8 %962 hPa0,00 l/m2 67,5º ENE 0,0 km/h0,0 km/h2.1 Lux
Thu 11, 10:08 PM19,3 ºC85,1 %962 hPa0,00 l/m2 45º NE 0,0 km/h0,0 km/h2.2 Lux
Thu 11, 10:13 PM19,2 ºC85,6 %962 hPa0,00 l/m2 67,5º ENE 0,0 km/h0,0 km/h2.3 Lux
Thu 11, 10:18 PM19,2 ºC85,6 %962 hPa0,00 l/m2 67,5º ENE 0,0 km/h0,0 km/h2.2 Lux
Thu 11, 10:23 PM19,2 ºC85,5 %962 hPa0,00 l/m2 67,5º ENE 0,0 km/h0,0 km/h2.2 Lux
Thu 11, 10:28 PM19,3 ºC84,5 %962 hPa0,00 l/m2 45º NE 0,0 km/h0,0 km/h2.1 Lux
Thu 11, 10:33 PM19,4 ºC84,5 %963 hPa0,00 l/m2 45º NE 0,0 km/h0,3 km/h2.1 Lux
Thu 11, 10:38 PM19,2 ºC85,8 %963 hPa0,00 l/m2 67,5º ENE 0,0 km/h0,0 km/h2.3 Lux
Thu 11, 10:43 PM19,2 ºC86,5 %963 hPa0,00 l/m2 90º E 0,0 km/h0,0 km/h2.4 Lux
Thu 11, 10:48 PM19,1 ºC87,6 %963 hPa0,00 l/m2 67,5º ENE 0,0 km/h0,0 km/h2.3 Lux
Thu 11, 10:53 PM19,3 ºC87,2 %963 hPa0,00 l/m2 67,5º ENE 0,0 km/h0,0 km/h2.3 Lux
Thu 11, 10:58 PM19,3 ºC87,6 %963 hPa0,00 l/m2 67,5º ENE 0,0 km/h0,0 km/h2.3 Lux
Thu 11, 11:03 PM19,3 ºC88,0 %963 hPa0,00 l/m2 67,5º ENE 0,0 km/h0,0 km/h2.2 Lux
Thu 11, 11:08 PM19,0 ºC89,7 %963 hPa0,00 l/m2 67,5º ENE 0,0 km/h0,0 km/h2.3 Lux
Thu 11, 11:13 PM18,9 ºC90,9 %963 hPa0,00 l/m2 67,5º ENE 0,0 km/h0,0 km/h2.1 Lux
Thu 11, 11:18 PM18,6 ºC92,3 %963 hPa0,00 l/m2 67,5º ENE 0,0 km/h0,0 km/h2.1 Lux
Thu 11, 11:23 PM18,5 ºC93,5 %963 hPa0,00 l/m2 67,5º ENE 0,0 km/h0,0 km/h2.3 Lux
Thu 11, 11:28 PM18,7 ºC92,6 %963 hPa0,00 l/m2 45º NE 0,0 km/h0,0 km/h2.2 Lux
Thu 11, 11:33 PM18,6 ºC92,1 %963 hPa0,00 l/m2 45º NE 0,0 km/h0,0 km/h2.1 Lux
Thu 11, 11:38 PM18,5 ºC93,0 %963 hPa0,00 l/m2 45º NE 0,0 km/h0,0 km/h2.3 Lux
Thu 11, 11:43 PM18,5 ºC92,7 %963 hPa0,00 l/m2 45º NE 0,0 km/h0,0 km/h2.3 Lux
Thu 11, 11:48 PM18,4 ºC92,7 %963 hPa0,00 l/m2 45º NE 0,0 km/h0,0 km/h2.2 Lux
Thu 11, 11:53 PM18,3 ºC93,6 %963 hPa0,00 l/m2 0º N 0,0 km/h0,3 km/h2.3 Lux
Thu 11, 11:58 PM18,2 ºC93,9 %963 hPa0,00 l/m2 0º N 0,0 km/h0,3 km/h2.3 Lux
Fri 12, 12:03 AM18,2 ºC93,5 %963 hPa0,00 l/m2 337,5º NNO 0,0 km/h0,0 km/h2.1 Lux
Fri 12, 12:08 AM18,1 ºC93,7 %963 hPa0,00 l/m2 45º NE 0,0 km/h0,3 km/h2.1 Lux
Fri 12, 12:13 AM18,1 ºC93,6 %963 hPa0,00 l/m2 45º NE 0,1 km/h2,0 km/h2.2 Lux
Fri 12, 12:18 AM18,0 ºC94,0 %963 hPa0,00 l/m2 45º NE 0,0 km/h0,9 km/h2.3 Lux
Fri 12, 12:23 AM17,9 ºC94,6 %963 hPa0,00 l/m2 45º NE 0,1 km/h0,9 km/h2.2 Lux
Fri 12, 12:28 AM17,9 ºC94,7 %963 hPa0,00 l/m2 337,5º NNO 0,3 km/h2,3 km/h2.3 Lux
Fri 12, 12:33 AM17,9 ºC94,6 %963 hPa0,00 l/m2 45º NE 0,0 km/h0,3 km/h2.3 Lux
Fri 12, 12:38 AM17,8 ºC95,1 %963 hPa0,00 l/m2 0º N 0,0 km/h0,0 km/h2.4 Lux
Fri 12, 12:43 AM17,7 ºC95,8 %963 hPa0,00 l/m2 247,5º OSO 0,0 km/h0,3 km/h2.4 Lux
Fri 12, 12:48 AM17,7 ºC95,9 %963 hPa0,00 l/m2 0º N 0,0 km/h0,3 km/h2.3 Lux
Fri 12, 12:53 AM17,7 ºC95,7 %963 hPa0,00 l/m2 337,5º NNO 0,0 km/h0,0 km/h2.3 Lux
Fri 12, 12:58 AM17,7 ºC96,1 %963 hPa0,00 l/m2 315º NO 0,0 km/h0,0 km/h2.3 Lux
Fri 12, 01:03 AM17,7 ºC96,0 %963 hPa0,00 l/m2 337,5º NNO 0,0 km/h0,0 km/h2.1 Lux
Fri 12, 01:08 AM17,8 ºC95,7 %963 hPa0,00 l/m2 0º N 0,0 km/h0,0 km/h2.3 Lux
Fri 12, 01:13 AM17,8 ºC95,5 %963 hPa0,00 l/m2 0º N 0,0 km/h0,0 km/h2.2 Lux
Fri 12, 01:18 AM17,8 ºC95,6 %963 hPa0,00 l/m2 0º N 0,0 km/h0,3 km/h2.2 Lux
Fri 12, 01:23 AM17,7 ºC95,6 %963 hPa0,00 l/m2 247,5º OSO 0,0 km/h0,0 km/h2.2 Lux
Fri 12, 01:28 AM17,7 ºC95,8 %963 hPa0,00 l/m2 0º N 0,0 km/h0,3 km/h2.3 Lux
Fri 12, 01:33 AM17,7 ºC96,2 %963 hPa0,00 l/m2 45º NE 0,0 km/h0,0 km/h2.1 Lux
Fri 12, 01:38 AM17,7 ºC96,4 %963 hPa0,00 l/m2 0º N 0,0 km/h0,3 km/h2.3 Lux
Fri 12, 01:43 AM17,6 ºC96,6 %963 hPa0,00 l/m2 67,5º ENE 0,0 km/h0,0 km/h2.3 Lux
Fri 12, 01:48 AM17,6 ºC96,7 %963 hPa0,00 l/m2 0º N 0,0 km/h0,3 km/h2.1 Lux
Fri 12, 01:53 AM17,7 ºC96,4 %963 hPa0,00 l/m2 67,5º ENE 0,0 km/h0,3 km/h2.3 Lux
Fri 12, 01:58 AM17,7 ºC96,3 %963 hPa0,00 l/m2 337,5º NNO 0,0 km/h0,0 km/h2.2 Lux
Fri 12, 02:03 AM17,7 ºC96,7 %963 hPa0,00 l/m2 337,5º NNO 0,0 km/h0,3 km/h2.3 Lux
Fri 12, 02:08 AM17,6 ºC97,0 %963 hPa0,00 l/m2 0º N 0,0 km/h0,0 km/h2.3 Lux
Fri 12, 02:13 AM17,6 ºC97,3 %963 hPa0,00 l/m2 0º N 0,0 km/h0,0 km/h2.3 Lux
Fri 12, 02:18 AM17,6 ºC97,0 %963 hPa0,00 l/m2 0º N 0,0 km/h0,0 km/h2.2 Lux
Fri 12, 02:23 AM17,2 ºC98,6 %963 hPa0,00 l/m2 0º N 0,0 km/h0,0 km/h2.3 Lux
Fri 12, 02:28 AM17,1 ºC100,0 %963 hPa0,00 l/m2 0º N 0,0 km/h0,0 km/h2.2 Lux
Fri 12, 02:33 AM17,1 ºC100,0 %963 hPa0,00 l/m2 67,5º ENE 0,0 km/h0,0 km/h2.3 Lux
Fri 12, 02:38 AM17,4 ºC98,8 %963 hPa0,00 l/m2 0º N 0,0 km/h0,3 km/h2.2 Lux
Fri 12, 02:43 AM17,3 ºC98,6 %963 hPa0,00 l/m2 45º NE 0,0 km/h0,0 km/h2.3 Lux
Fri 12, 02:48 AM17,1 ºC99,8 %963 hPa0,00 l/m2 0º N 0,0 km/h0,0 km/h2.1 Lux
Fri 12, 02:53 AM17,1 ºC100,0 %963 hPa0,00 l/m2 45º NE 0,0 km/h0,0 km/h2.3 Lux
Fri 12, 02:58 AM17,1 ºC100,0 %963 hPa0,00 l/m2 0º N 0,0 km/h0,0 km/h2.3 Lux
Fri 12, 03:03 AM17,1 ºC100,0 %963 hPa0,00 l/m2 225º SO 0,0 km/h0,0 km/h2.1 Lux
Fri 12, 03:08 AM17,1 ºC99,9 %963 hPa0,00 l/m2 247,5º OSO 0,0 km/h0,0 km/h2.1 Lux
Fri 12, 03:13 AM17,2 ºC98,9 %963 hPa0,00 l/m2 337,5º NNO 0,3 km/h2,9 km/h2.3 Lux
Fri 12, 03:18 AM17,1 ºC98,6 %963 hPa0,00 l/m2 0º N 0,0 km/h0,3 km/h2.3 Lux
Fri 12, 03:23 AM16,9 ºC99,2 %963 hPa0,00 l/m2 337,5º NNO 0,0 km/h0,3 km/h2.1 Lux
Fri 12, 03:28 AM16,9 ºC99,8 %963 hPa0,00 l/m2 0º N 0,0 km/h0,3 km/h2.3 Lux
Fri 12, 03:33 AM16,9 ºC99,6 %963 hPa0,00 l/m2 157,5º SSE 0,0 km/h0,3 km/h2.2 Lux
Fri 12, 03:38 AM17,0 ºC99,6 %963 hPa0,00 l/m2 0º N 0,0 km/h0,3 km/h2.3 Lux
Fri 12, 03:43 AM17,0 ºC99,0 %963 hPa0,00 l/m2 337,5º NNO 0,0 km/h0,3 km/h2.2 Lux
Fri 12, 03:48 AM17,0 ºC99,3 %963 hPa0,00 l/m2 0º N 0,0 km/h0,3 km/h2.2 Lux
Fri 12, 03:53 AM17,0 ºC99,3 %963 hPa0,00 l/m2 337,5º NNO 0,0 km/h0,3 km/h2.2 Lux
Fri 12, 03:58 AM16,9 ºC99,1 %963 hPa0,00 l/m2 225º SO 0,0 km/h0,3 km/h2.1 Lux
Fri 12, 04:03 AM16,9 ºC99,5 %963 hPa0,00 l/m2 315º NO 0,0 km/h0,0 km/h2.2 Lux
Fri 12, 04:08 AM16,8 ºC99,8 %963 hPa0,00 l/m2 337,5º NNO 0,1 km/h1,2 km/h2.2 Lux
Fri 12, 04:13 AM16,8 ºC99,4 %963 hPa0,00 l/m2 0º N 0,1 km/h0,9 km/h2.2 Lux
Fri 12, 04:18 AM16,8 ºC99,5 %963 hPa0,00 l/m2 0º N 0,0 km/h0,0 km/h2.3 Lux
Fri 12, 04:23 AM16,8 ºC99,5 %963 hPa0,00 l/m2 337,5º NNO 0,0 km/h0,3 km/h2.2 Lux
Fri 12, 04:28 AM16,9 ºC99,4 %963 hPa0,00 l/m2 45º NE 0,0 km/h0,3 km/h2.1 Lux
Fri 12, 04:33 AM16,8 ºC100,0 %963 hPa0,00 l/m2 0º N 0,0 km/h0,3 km/h2.3 Lux
Fri 12, 04:38 AM16,7 ºC100,0 %963 hPa0,00 l/m2 45º NE 0,0 km/h0,3 km/h2.1 Lux
Fri 12, 04:43 AM16,6 ºC100,0 %963 hPa0,00 l/m2 45º NE 0,0 km/h0,0 km/h2.2 Lux
Fri 12, 04:48 AM16,6 ºC100,0 %963 hPa0,00 l/m2 0º N 0,1 km/h1,7 km/h2.3 Lux
Fri 12, 04:53 AM16,5 ºC100,0 %963 hPa0,00 l/m2 225º SO 0,0 km/h0,3 km/h2.3 Lux
Fri 12, 04:58 AM16,5 ºC100,0 %963 hPa0,00 l/m2 225º SO 0,0 km/h0,6 km/h2.2 Lux
Fri 12, 05:03 AM16,6 ºC100,0 %963 hPa0,00 l/m2 0º N 0,0 km/h0,3 km/h2.2 Lux
Fri 12, 05:08 AM16,6 ºC100,0 %963 hPa0,00 l/m2 337,5º NNO 0,0 km/h0,3 km/h2.2 Lux
Fri 12, 05:13 AM16,5 ºC100,0 %963 hPa0,00 l/m2 315º NO 0,1 km/h0,9 km/h2.3 Lux
Fri 12, 05:18 AM16,5 ºC100,0 %963 hPa0,00 l/m2 0º N 0,0 km/h0,6 km/h2.2 Lux
Fri 12, 05:23 AM16,6 ºC100,0 %963 hPa0,00 l/m2 315º NO 0,0 km/h0,3 km/h2.3 Lux
Fri 12, 05:28 AM16,6 ºC100,0 %963 hPa0,00 l/m2 225º SO 0,0 km/h0,0 km/h2.2 Lux
Fri 12, 05:33 AM16,5 ºC100,0 %963 hPa0,00 l/m2 337,5º NNO 0,0 km/h0,0 km/h2.2 Lux
Fri 12, 05:38 AM16,5 ºC100,0 %963 hPa0,00 l/m2 45º NE 0,0 km/h0,3 km/h2.2 Lux
Fri 12, 05:43 AM16,5 ºC100,0 %963 hPa0,00 l/m2 157,5º SSE 0,0 km/h0,3 km/h2.3 Lux
Fri 12, 05:48 AM16,6 ºC99,9 %963 hPa0,00 l/m2 0º N 0,1 km/h1,2 km/h2.2 Lux
Fri 12, 05:53 AM16,6 ºC99,9 %963 hPa0,00 l/m2 0º N 0,0 km/h0,3 km/h2.2 Lux
Fri 12, 05:58 AM16,6 ºC100,0 %963 hPa0,00 l/m2 0º N 0,0 km/h0,0 km/h2.3 Lux
Fri 12, 06:03 AM16,4 ºC100,0 %963 hPa0,00 l/m2 67,5º ENE 0,0 km/h0,9 km/h2.1 Lux
Fri 12, 06:08 AM16,4 ºC100,0 %963 hPa0,00 l/m2 45º NE 0,0 km/h0,3 km/h2.3 Lux
Fri 12, 06:13 AM16,3 ºC100,0 %963 hPa0,00 l/m2 45º NE 0,1 km/h1,2 km/h2.1 Lux
Fri 12, 06:18 AM16,2 ºC100,0 %963 hPa0,00 l/m2 337,5º NNO 0,0 km/h0,0 km/h2.2 Lux
Fri 12, 06:23 AM16,2 ºC100,0 %963 hPa0,00 l/m2 0º N 0,0 km/h0,0 km/h2.4 Lux
Fri 12, 06:28 AM16,3 ºC100,0 %963 hPa0,00 l/m2 337,5º NNO 0,0 km/h0,0 km/h2.3 Lux
Fri 12, 06:33 AM16,4 ºC100,0 %963 hPa0,00 l/m2 0º N 0,0 km/h0,9 km/h2.2 Lux
Fri 12, 06:38 AM16,4 ºC100,0 %963 hPa0,00 l/m2 0º N 0,0 km/h0,0 km/h2.2 Lux
Fri 12, 06:43 AM16,4 ºC100,0 %963 hPa0,00 l/m2 45º NE 0,1 km/h0,9 km/h2.2 Lux
Fri 12, 06:48 AM16,3 ºC100,0 %963 hPa0,00 l/m2 337,5º NNO 0,1 km/h0,9 km/h2.3 Lux
Fri 12, 06:53 AM16,2 ºC100,0 %963 hPa0,00 l/m2 0º N 0,0 km/h0,0 km/h2.4 Lux
Fri 12, 06:58 AM14,8 ºC100,0 %963 hPa0,00 l/m2 45º NE 0,0 km/h0,0 km/h2.1 Lux
Fri 12, 07:03 AM14,3 ºC100,0 %963 hPa0,00 l/m2 0º N 0,0 km/h0,0 km/h2.3 Lux
Fri 12, 07:08 AM15,3 ºC100,0 %963 hPa0,00 l/m2 0º N 0,0 km/h0,0 km/h2.2 Lux
Fri 12, 07:13 AM15,5 ºC100,0 %963 hPa0,00 l/m2 0º N 0,0 km/h0,0 km/h2.3 Lux
Fri 12, 07:18 AM15,7 ºC100,0 %963 hPa0,00 l/m2 0º N 0,0 km/h0,0 km/h2.1 Lux
Fri 12, 07:23 AM15,7 ºC100,0 %963 hPa0,00 l/m2 45º NE 0,0 km/h0,0 km/h2.3 Lux
Fri 12, 07:28 AM15,9 ºC100,0 %963 hPa0,00 l/m2 0º N 0,0 km/h0,0 km/h2.2 Lux
Fri 12, 07:33 AM16,0 ºC100,0 %963 hPa0,00 l/m2 0º N 0,0 km/h0,0 km/h2.3 Lux
Fri 12, 07:38 AM16,0 ºC100,0 %963 hPa0,00 l/m2 337,5º NNO 0,1 km/h0,3 km/h2.2 Lux
Fri 12, 07:43 AM16,1 ºC100,0 %963 hPa0,00 l/m2 337,5º NNO 0,1 km/h0,6 km/h2.3 Lux
Fri 12, 07:48 AM16,0 ºC100,0 %964 hPa0,00 l/m2 0º N 0,0 km/h0,6 km/h2.2 Lux
Fri 12, 07:53 AM16,1 ºC100,0 %964 hPa0,00 l/m2 45º NE 0,0 km/h0,3 km/h2.3 Lux
Fri 12, 07:58 AM15,5 ºC100,0 %964 hPa0,00 l/m2 337,5º NNO 0,0 km/h0,0 km/h2.4 Lux
Fri 12, 08:03 AM15,3 ºC100,0 %964 hPa0,00 l/m2 157,5º SSE 0,0 km/h0,0 km/h2.5 Lux
Fri 12, 08:08 AM15,1 ºC100,0 %964 hPa0,00 l/m2 0º N 0,0 km/h0,0 km/h3 Lux
Fri 12, 08:13 AM14,8 ºC100,0 %964 hPa0,00 l/m2 0º N 0,0 km/h0,0 km/h5 Lux
Fri 12, 08:18 AM14,7 ºC100,0 %964 hPa0,00 l/m2 135º SE 0,0 km/h0,0 km/h6.5 Lux
Fri 12, 08:23 AM14,7 ºC100,0 %964 hPa0,00 l/m2 0º N 0,0 km/h0,0 km/h11.6 Lux
Fri 12, 08:28 AM14,9 ºC100,0 %964 hPa0,00 l/m2 0º N 0,0 km/h0,0 km/h17.5 Lux
Fri 12, 08:33 AM15,4 ºC100,0 %964 hPa0,00 l/m2 0º N 0,0 km/h0,0 km/h24 Lux
Fri 12, 08:38 AM15,5 ºC100,0 %964 hPa0,00 l/m2 0º N 0,0 km/h0,0 km/h33.2 Lux
Fri 12, 08:43 AM15,3 ºC100,0 %964 hPa0,00 l/m2 45º NE 0,0 km/h0,0 km/h45.8 Lux
Fri 12, 08:48 AM15,6 ºC100,0 %964 hPa0,00 l/m2 45º NE 0,0 km/h0,3 km/h52.7 Lux
Fri 12, 08:53 AM15,9 ºC100,0 %964 hPa0,00 l/m2 0º N 0,0 km/h0,0 km/h56.3 Lux
Fri 12, 08:58 AM16,0 ºC100,0 %964 hPa0,00 l/m2 0º N 0,0 km/h0,0 km/h67.1 Lux
Fri 12, 09:03 AM14,9 ºC100,0 %964 hPa0,00 l/m2 0º N 0,0 km/h0,0 km/h79.6 Lux
Fri 12, 09:08 AM15,1 ºC100,0 %964 hPa0,00 l/m2 0º N 0,0 km/h0,0 km/h92.2 Lux
Fri 12, 09:13 AM15,5 ºC100,0 %965 hPa0,00 l/m2 157,5º SSE 0,0 km/h0,0 km/h105.4 Lux
Fri 12, 09:18 AM15,7 ºC100,0 %965 hPa0,00 l/m2 0º N 0,0 km/h0,0 km/h116.7 Lux
Fri 12, 09:23 AM15,8 ºC100,0 %965 hPa0,00 l/m2 0º N 0,0 km/h0,0 km/h116.7 Lux
Fri 12, 09:28 AM15,7 ºC100,0 %965 hPa0,00 l/m2 0º N 0,0 km/h0,0 km/h124.7 Lux
Fri 12, 09:33 AM15,8 ºC100,0 %965 hPa0,00 l/m2 0º N 0,0 km/h0,0 km/h145.4 Lux
Fri 12, 09:38 AM15,8 ºC100,0 %965 hPa0,00 l/m2 0º N 0,0 km/h0,0 km/h163.7 Lux
Fri 12, 09:43 AM15,7 ºC100,0 %965 hPa0,00 l/m2 0º N 0,1 km/h0,6 km/h171.4 Lux
Fri 12, 09:48 AM16,0 ºC100,0 %965 hPa0,00 l/m2 45º NE 0,0 km/h0,0 km/h168.8 Lux
Fri 12, 09:53 AM15,6 ºC100,0 %965 hPa0,00 l/m2 0º N 0,0 km/h0,0 km/h163.7 Lux
Fri 12, 09:58 AM15,8 ºC100,0 %965 hPa0,00 l/m2 0º N 0,0 km/h0,3 km/h201.3 Lux
Fri 12, 10:03 AM16,7 ºC100,0 %965 hPa0,00 l/m2 0º N 0,0 km/h0,3 km/h223 Lux
Fri 12, 10:08 AM17,3 ºC99,5 %965 hPa0,00 l/m2 337,5º NNO 0,1 km/h0,9 km/h252.9 Lux
Fri 12, 10:13 AM17,6 ºC97,6 %965 hPa0,00 l/m2 45º NE 0,4 km/h5,5 km/h306.7 Lux
Fri 12, 10:18 AM18,1 ºC95,4 %965 hPa0,00 l/m2 0º N 0,2 km/h2,0 km/h347.3 Lux
Fri 12, 10:23 AM18,4 ºC93,9 %965 hPa0,00 l/m2 45º NE 0,0 km/h0,0 km/h603.5 Lux
Fri 12, 10:28 AM19,8 ºC87,2 %965 hPa0,00 l/m2 67,5º ENE 0,0 km/h0,3 km/h980.4 Lux
Fri 12, 10:33 AM21,0 ºC80,1 %965 hPa0,00 l/m2 0º N 0,0 km/h0,0 km/h1169.2 Lux
Fri 12, 10:38 AM22,5 ºC72,0 %965 hPa0,00 l/m2 0º N 0,1 km/h0,6 km/h1473.8 Lux
Fri 12, 10:43 AM21,2 ºC76,4 %965 hPa0,00 l/m2 0º N 0,1 km/h0,9 km/h1601 Lux
Fri 12, 10:48 AM20,3 ºC82,3 %965 hPa0,00 l/m2 45º NE 1,0 km/h7,2 km/h1744.7 Lux
Fri 12, 10:53 AM20,1 ºC83,5 %965 hPa0,00 l/m2 0º N 0,0 km/h0,6 km/h1823.7 Lux
Fri 12, 10:58 AM21,3 ºC76,0 %965 hPa0,00 l/m2 0º N 0,8 km/h5,5 km/h1670.6 Lux
Fri 12, 11:03 AM20,7 ºC79,9 %966 hPa0,00 l/m2 67,5º ENE 0,0 km/h0,0 km/h1908 Lux
Fri 12, 11:08 AM21,0 ºC79,5 %966 hPa0,00 l/m2 0º N 0,0 km/h0,0 km/h1908 Lux
Fri 12, 11:13 AM21,1 ºC77,8 %966 hPa0,00 l/m2 337,5º NNO 0,0 km/h0,0 km/h1998 Lux
Fri 12, 11:18 AM21,0 ºC77,4 %966 hPa0,00 l/m2 45º NE 0,2 km/h2,3 km/h1823.7 Lux
Fri 12, 11:23 AM21,6 ºC75,9 %966 hPa0,00 l/m2 45º NE 0,0 km/h0,3 km/h1823.7 Lux
Fri 12, 11:28 AM22,2 ºC72,6 %966 hPa0,00 l/m2 0º N 0,0 km/h0,0 km/h2094.2 Lux
Fri 12, 11:33 AM22,2 ºC71,4 %966 hPa0,00 l/m2 67,5º ENE 0,0 km/h0,0 km/h2197.4 Lux
Fri 12, 11:38 AM23,4 ºC65,9 %966 hPa0,00 l/m2 337,5º NNO 0,0 km/h0,0 km/h2554.9 Lux
Fri 12, 11:43 AM23,6 ºC63,6 %966 hPa0,00 l/m2 45º NE 0,0 km/h0,0 km/h2197.4 Lux
Fri 12, 11:48 AM23,5 ºC67,5 %966 hPa0,00 l/m2 67,5º ENE 0,0 km/h0,0 km/h2426.9 Lux
Fri 12, 11:53 AM24,7 ºC61,2 %966 hPa0,00 l/m2 67,5º ENE 0,0 km/h0,3 km/h2426.9 Lux
Fri 12, 11:58 AM24,6 ºC61,1 %966 hPa0,00 l/m2 45º NE 0,0 km/h0,0 km/h2308 Lux
Fri 12, 12:03 PM24,6 ºC61,9 %966 hPa0,00 l/m2 0º N 0,0 km/h0,0 km/h2554.9 Lux
Fri 12, 12:08 PM25,1 ºC58,3 %966 hPa0,00 l/m2 135º SE 0,0 km/h0,3 km/h2426.9 Lux
Fri 12, 12:13 PM25,0 ºC59,4 %966 hPa0,00 l/m2 337,5º NNO 0,4 km/h8,1 km/h2554.9 Lux
Fri 12, 12:18 PM26,1 ºC53,2 %966 hPa0,00 l/m2 337,5º NNO 4,7 km/h10,1 km/h2554.9 Lux
Fri 12, 12:23 PM23,2 ºC65,9 %966 hPa0,00 l/m2 0º N 3,4 km/h9,8 km/h2554.9 Lux
Fri 12, 12:28 PM23,5 ºC66,2 %966 hPa0,00 l/m2 0º N 2,0 km/h11,6 km/h2692.9 Lux
Fri 12, 12:33 PM24,2 ºC62,4 %966 hPa0,00 l/m2 337,5º NNO 4,2 km/h10,4 km/h2841.9 Lux
Fri 12, 12:38 PM23,7 ºC62,4 %966 hPa0,00 l/m2 337,5º NNO 2,3 km/h12,4 km/h2692.9 Lux
Fri 12, 12:43 PM24,7 ºC57,7 %966 hPa0,00 l/m2 45º NE 4,6 km/h14,4 km/h2692.9 Lux
Fri 12, 12:48 PM25,3 ºC56,4 %966 hPa0,00 l/m2 315º NO 2,9 km/h11,6 km/h3003.2 Lux
Fri 12, 12:53 PM25,4 ºC56,0 %966 hPa0,00 l/m2 67,5º ENE 5,8 km/h10,7 km/h2841.9 Lux
Fri 12, 12:58 PM25,2 ºC58,2 %966 hPa0,00 l/m2 67,5º ENE 1,9 km/h12,1 km/h3003.2 Lux
Fri 12, 01:03 PM25,6 ºC56,0 %965 hPa0,00 l/m2 337,5º NNO 2,2 km/h9,8 km/h3003.2 Lux
Fri 12, 01:08 PM25,7 ºC56,6 %965 hPa0,00 l/m2 337,5º NNO 0,8 km/h6,4 km/h3003.2 Lux
Fri 12, 01:13 PM26,2 ºC54,8 %965 hPa0,00 l/m2 337,5º NNO 5,7 km/h11,3 km/h3368.1 Lux
Fri 12, 01:18 PM25,3 ºC56,6 %965 hPa0,00 l/m2 337,5º NNO 0,8 km/h7,5 km/h3178.1 Lux
Fri 12, 01:23 PM27,3 ºC50,3 %965 hPa0,00 l/m2 337,5º NNO 6,1 km/h12,7 km/h2841.9 Lux
Fri 12, 01:28 PM25,6 ºC56,0 %965 hPa0,00 l/m2 337,5º NNO 3,0 km/h12,1 km/h2554.9 Lux
Fri 12, 01:33 PM26,8 ºC53,5 %965 hPa0,00 l/m2 247,5º OSO 0,3 km/h1,4 km/h2841.9 Lux
Fri 12, 01:38 PM27,0 ºC50,9 %965 hPa0,00 l/m2 337,5º NNO 0,0 km/h0,3 km/h2554.9 Lux
Fri 12, 01:43 PM27,5 ºC49,4 %965 hPa0,00 l/m2 337,5º NNO 4,2 km/h10,4 km/h2692.9 Lux
Fri 12, 01:48 PM26,3 ºC53,0 %965 hPa0,00 l/m2 315º NO 4,9 km/h15,6 km/h2426.9 Lux
Fri 12, 01:53 PM26,3 ºC52,7 %965 hPa0,00 l/m2 0º N 1,7 km/h11,0 km/h2692.9 Lux
Fri 12, 01:58 PM26,9 ºC50,2 %965 hPa0,00 l/m2 247,5º OSO 8,1 km/h16,5 km/h2554.9 Lux
Fri 12, 02:03 PM26,3 ºC52,9 %965 hPa0,00 l/m2 337,5º NNO 4,1 km/h12,4 km/h3003.2 Lux
Fri 12, 02:08 PM26,4 ºC51,4 %965 hPa0,00 l/m2 337,5º NNO 2,5 km/h9,3 km/h2841.9 Lux
Fri 12, 02:13 PM27,3 ºC49,4 %965 hPa0,00 l/m2 337,5º NNO 7,4 km/h13,9 km/h3003.2 Lux
Fri 12, 02:18 PM26,8 ºC50,6 %965 hPa0,00 l/m2 45º NE 3,5 km/h9,3 km/h3003.2 Lux
Fri 12, 02:23 PM27,6 ºC48,9 %965 hPa0,00 l/m2 337,5º NNO 3,4 km/h14,4 km/h2841.9 Lux
Fri 12, 02:28 PM27,7 ºC47,5 %965 hPa0,00 l/m2 0º N 8,5 km/h13,9 km/h2841.9 Lux
Fri 12, 02:33 PM27,1 ºC49,4 %965 hPa0,00 l/m2 315º NO 2,5 km/h6,9 km/h3003.2 Lux
Fri 12, 02:38 PM27,5 ºC47,9 %964 hPa0,00 l/m2 337,5º NNO 9,7 km/h20,8 km/h3178.1 Lux
Fri 12, 02:43 PM27,6 ºC48,0 %964 hPa0,00 l/m2 337,5º NNO 7,8 km/h36,1 km/h2841.9 Lux
Fri 12, 02:48 PM27,7 ºC47,5 %964 hPa0,00 l/m2 337,5º NNO 7,7 km/h15,3 km/h3003.2 Lux
Fri 12, 02:53 PM27,2 ºC49,2 %964 hPa0,00 l/m2 67,5º ENE 2,1 km/h9,3 km/h2554.9 Lux
Fri 12, 02:58 PM28,7 ºC45,4 %964 hPa0,00 l/m2 337,5º NNO 1,2 km/h5,5 km/h2554.9 Lux
Fri 12, 03:03 PM28,4 ºC45,8 %964 hPa0,00 l/m2 337,5º NNO 8,7 km/h18,5 km/h2692.9 Lux
Fri 12, 03:08 PM27,2 ºC48,1 %964 hPa0,00 l/m2 0º N 7,6 km/h17,9 km/h2692.9 Lux
Fri 12, 03:13 PM27,8 ºC47,4 %964 hPa0,00 l/m2 157,5º SSE 6,7 km/h17,4 km/h2692.9 Lux
Fri 12, 03:18 PM28,1 ºC44,5 %964 hPa0,00 l/m2 135º SE 2,7 km/h6,9 km/h2554.9 Lux
Fri 12, 03:23 PM28,5 ºC45,7 %964 hPa0,00 l/m2 0º N 4,0 km/h15,6 km/h2554.9 Lux
Fri 12, 03:28 PM28,2 ºC45,0 %964 hPa0,00 l/m2 45º NE 3,8 km/h10,4 km/h2197.4 Lux
Fri 12, 03:33 PM28,7 ºC43,3 %964 hPa0,00 l/m2 0º N 5,5 km/h16,2 km/h2197.4 Lux
Fri 12, 03:38 PM28,3 ºC44,6 %964 hPa0,00 l/m2 337,5º NNO 2,2 km/h13,0 km/h2197.4 Lux
Fri 12, 03:43 PM28,8 ºC43,0 %964 hPa0,00 l/m2 0º N 5,1 km/h16,8 km/h1908 Lux
Fri 12, 03:48 PM28,5 ºC43,6 %964 hPa0,00 l/m2 0º N 4,0 km/h11,6 km/h1998 Lux
Fri 12, 03:53 PM28,0 ºC44,6 %964 hPa0,00 l/m2 67,5º ENE 0,8 km/h6,7 km/h1823.7 Lux
Fri 12, 03:58 PM28,8 ºC43,7 %964 hPa0,00 l/m2 135º SE 2,4 km/h11,6 km/h1823.7 Lux
Fri 12, 04:03 PM28,9 ºC42,8 %964 hPa0,00 l/m2 0º N 2,7 km/h11,0 km/h1601 Lux
Fri 12, 04:08 PM28,5 ºC43,4 %964 hPa0,00 l/m2 337,5º NNO 5,6 km/h12,7 km/h1744.7 Lux
Fri 12, 04:13 PM28,4 ºC44,4 %964 hPa0,00 l/m2 315º NO 3,2 km/h11,6 km/h1823.7 Lux
Fri 12, 04:18 PM29,0 ºC42,9 %964 hPa0,00 l/m2 337,5º NNO 4,1 km/h12,4 km/h1473.8 Lux
Fri 12, 04:23 PM28,0 ºC45,1 %964 hPa0,00 l/m2 337,5º NNO 2,3 km/h13,6 km/h1473.8 Lux
Fri 12, 04:28 PM28,7 ºC43,2 %964 hPa0,00 l/m2 157,5º SSE 4,4 km/h12,7 km/h1360.7 Lux
Fri 12, 04:33 PM28,5 ºC44,8 %964 hPa0,00 l/m2 225º SO 5,4 km/h11,0 km/h1473.8 Lux
Fri 12, 04:38 PM28,2 ºC46,1 %964 hPa0,00 l/m2 337,5º NNO 5,6 km/h11,6 km/h1415.6 Lux
Fri 12, 04:43 PM28,5 ºC45,3 %964 hPa0,00 l/m2 337,5º NNO 4,1 km/h8,1 km/h1415.6 Lux
Fri 12, 04:48 PM28,6 ºC44,6 %964 hPa0,00 l/m2 337,5º NNO 7,1 km/h15,6 km/h1213.3 Lux
Fri 12, 04:53 PM28,1 ºC44,6 %964 hPa0,00 l/m2 225º SO 4,0 km/h8,7 km/h1169.2 Lux
Fri 12, 04:58 PM28,6 ºC43,8 %963 hPa0,00 l/m2 225º SO 5,5 km/h13,3 km/h1259.7 Lux
Fri 12, 05:03 PM28,1 ºC45,2 %963 hPa0,00 l/m2 225º SO 3,6 km/h9,0 km/h1087.9 Lux
Fri 12, 05:08 PM29,0 ºC42,8 %963 hPa0,00 l/m2 157,5º SSE 5,4 km/h9,5 km/h1169.2 Lux
Fri 12, 05:13 PM28,2 ºC44,7 %963 hPa0,00 l/m2 45º NE 1,3 km/h4,6 km/h980.4 Lux
Fri 12, 05:18 PM29,0 ºC42,2 %963 hPa0,00 l/m2 315º NO 2,9 km/h6,7 km/h1127.5 Lux
Fri 12, 05:23 PM28,3 ºC44,3 %963 hPa0,00 l/m2 315º NO 1,9 km/h9,5 km/h887.7 Lux
Fri 12, 05:28 PM28,5 ºC43,0 %963 hPa0,00 l/m2 337,5º NNO 0,8 km/h3,5 km/h807.1 Lux
Fri 12, 05:33 PM28,2 ºC44,3 %963 hPa0,00 l/m2 202,5º SSO 1,5 km/h9,3 km/h674.9 Lux
Fri 12, 05:38 PM27,7 ºC45,6 %963 hPa0,00 l/m2 135º SE 4,7 km/h11,0 km/h674.9 Lux
Fri 12, 05:43 PM27,2 ºC47,3 %963 hPa0,00 l/m2 315º NO 2,2 km/h7,8 km/h603.5 Lux
Fri 12, 05:48 PM27,5 ºC46,5 %963 hPa0,00 l/m2 225º SO 2,8 km/h9,0 km/h656 Lux
Fri 12, 05:53 PM27,4 ºC46,0 %963 hPa0,00 l/m2 225º SO 3,9 km/h11,0 km/h656 Lux
Fri 12, 05:58 PM27,1 ºC45,7 %963 hPa0,00 l/m2 247,5º OSO 6,8 km/h12,1 km/h715.3 Lux
Fri 12, 06:03 PM27,2 ºC46,2 %963 hPa0,00 l/m2 315º NO 3,7 km/h8,1 km/h694.7 Lux
Fri 12, 06:08 PM27,5 ºC44,1 %963 hPa0,00 l/m2 315º NO 6,1 km/h10,7 km/h887.7 Lux
Fri 12, 06:13 PM27,7 ºC45,1 %963 hPa0,00 l/m2 225º SO 4,4 km/h11,8 km/h715.3 Lux
Fri 12, 06:18 PM27,8 ºC45,2 %963 hPa0,00 l/m2 225º SO 7,0 km/h13,6 km/h603.5 Lux
Fri 12, 06:33 PM26,9 ºC50,1 %963 hPa0,00 l/m2 247,5º OSO 6,6 km/h12,1 km/h347.3 Lux
Fri 12, 06:38 PM26,3 ºC53,8 %963 hPa0,00 l/m2 225º SO 5,4 km/h13,3 km/h313 Lux
Fri 12, 06:43 PM26,3 ºC54,9 %963 hPa0,00 l/m2 0º N 1,0 km/h3,7 km/h300.6 Lux
Fri 12, 06:48 PM26,3 ºC55,4 %963 hPa0,00 l/m2 225º SO 1,1 km/h5,8 km/h239.4 Lux
Fri 12, 06:53 PM26,2 ºC55,1 %963 hPa0,00 l/m2 225º SO 2,1 km/h8,7 km/h188.5 Lux
Fri 12, 06:58 PM26,0 ºC56,5 %963 hPa0,00 l/m2 225º SO 3,5 km/h8,1 km/h191.6 Lux
Fri 12, 07:03 PM25,7 ºC58,3 %963 hPa0,00 l/m2 337,5º NNO 1,4 km/h6,1 km/h198 Lux
Fri 12, 07:08 PM25,6 ºC58,6 %963 hPa0,00 l/m2 315º NO 2,3 km/h7,2 km/h115.2 Lux
Fri 12, 07:13 PM25,4 ºC58,6 %963 hPa0,00 l/m2 0º N 0,5 km/h3,2 km/h99.1 Lux
Fri 12, 07:18 PM25,4 ºC58,5 %964 hPa0,00 l/m2 157,5º SSE 1,9 km/h8,1 km/h67.8 Lux
Fri 12, 07:23 PM25,1 ºC59,0 %964 hPa0,00 l/m2 225º SO 4,2 km/h7,8 km/h47.4 Lux
Fri 12, 07:28 PM24,9 ºC60,3 %964 hPa0,00 l/m2 337,5º NNO 2,3 km/h8,7 km/h34.8 Lux
Fri 12, 07:33 PM24,6 ºC61,8 %964 hPa0,00 l/m2 225º SO 1,2 km/h6,4 km/h22 Lux
Fri 12, 07:38 PM24,4 ºC62,2 %964 hPa0,00 l/m2 337,5º NNO 0,1 km/h0,9 km/h12.4 Lux
Fri 12, 07:43 PM24,2 ºC63,7 %964 hPa0,00 l/m2 0º N 0,0 km/h0,0 km/h6.7 Lux
Fri 12, 07:48 PM24,1 ºC64,2 %964 hPa0,00 l/m2 67,5º ENE 0,0 km/h0,0 km/h4.6 Lux
Fri 12, 07:53 PM24,0 ºC64,3 %964 hPa0,00 l/m2 67,5º ENE 0,0 km/h0,0 km/h3.6 Lux
Fri 12, 07:58 PM23,9 ºC65,3 %964 hPa0,00 l/m2 247,5º OSO 0,1 km/h1,4 km/h3.1 Lux
Fri 12, 08:03 PM23,8 ºC63,3 %964 hPa0,00 l/m2 337,5º NNO 0,2 km/h1,4 km/h2.6 Lux
Fri 12, 08:08 PM23,8 ºC62,9 %964 hPa0,00 l/m2 315º NO 0,0 km/h0,3 km/h2.3 Lux
Fri 12, 08:13 PM23,6 ºC63,1 %964 hPa0,00 l/m2 202,5º SSO 0,8 km/h7,8 km/h2.3 Lux
Fri 12, 08:18 PM23,6 ºC62,2 %964 hPa0,00 l/m2 247,5º OSO 0,8 km/h4,6 km/h2.3 Lux
Fri 12, 08:23 PM23,6 ºC62,1 %964 hPa0,00 l/m2 157,5º SSE 0,3 km/h2,6 km/h2.3 Lux
Fri 12, 08:28 PM23,5 ºC62,7 %964 hPa0,00 l/m2 67,5º ENE 0,0 km/h0,0 km/h2.2 Lux
Fri 12, 08:33 PM23,2 ºC64,5 %964 hPa0,00 l/m2 67,5º ENE 0,0 km/h0,0 km/h2.3 Lux
Fri 12, 08:38 PM23,1 ºC64,7 %964 hPa0,00 l/m2 67,5º ENE 0,0 km/h0,0 km/h2.3 Lux
Fri 12, 08:43 PM23,1 ºC64,2 %964 hPa0,00 l/m2 45º NE 0,0 km/h0,0 km/h2.3 Lux
Fri 12, 08:48 PM23,1 ºC63,8 %964 hPa0,00 l/m2 45º NE 0,0 km/h0,0 km/h2.2 Lux
Fri 12, 08:53 PM23,0 ºC64,5 %964 hPa0,00 l/m2 67,5º ENE 0,0 km/h0,0 km/h2.2 Lux
Fri 12, 08:58 PM22,7 ºC65,9 %964 hPa0,00 l/m2 45º NE 0,0 km/h0,0 km/h2.1 Lux
Fri 12, 09:03 PM23,0 ºC65,4 %964 hPa0,00 l/m2 67,5º ENE 0,0 km/h0,0 km/h2.3 Lux
Fri 12, 09:08 PM22,5 ºC70,3 %964 hPa0,00 l/m2 337,5º NNO 0,0 km/h0,0 km/h2.1 Lux
Fri 12, 09:13 PM22,7 ºC68,1 %964 hPa0,00 l/m2 67,5º ENE 0,0 km/h0,0 km/h2.2 Lux
Fri 12, 09:18 PM22,3 ºC72,0 %964 hPa0,00 l/m2 45º NE 0,0 km/h0,0 km/h2.3 Lux
Fri 12, 09:23 PM22,1 ºC71,9 %964 hPa0,00 l/m2 67,5º ENE 0,0 km/h0,0 km/h2.3 Lux
Fri 12, 09:28 PM21,9 ºC73,7 %964 hPa0,00 l/m2 157,5º SSE 0,0 km/h0,0 km/h2.1 Lux
Fri 12, 09:33 PM21,7 ºC75,2 %964 hPa0,00 l/m2 157,5º SSE 0,0 km/h0,0 km/h2.3 Lux
Fri 12, 09:38 PM21,4 ºC77,7 %964 hPa0,00 l/m2 67,5º ENE 0,0 km/h0,0 km/h2.3 Lux
Fri 12, 09:43 PM21,7 ºC75,4 %964 hPa0,00 l/m2 67,5º ENE 0,0 km/h0,0 km/h2.3 Lux
Fri 12, 09:48 PM21,4 ºC75,1 %964 hPa0,00 l/m2 67,5º ENE 0,0 km/h0,0 km/h2.2 Lux
Fri 12, 09:53 PM21,5 ºC75,9 %964 hPa0,00 l/m2 45º NE 0,0 km/h0,0 km/h2.2 Lux
Fri 12, 09:58 PM21,7 ºC75,4 %964 hPa0,00 l/m2 67,5º ENE 0,0 km/h0,0 km/h2.3 Lux
Fri 12, 10:03 PM21,6 ºC76,9 %964 hPa0,00 l/m2 225º SO 0,0 km/h0,0 km/h2.3 Lux
Fri 12, 10:08 PM21,5 ºC77,1 %964 hPa0,00 l/m2 67,5º ENE 0,0 km/h0,0 km/h2.4 Lux
Fri 12, 10:13 PM21,6 ºC77,1 %964 hPa0,00 l/m2 45º NE 0,0 km/h0,0 km/h2.3 Lux
Fri 12, 10:18 PM21,7 ºC75,8 %964 hPa0,00 l/m2 247,5º OSO 0,0 km/h0,0 km/h2.1 Lux
Fri 12, 10:23 PM21,7 ºC75,8 %964 hPa0,00 l/m2 337,5º NNO 0,1 km/h0,6 km/h2.3 Lux
Fri 12, 10:28 PM21,7 ºC75,6 %964 hPa0,00 l/m2 0º N 0,0 km/h0,3 km/h2.2 Lux
Fri 12, 10:33 PM21,7 ºC75,5 %964 hPa0,00 l/m2 67,5º ENE 0,1 km/h1,2 km/h2.3 Lux
Fri 12, 10:38 PM21,7 ºC75,5 %964 hPa0,00 l/m2 67,5º ENE 0,0 km/h0,0 km/h2.3 Lux
Fri 12, 10:43 PM21,6 ºC75,0 %964 hPa0,00 l/m2 45º NE 0,0 km/h0,3 km/h2.3 Lux
Fri 12, 10:48 PM21,5 ºC75,3 %964 hPa0,00 l/m2 0º N 0,2 km/h1,7 km/h2.3 Lux
Fri 12, 10:53 PM21,4 ºC75,7 %964 hPa0,00 l/m2 0º N 0,1 km/h1,2 km/h2.3 Lux
Fri 12, 10:58 PM21,4 ºC75,4 %964 hPa0,00 l/m2 0º N 0,0 km/h0,6 km/h2.3 Lux
Fri 12, 11:03 PM21,3 ºC75,4 %964 hPa0,00 l/m2 337,5º NNO 0,0 km/h0,3 km/h2.2 Lux
Fri 12, 11:08 PM21,3 ºC74,8 %964 hPa0,00 l/m2 67,5º ENE 0,2 km/h1,2 km/h2.3 Lux
Fri 12, 11:13 PM21,3 ºC75,0 %964 hPa0,00 l/m2 0º N 0,3 km/h2,6 km/h2.2 Lux
Fri 12, 11:18 PM21,2 ºC75,5 %964 hPa0,00 l/m2 0º N 0,1 km/h1,2 km/h2.2 Lux
Fri 12, 11:23 PM21,1 ºC75,9 %964 hPa0,00 l/m2 67,5º ENE 0,1 km/h1,4 km/h2.3 Lux
Fri 12, 11:28 PM21,1 ºC75,5 %964 hPa0,00 l/m2 45º NE 0,4 km/h3,2 km/h2.2 Lux
Fri 12, 11:33 PM21,2 ºC75,2 %964 hPa0,00 l/m2 0º N 0,2 km/h1,4 km/h2.2 Lux
Fri 12, 11:38 PM21,1 ºC75,6 %964 hPa0,00 l/m2 45º NE 0,1 km/h0,9 km/h2.4 Lux
Fri 12, 11:43 PM21,1 ºC75,7 %964 hPa0,00 l/m2 45º NE 0,0 km/h0,6 km/h2.1 Lux
Fri 12, 11:48 PM21,0 ºC76,3 %964 hPa0,00 l/m2 0º N 0,0 km/h0,0 km/h2.3 Lux
Fri 12, 11:53 PM21,0 ºC76,3 %964 hPa0,00 l/m2 0º N 0,0 km/h0,0 km/h2.3 Lux
Fri 12, 11:58 PM21,1 ºC75,7 %964 hPa0,00 l/m2 45º NE 0,0 km/h0,0 km/h2.3 Lux
WeatherStation © 2018